<?xml version="1.0" encoding="UTF-8" standalone="no" ?>
<gpx xmlns="http://www.topografix.com/GPX/1/1" xmlns:xsi="http://www.w3.org/2001/XMLSchema-instance" xsi:schemaLocation="http://www.topografix.com/GPX/1/1 http://www.topografix.com/GPX/1/1/gpx.xsd" version="1.1" creator="VisuGPX - https://www.visugpx.com">
  <metadata>
    <name>Sommet de l' Aigle 2078 m.</name>
    <desc><![CDATA[Départ du Col de Peyresourde 1563 m. On monte dans la forêt domaniale, puis on enchaîne le sommet de Lampet, le Pic Arrouy, le Cap de Hont Nère, le Sommet de Pouyaué pour aboutir au sommet de l'Aigle à 2078 m. Randonnée exigeante car  les montées et descentes (dans les deux sens) s' enchaînent. En haut, beau belvédère pour une vue à 360 ° sur les sommets du Luchonais aux Hautes-Pyrénées. On peut également admirer le massif de la Maladeta avec l'Aneto et son glacier.

]]></desc>
  </metadata>
  <trk>
    <name><![CDATA[Sommet de l'Aigle 2078 m]]></name>
    <trkseg>
      <trkpt lat="42.80237" lon="0.46415">
        <ele>1555.55</ele>
        <time>2016-03-13T08:17:58Z</time>
      </trkpt>
      <trkpt lat="42.80235" lon="0.46416">
        <ele>1555.55</ele>
        <time>2016-03-13T08:18:23Z</time>
      </trkpt>
      <trkpt lat="42.80228" lon="0.4638">
        <ele>1556.99</ele>
        <time>2016-03-13T08:19:05Z</time>
      </trkpt>
      <trkpt lat="42.80228" lon="0.46364">
        <ele>1558.43</ele>
        <time>2016-03-13T08:19:20Z</time>
      </trkpt>
      <trkpt lat="42.80228" lon="0.46342">
        <ele>1559.4</ele>
        <time>2016-03-13T08:19:36Z</time>
      </trkpt>
      <trkpt lat="42.80227" lon="0.46324">
        <ele>1560.36</ele>
        <time>2016-03-13T08:19:51Z</time>
      </trkpt>
      <trkpt lat="42.80226" lon="0.46304">
        <ele>1561.32</ele>
        <time>2016-03-13T08:20:05Z</time>
      </trkpt>
      <trkpt lat="42.80225" lon="0.4629">
        <ele>1561.32</ele>
        <time>2016-03-13T08:20:14Z</time>
      </trkpt>
      <trkpt lat="42.8023" lon="0.46267">
        <ele>1561.8</ele>
        <time>2016-03-13T08:20:30Z</time>
      </trkpt>
      <trkpt lat="42.8023" lon="0.46257">
        <ele>1561.8</ele>
        <time>2016-03-13T08:20:39Z</time>
      </trkpt>
      <trkpt lat="42.80231" lon="0.46238">
        <ele>1561.8</ele>
        <time>2016-03-13T08:20:51Z</time>
      </trkpt>
      <trkpt lat="42.80231" lon="0.46235">
        <ele>1561.8</ele>
        <time>2016-03-13T08:20:53Z</time>
      </trkpt>
      <trkpt lat="42.80234" lon="0.46228">
        <ele>1561.8</ele>
        <time>2016-03-13T08:21:08Z</time>
      </trkpt>
      <trkpt lat="42.80234" lon="0.46229">
        <ele>1561.8</ele>
        <time>2016-03-13T08:21:32Z</time>
      </trkpt>
      <trkpt lat="42.80234" lon="0.46228">
        <ele>1561.8</ele>
        <time>2016-03-13T08:21:46Z</time>
      </trkpt>
      <trkpt lat="42.80238" lon="0.46215">
        <ele>1561.8</ele>
        <time>2016-03-13T08:22:02Z</time>
      </trkpt>
      <trkpt lat="42.80241" lon="0.46203">
        <ele>1562.76</ele>
        <time>2016-03-13T08:22:13Z</time>
      </trkpt>
      <trkpt lat="42.80245" lon="0.46192">
        <ele>1564.68</ele>
        <time>2016-03-13T08:22:28Z</time>
      </trkpt>
      <trkpt lat="42.80247" lon="0.46182">
        <ele>1566.12</ele>
        <time>2016-03-13T08:22:42Z</time>
      </trkpt>
      <trkpt lat="42.80248" lon="0.46179">
        <ele>1566.61</ele>
        <time>2016-03-13T08:22:50Z</time>
      </trkpt>
      <trkpt lat="42.80249" lon="0.46174">
        <ele>1567.09</ele>
        <time>2016-03-13T08:22:54Z</time>
      </trkpt>
      <trkpt lat="42.80252" lon="0.46154">
        <ele>1569.01</ele>
        <time>2016-03-13T08:23:09Z</time>
      </trkpt>
      <trkpt lat="42.80254" lon="0.46137">
        <ele>1570.93</ele>
        <time>2016-03-13T08:23:24Z</time>
      </trkpt>
      <trkpt lat="42.80254" lon="0.46114">
        <ele>1572.85</ele>
        <time>2016-03-13T08:23:40Z</time>
      </trkpt>
      <trkpt lat="42.80258" lon="0.46097">
        <ele>1574.78</ele>
        <time>2016-03-13T08:23:55Z</time>
      </trkpt>
      <trkpt lat="42.8026" lon="0.46084">
        <ele>1575.74</ele>
        <time>2016-03-13T08:24:06Z</time>
      </trkpt>
      <trkpt lat="42.80259" lon="0.46065">
        <ele>1577.18</ele>
        <time>2016-03-13T08:24:21Z</time>
      </trkpt>
      <trkpt lat="42.8026" lon="0.46045">
        <ele>1579.1</ele>
        <time>2016-03-13T08:24:36Z</time>
      </trkpt>
      <trkpt lat="42.80263" lon="0.46032">
        <ele>1580.06</ele>
        <time>2016-03-13T08:24:47Z</time>
      </trkpt>
      <trkpt lat="42.80263" lon="0.46009">
        <ele>1582.47</ele>
        <time>2016-03-13T08:25:05Z</time>
      </trkpt>
      <trkpt lat="42.80262" lon="0.4599">
        <ele>1583.91</ele>
        <time>2016-03-13T08:25:21Z</time>
      </trkpt>
      <trkpt lat="42.80263" lon="0.45975">
        <ele>1585.35</ele>
        <time>2016-03-13T08:25:35Z</time>
      </trkpt>
      <trkpt lat="42.80267" lon="0.45966">
        <ele>1586.79</ele>
        <time>2016-03-13T08:25:43Z</time>
      </trkpt>
      <trkpt lat="42.8027" lon="0.4595">
        <ele>1588.72</ele>
        <time>2016-03-13T08:25:59Z</time>
      </trkpt>
      <trkpt lat="42.8027" lon="0.4593">
        <ele>1590.64</ele>
        <time>2016-03-13T08:26:15Z</time>
      </trkpt>
      <trkpt lat="42.8027" lon="0.45927">
        <ele>1591.12</ele>
        <time>2016-03-13T08:26:17Z</time>
      </trkpt>
      <trkpt lat="42.80274" lon="0.45912">
        <ele>1592.56</ele>
        <time>2016-03-13T08:26:29Z</time>
      </trkpt>
      <trkpt lat="42.80278" lon="0.45897">
        <ele>1594.96</ele>
        <time>2016-03-13T08:26:44Z</time>
      </trkpt>
      <trkpt lat="42.80276" lon="0.45874">
        <ele>1597.37</ele>
        <time>2016-03-13T08:27:00Z</time>
      </trkpt>
      <trkpt lat="42.80277" lon="0.45853">
        <ele>1599.77</ele>
        <time>2016-03-13T08:27:16Z</time>
      </trkpt>
      <trkpt lat="42.80278" lon="0.45827">
        <ele>1602.17</ele>
        <time>2016-03-13T08:27:36Z</time>
      </trkpt>
      <trkpt lat="42.80282" lon="0.45809">
        <ele>1604.1</ele>
        <time>2016-03-13T08:27:51Z</time>
      </trkpt>
      <trkpt lat="42.80289" lon="0.45809">
        <ele>1605.54</ele>
        <time>2016-03-13T08:28:04Z</time>
      </trkpt>
      <trkpt lat="42.80288" lon="0.45814">
        <ele>1606.02</ele>
        <time>2016-03-13T08:28:08Z</time>
      </trkpt>
      <trkpt lat="42.80287" lon="0.45831">
        <ele>1607.46</ele>
        <time>2016-03-13T08:28:21Z</time>
      </trkpt>
      <trkpt lat="42.80291" lon="0.45846">
        <ele>1609.38</ele>
        <time>2016-03-13T08:28:36Z</time>
      </trkpt>
      <trkpt lat="42.80291" lon="0.45848">
        <ele>1609.86</ele>
        <time>2016-03-13T08:28:38Z</time>
      </trkpt>
      <trkpt lat="42.80295" lon="0.45868">
        <ele>1611.79</ele>
        <time>2016-03-13T08:28:54Z</time>
      </trkpt>
      <trkpt lat="42.803" lon="0.45883">
        <ele>1614.19</ele>
        <time>2016-03-13T08:29:07Z</time>
      </trkpt>
      <trkpt lat="42.803" lon="0.45884">
        <ele>1614.67</ele>
        <time>2016-03-13T08:29:08Z</time>
      </trkpt>
      <trkpt lat="42.80303" lon="0.45891">
        <ele>1615.63</ele>
        <time>2016-03-13T08:29:15Z</time>
      </trkpt>
      <trkpt lat="42.80309" lon="0.45914">
        <ele>1617.56</ele>
        <time>2016-03-13T08:29:32Z</time>
      </trkpt>
      <trkpt lat="42.80305" lon="0.45929">
        <ele>1619</ele>
        <time>2016-03-13T08:29:43Z</time>
      </trkpt>
      <trkpt lat="42.80309" lon="0.45941">
        <ele>1620.44</ele>
        <time>2016-03-13T08:29:54Z</time>
      </trkpt>
      <trkpt lat="42.80319" lon="0.45956">
        <ele>1623.32</ele>
        <time>2016-03-13T08:30:11Z</time>
      </trkpt>
      <trkpt lat="42.8032" lon="0.45961">
        <ele>1623.8</ele>
        <time>2016-03-13T08:30:15Z</time>
      </trkpt>
      <trkpt lat="42.80318" lon="0.45981">
        <ele>1625.25</ele>
        <time>2016-03-13T08:30:30Z</time>
      </trkpt>
      <trkpt lat="42.8032" lon="0.45996">
        <ele>1627.17</ele>
        <time>2016-03-13T08:30:42Z</time>
      </trkpt>
      <trkpt lat="42.80326" lon="0.46013">
        <ele>1629.09</ele>
        <time>2016-03-13T08:30:57Z</time>
      </trkpt>
      <trkpt lat="42.80328" lon="0.46026">
        <ele>1630.53</ele>
        <time>2016-03-13T08:31:07Z</time>
      </trkpt>
      <trkpt lat="42.80329" lon="0.46038">
        <ele>1631.49</ele>
        <time>2016-03-13T08:31:16Z</time>
      </trkpt>
      <trkpt lat="42.80333" lon="0.46058">
        <ele>1633.9</ele>
        <time>2016-03-13T08:31:31Z</time>
      </trkpt>
      <trkpt lat="42.80338" lon="0.46079">
        <ele>1635.82</ele>
        <time>2016-03-13T08:31:47Z</time>
      </trkpt>
      <trkpt lat="42.80341" lon="0.46098">
        <ele>1637.74</ele>
        <time>2016-03-13T08:32:02Z</time>
      </trkpt>
      <trkpt lat="42.80345" lon="0.46114">
        <ele>1640.15</ele>
        <time>2016-03-13T08:32:15Z</time>
      </trkpt>
      <trkpt lat="42.8035" lon="0.46129">
        <ele>1641.59</ele>
        <time>2016-03-13T08:32:29Z</time>
      </trkpt>
      <trkpt lat="42.80352" lon="0.46149">
        <ele>1643.51</ele>
        <time>2016-03-13T08:32:43Z</time>
      </trkpt>
      <trkpt lat="42.80354" lon="0.46167">
        <ele>1645.43</ele>
        <time>2016-03-13T08:32:57Z</time>
      </trkpt>
      <trkpt lat="42.80356" lon="0.46185">
        <ele>1647.36</ele>
        <time>2016-03-13T08:33:11Z</time>
      </trkpt>
      <trkpt lat="42.80359" lon="0.46197">
        <ele>1649.28</ele>
        <time>2016-03-13T08:33:21Z</time>
      </trkpt>
      <trkpt lat="42.80362" lon="0.46215">
        <ele>1651.2</ele>
        <time>2016-03-13T08:33:35Z</time>
      </trkpt>
      <trkpt lat="42.80365" lon="0.4623">
        <ele>1652.64</ele>
        <time>2016-03-13T08:33:49Z</time>
      </trkpt>
      <trkpt lat="42.80368" lon="0.46242">
        <ele>1655.05</ele>
        <time>2016-03-13T08:34:03Z</time>
      </trkpt>
      <trkpt lat="42.8037" lon="0.46236">
        <ele>1655.53</ele>
        <time>2016-03-13T08:34:08Z</time>
      </trkpt>
      <trkpt lat="42.8037" lon="0.46222">
        <ele>1656.97</ele>
        <time>2016-03-13T08:35:02Z</time>
      </trkpt>
      <trkpt lat="42.80371" lon="0.46217">
        <ele>1656.97</ele>
        <time>2016-03-13T08:36:17Z</time>
      </trkpt>
      <trkpt lat="42.8037" lon="0.46211">
        <ele>1657.45</ele>
        <time>2016-03-13T08:36:54Z</time>
      </trkpt>
      <trkpt lat="42.80371" lon="0.46192">
        <ele>1659.37</ele>
        <time>2016-03-13T08:37:10Z</time>
      </trkpt>
      <trkpt lat="42.80371" lon="0.4617">
        <ele>1661.3</ele>
        <time>2016-03-13T08:37:29Z</time>
      </trkpt>
      <trkpt lat="42.80373" lon="0.46155">
        <ele>1663.22</ele>
        <time>2016-03-13T08:37:43Z</time>
      </trkpt>
      <trkpt lat="42.80375" lon="0.46139">
        <ele>1664.66</ele>
        <time>2016-03-13T08:37:57Z</time>
      </trkpt>
      <trkpt lat="42.80377" lon="0.46119">
        <ele>1667.54</ele>
        <time>2016-03-13T08:38:14Z</time>
      </trkpt>
      <trkpt lat="42.80379" lon="0.46101">
        <ele>1669.47</ele>
        <time>2016-03-13T08:38:27Z</time>
      </trkpt>
      <trkpt lat="42.80379" lon="0.46084">
        <ele>1671.39</ele>
        <time>2016-03-13T08:38:42Z</time>
      </trkpt>
      <trkpt lat="42.80381" lon="0.46066">
        <ele>1673.79</ele>
        <time>2016-03-13T08:38:58Z</time>
      </trkpt>
      <trkpt lat="42.80382" lon="0.46046">
        <ele>1675.72</ele>
        <time>2016-03-13T08:39:14Z</time>
      </trkpt>
      <trkpt lat="42.80383" lon="0.46027">
        <ele>1677.16</ele>
        <time>2016-03-13T08:39:29Z</time>
      </trkpt>
      <trkpt lat="42.80384" lon="0.4601">
        <ele>1679.08</ele>
        <time>2016-03-13T08:39:43Z</time>
      </trkpt>
      <trkpt lat="42.80384" lon="0.4599">
        <ele>1680.52</ele>
        <time>2016-03-13T08:39:58Z</time>
      </trkpt>
      <trkpt lat="42.80386" lon="0.45971">
        <ele>1682.44</ele>
        <time>2016-03-13T08:40:14Z</time>
      </trkpt>
      <trkpt lat="42.80387" lon="0.45951">
        <ele>1684.85</ele>
        <time>2016-03-13T08:40:29Z</time>
      </trkpt>
      <trkpt lat="42.80388" lon="0.45933">
        <ele>1686.29</ele>
        <time>2016-03-13T08:40:43Z</time>
      </trkpt>
      <trkpt lat="42.80389" lon="0.45914">
        <ele>1688.21</ele>
        <time>2016-03-13T08:40:58Z</time>
      </trkpt>
      <trkpt lat="42.80391" lon="0.45895">
        <ele>1690.14</ele>
        <time>2016-03-13T08:41:13Z</time>
      </trkpt>
      <trkpt lat="42.80393" lon="0.45873">
        <ele>1692.06</ele>
        <time>2016-03-13T08:41:29Z</time>
      </trkpt>
      <trkpt lat="42.80394" lon="0.45851">
        <ele>1693.98</ele>
        <time>2016-03-13T08:41:44Z</time>
      </trkpt>
      <trkpt lat="42.80397" lon="0.4583">
        <ele>1695.9</ele>
        <time>2016-03-13T08:41:59Z</time>
      </trkpt>
      <trkpt lat="42.80395" lon="0.45812">
        <ele>1697.83</ele>
        <time>2016-03-13T08:42:13Z</time>
      </trkpt>
      <trkpt lat="42.80396" lon="0.45792">
        <ele>1700.71</ele>
        <time>2016-03-13T08:42:29Z</time>
      </trkpt>
      <trkpt lat="42.80397" lon="0.45775">
        <ele>1702.63</ele>
        <time>2016-03-13T08:42:44Z</time>
      </trkpt>
      <trkpt lat="42.80398" lon="0.45757">
        <ele>1705.04</ele>
        <time>2016-03-13T08:42:58Z</time>
      </trkpt>
      <trkpt lat="42.80399" lon="0.45739">
        <ele>1706.48</ele>
        <time>2016-03-13T08:43:13Z</time>
      </trkpt>
      <trkpt lat="42.80412" lon="0.45718">
        <ele>1708.88</ele>
        <time>2016-03-13T08:43:32Z</time>
      </trkpt>
      <trkpt lat="42.80422" lon="0.45704">
        <ele>1711.28</ele>
        <time>2016-03-13T08:43:47Z</time>
      </trkpt>
      <trkpt lat="42.80434" lon="0.45692">
        <ele>1713.21</ele>
        <time>2016-03-13T08:44:03Z</time>
      </trkpt>
      <trkpt lat="42.80436" lon="0.45693">
        <ele>1713.69</ele>
        <time>2016-03-13T08:44:19Z</time>
      </trkpt>
      <trkpt lat="42.80437" lon="0.45695">
        <ele>1713.69</ele>
        <time>2016-03-13T08:45:17Z</time>
      </trkpt>
      <trkpt lat="42.80446" lon="0.45685">
        <ele>1714.65</ele>
        <time>2016-03-13T08:45:31Z</time>
      </trkpt>
      <trkpt lat="42.80449" lon="0.45681">
        <ele>1714.65</ele>
        <time>2016-03-13T08:45:35Z</time>
      </trkpt>
      <trkpt lat="42.80459" lon="0.45674">
        <ele>1715.61</ele>
        <time>2016-03-13T08:45:52Z</time>
      </trkpt>
      <trkpt lat="42.80459" lon="0.45673">
        <ele>1715.61</ele>
        <time>2016-03-13T08:46:08Z</time>
      </trkpt>
      <trkpt lat="42.80461" lon="0.45672">
        <ele>1715.61</ele>
        <time>2016-03-13T08:46:50Z</time>
      </trkpt>
      <trkpt lat="42.80465" lon="0.45669">
        <ele>1716.57</ele>
        <time>2016-03-13T08:47:00Z</time>
      </trkpt>
      <trkpt lat="42.80472" lon="0.45672">
        <ele>1717.05</ele>
        <time>2016-03-13T08:47:15Z</time>
      </trkpt>
      <trkpt lat="42.80477" lon="0.45679">
        <ele>1717.05</ele>
        <time>2016-03-13T08:47:27Z</time>
      </trkpt>
      <trkpt lat="42.80488" lon="0.45688">
        <ele>1719.94</ele>
        <time>2016-03-13T08:47:44Z</time>
      </trkpt>
      <trkpt lat="42.80492" lon="0.45698">
        <ele>1722.34</ele>
        <time>2016-03-13T08:47:58Z</time>
      </trkpt>
      <trkpt lat="42.80486" lon="0.45707">
        <ele>1724.26</ele>
        <time>2016-03-13T08:48:12Z</time>
      </trkpt>
      <trkpt lat="42.80478" lon="0.45714">
        <ele>1727.15</ele>
        <time>2016-03-13T08:48:25Z</time>
      </trkpt>
      <trkpt lat="42.80473" lon="0.45722">
        <ele>1728.59</ele>
        <time>2016-03-13T08:48:34Z</time>
      </trkpt>
      <trkpt lat="42.8047" lon="0.45735">
        <ele>1730.51</ele>
        <time>2016-03-13T08:48:47Z</time>
      </trkpt>
      <trkpt lat="42.80466" lon="0.45751">
        <ele>1733.39</ele>
        <time>2016-03-13T08:49:03Z</time>
      </trkpt>
      <trkpt lat="42.80464" lon="0.45765">
        <ele>1735.8</ele>
        <time>2016-03-13T08:49:17Z</time>
      </trkpt>
      <trkpt lat="42.80464" lon="0.45778">
        <ele>1738.2</ele>
        <time>2016-03-13T08:49:34Z</time>
      </trkpt>
      <trkpt lat="42.80466" lon="0.45785">
        <ele>1740.12</ele>
        <time>2016-03-13T08:49:51Z</time>
      </trkpt>
      <trkpt lat="42.80469" lon="0.45794">
        <ele>1742.05</ele>
        <time>2016-03-13T08:50:05Z</time>
      </trkpt>
      <trkpt lat="42.80473" lon="0.45804">
        <ele>1744.45</ele>
        <time>2016-03-13T08:50:20Z</time>
      </trkpt>
      <trkpt lat="42.80476" lon="0.45812">
        <ele>1746.37</ele>
        <time>2016-03-13T08:50:34Z</time>
      </trkpt>
      <trkpt lat="42.80477" lon="0.45824">
        <ele>1748.78</ele>
        <time>2016-03-13T08:50:48Z</time>
      </trkpt>
      <trkpt lat="42.80481" lon="0.45837">
        <ele>1751.18</ele>
        <time>2016-03-13T08:51:04Z</time>
      </trkpt>
      <trkpt lat="42.80484" lon="0.4585">
        <ele>1753.58</ele>
        <time>2016-03-13T08:51:22Z</time>
      </trkpt>
      <trkpt lat="42.80486" lon="0.45859">
        <ele>1755.02</ele>
        <time>2016-03-13T08:51:36Z</time>
      </trkpt>
      <trkpt lat="42.8049" lon="0.4587">
        <ele>1756.47</ele>
        <time>2016-03-13T08:51:52Z</time>
      </trkpt>
      <trkpt lat="42.80497" lon="0.4588">
        <ele>1759.35</ele>
        <time>2016-03-13T08:52:08Z</time>
      </trkpt>
      <trkpt lat="42.80503" lon="0.4589">
        <ele>1761.27</ele>
        <time>2016-03-13T08:52:24Z</time>
      </trkpt>
      <trkpt lat="42.80505" lon="0.45895">
        <ele>1762.71</ele>
        <time>2016-03-13T08:52:41Z</time>
      </trkpt>
      <trkpt lat="42.80509" lon="0.45897">
        <ele>1762.71</ele>
        <time>2016-03-13T08:53:57Z</time>
      </trkpt>
      <trkpt lat="42.80508" lon="0.45897">
        <ele>1762.71</ele>
        <time>2016-03-13T08:54:40Z</time>
      </trkpt>
      <trkpt lat="42.80511" lon="0.45899">
        <ele>1764.64</ele>
        <time>2016-03-13T08:57:19Z</time>
      </trkpt>
      <trkpt lat="42.80515" lon="0.45901">
        <ele>1765.6</ele>
        <time>2016-03-13T08:57:41Z</time>
      </trkpt>
      <trkpt lat="42.80521" lon="0.45903">
        <ele>1767.04</ele>
        <time>2016-03-13T08:57:52Z</time>
      </trkpt>
      <trkpt lat="42.8053" lon="0.45906">
        <ele>1769.92</ele>
        <time>2016-03-13T08:58:07Z</time>
      </trkpt>
      <trkpt lat="42.80538" lon="0.45909">
        <ele>1772.33</ele>
        <time>2016-03-13T08:58:22Z</time>
      </trkpt>
      <trkpt lat="42.80545" lon="0.45909">
        <ele>1775.21</ele>
        <time>2016-03-13T08:58:36Z</time>
      </trkpt>
      <trkpt lat="42.8055" lon="0.45907">
        <ele>1777.61</ele>
        <time>2016-03-13T08:58:50Z</time>
      </trkpt>
      <trkpt lat="42.80557" lon="0.45907">
        <ele>1780.5</ele>
        <time>2016-03-13T08:59:05Z</time>
      </trkpt>
      <trkpt lat="42.80562" lon="0.45907">
        <ele>1782.9</ele>
        <time>2016-03-13T08:59:20Z</time>
      </trkpt>
      <trkpt lat="42.80565" lon="0.45906">
        <ele>1784.34</ele>
        <time>2016-03-13T08:59:34Z</time>
      </trkpt>
      <trkpt lat="42.80581" lon="0.45908">
        <ele>1791.07</ele>
        <time>2016-03-13T09:00:17Z</time>
      </trkpt>
      <trkpt lat="42.80591" lon="0.45912">
        <ele>1794.44</ele>
        <time>2016-03-13T09:00:33Z</time>
      </trkpt>
      <trkpt lat="42.80596" lon="0.45915">
        <ele>1795.88</ele>
        <time>2016-03-13T09:00:44Z</time>
      </trkpt>
      <trkpt lat="42.80607" lon="0.45914">
        <ele>1795.88</ele>
        <time>2016-03-13T09:00:58Z</time>
      </trkpt>
      <trkpt lat="42.80618" lon="0.45915">
        <ele>1795.88</ele>
        <time>2016-03-13T09:01:11Z</time>
      </trkpt>
      <trkpt lat="42.80623" lon="0.45915">
        <ele>1795.88</ele>
        <time>2016-03-13T09:01:26Z</time>
      </trkpt>
      <trkpt lat="42.80625" lon="0.45915">
        <ele>1795.88</ele>
        <time>2016-03-13T09:01:49Z</time>
      </trkpt>
      <trkpt lat="42.80628" lon="0.45916">
        <ele>1795.88</ele>
        <time>2016-03-13T09:02:05Z</time>
      </trkpt>
      <trkpt lat="42.80627" lon="0.45917">
        <ele>1795.88</ele>
        <time>2016-03-13T09:02:28Z</time>
      </trkpt>
      <trkpt lat="42.80628" lon="0.45917">
        <ele>1795.88</ele>
        <time>2016-03-13T09:02:55Z</time>
      </trkpt>
      <trkpt lat="42.80628" lon="0.45918">
        <ele>1795.88</ele>
        <time>2016-03-13T09:03:27Z</time>
      </trkpt>
      <trkpt lat="42.80628" lon="0.45918">
        <ele>1795.88</ele>
        <time>2016-03-13T09:03:50Z</time>
      </trkpt>
      <trkpt lat="42.80635" lon="0.45911">
        <ele>1795.88</ele>
        <time>2016-03-13T09:04:01Z</time>
      </trkpt>
      <trkpt lat="42.80639" lon="0.4591">
        <ele>1795.88</ele>
        <time>2016-03-13T09:04:05Z</time>
      </trkpt>
      <trkpt lat="42.80651" lon="0.45899">
        <ele>1795.88</ele>
        <time>2016-03-13T09:04:19Z</time>
      </trkpt>
      <trkpt lat="42.80651" lon="0.45899">
        <ele>1795.88</ele>
        <time>2016-03-13T09:04:20Z</time>
      </trkpt>
      <trkpt lat="42.80662" lon="0.45891">
        <ele>1797.32</ele>
        <time>2016-03-13T09:04:34Z</time>
      </trkpt>
      <trkpt lat="42.8067" lon="0.45885">
        <ele>1799.73</ele>
        <time>2016-03-13T09:04:48Z</time>
      </trkpt>
      <trkpt lat="42.80678" lon="0.4588">
        <ele>1801.65</ele>
        <time>2016-03-13T09:05:01Z</time>
      </trkpt>
      <trkpt lat="42.80683" lon="0.45878">
        <ele>1802.61</ele>
        <time>2016-03-13T09:05:08Z</time>
      </trkpt>
      <trkpt lat="42.80694" lon="0.45871">
        <ele>1804.53</ele>
        <time>2016-03-13T09:05:23Z</time>
      </trkpt>
      <trkpt lat="42.807" lon="0.4586">
        <ele>1805.49</ele>
        <time>2016-03-13T09:05:35Z</time>
      </trkpt>
      <trkpt lat="42.80704" lon="0.45849">
        <ele>1805.49</ele>
        <time>2016-03-13T09:05:50Z</time>
      </trkpt>
      <trkpt lat="42.80704" lon="0.45845">
        <ele>1805.49</ele>
        <time>2016-03-13T09:05:57Z</time>
      </trkpt>
      <trkpt lat="42.80704" lon="0.45826">
        <ele>1805.49</ele>
        <time>2016-03-13T09:06:11Z</time>
      </trkpt>
      <trkpt lat="42.80705" lon="0.45815">
        <ele>1804.05</ele>
        <time>2016-03-13T09:06:18Z</time>
      </trkpt>
      <trkpt lat="42.80705" lon="0.45795">
        <ele>1801.65</ele>
        <time>2016-03-13T09:06:32Z</time>
      </trkpt>
      <trkpt lat="42.80707" lon="0.45791">
        <ele>1801.17</ele>
        <time>2016-03-13T09:06:35Z</time>
      </trkpt>
      <trkpt lat="42.80709" lon="0.45789">
        <ele>1799.73</ele>
        <time>2016-03-13T09:06:39Z</time>
      </trkpt>
      <trkpt lat="42.80717" lon="0.45782">
        <ele>1795.88</ele>
        <time>2016-03-13T09:06:51Z</time>
      </trkpt>
      <trkpt lat="42.80722" lon="0.45777">
        <ele>1793.48</ele>
        <time>2016-03-13T09:06:58Z</time>
      </trkpt>
      <trkpt lat="42.80726" lon="0.45773">
        <ele>1790.11</ele>
        <time>2016-03-13T09:07:03Z</time>
      </trkpt>
      <trkpt lat="42.80731" lon="0.45771">
        <ele>1787.71</ele>
        <time>2016-03-13T09:07:16Z</time>
      </trkpt>
      <trkpt lat="42.80737" lon="0.45767">
        <ele>1784.34</ele>
        <time>2016-03-13T09:07:22Z</time>
      </trkpt>
      <trkpt lat="42.80743" lon="0.45763">
        <ele>1780.98</ele>
        <time>2016-03-13T09:07:27Z</time>
      </trkpt>
      <trkpt lat="42.80749" lon="0.4576">
        <ele>1777.61</ele>
        <time>2016-03-13T09:07:31Z</time>
      </trkpt>
      <trkpt lat="42.8075" lon="0.45759">
        <ele>1777.61</ele>
        <time>2016-03-13T09:07:32Z</time>
      </trkpt>
      <trkpt lat="42.80758" lon="0.45757">
        <ele>1774.73</ele>
        <time>2016-03-13T09:07:38Z</time>
      </trkpt>
      <trkpt lat="42.80763" lon="0.45755">
        <ele>1772.81</ele>
        <time>2016-03-13T09:07:43Z</time>
      </trkpt>
      <trkpt lat="42.80773" lon="0.45754">
        <ele>1771.85</ele>
        <time>2016-03-13T09:07:53Z</time>
      </trkpt>
      <trkpt lat="42.80781" lon="0.45751">
        <ele>1770.41</ele>
        <time>2016-03-13T09:08:06Z</time>
      </trkpt>
      <trkpt lat="42.80782" lon="0.45749">
        <ele>1769.92</ele>
        <time>2016-03-13T09:08:19Z</time>
      </trkpt>
      <trkpt lat="42.80783" lon="0.45749">
        <ele>1769.92</ele>
        <time>2016-03-13T09:08:32Z</time>
      </trkpt>
      <trkpt lat="42.80793" lon="0.45745">
        <ele>1769.92</ele>
        <time>2016-03-13T09:08:46Z</time>
      </trkpt>
      <trkpt lat="42.808" lon="0.4574">
        <ele>1769.92</ele>
        <time>2016-03-13T09:08:53Z</time>
      </trkpt>
      <trkpt lat="42.80802" lon="0.45739">
        <ele>1771.37</ele>
        <time>2016-03-13T09:08:56Z</time>
      </trkpt>
      <trkpt lat="42.80812" lon="0.4573">
        <ele>1773.29</ele>
        <time>2016-03-13T09:09:11Z</time>
      </trkpt>
      <trkpt lat="42.8082" lon="0.45721">
        <ele>1775.69</ele>
        <time>2016-03-13T09:09:24Z</time>
      </trkpt>
      <trkpt lat="42.80827" lon="0.45715">
        <ele>1777.61</ele>
        <time>2016-03-13T09:09:36Z</time>
      </trkpt>
      <trkpt lat="42.80834" lon="0.45708">
        <ele>1780.02</ele>
        <time>2016-03-13T09:09:50Z</time>
      </trkpt>
      <trkpt lat="42.80841" lon="0.457">
        <ele>1781.94</ele>
        <time>2016-03-13T09:10:03Z</time>
      </trkpt>
      <trkpt lat="42.8085" lon="0.45691">
        <ele>1783.86</ele>
        <time>2016-03-13T09:10:17Z</time>
      </trkpt>
      <trkpt lat="42.80855" lon="0.45686">
        <ele>1786.75</ele>
        <time>2016-03-13T09:10:33Z</time>
      </trkpt>
      <trkpt lat="42.8086" lon="0.45684">
        <ele>1788.67</ele>
        <time>2016-03-13T09:10:50Z</time>
      </trkpt>
      <trkpt lat="42.80864" lon="0.45691">
        <ele>1790.59</ele>
        <time>2016-03-13T09:11:04Z</time>
      </trkpt>
      <trkpt lat="42.80869" lon="0.457">
        <ele>1793</ele>
        <time>2016-03-13T09:11:19Z</time>
      </trkpt>
      <trkpt lat="42.80873" lon="0.45708">
        <ele>1794.92</ele>
        <time>2016-03-13T09:11:33Z</time>
      </trkpt>
      <trkpt lat="42.80875" lon="0.45701">
        <ele>1796.84</ele>
        <time>2016-03-13T09:11:45Z</time>
      </trkpt>
      <trkpt lat="42.80879" lon="0.45691">
        <ele>1799.24</ele>
        <time>2016-03-13T09:12:00Z</time>
      </trkpt>
      <trkpt lat="42.80883" lon="0.45685">
        <ele>1801.17</ele>
        <time>2016-03-13T09:12:11Z</time>
      </trkpt>
      <trkpt lat="42.80888" lon="0.45676">
        <ele>1803.57</ele>
        <time>2016-03-13T09:12:26Z</time>
      </trkpt>
      <trkpt lat="42.80892" lon="0.45669">
        <ele>1805.97</ele>
        <time>2016-03-13T09:12:39Z</time>
      </trkpt>
      <trkpt lat="42.80896" lon="0.45663">
        <ele>1807.9</ele>
        <time>2016-03-13T09:12:51Z</time>
      </trkpt>
      <trkpt lat="42.80899" lon="0.45658">
        <ele>1809.34</ele>
        <time>2016-03-13T09:13:02Z</time>
      </trkpt>
      <trkpt lat="42.80902" lon="0.45655">
        <ele>1810.3</ele>
        <time>2016-03-13T09:13:17Z</time>
      </trkpt>
      <trkpt lat="42.80908" lon="0.45657">
        <ele>1813.18</ele>
        <time>2016-03-13T09:13:30Z</time>
      </trkpt>
      <trkpt lat="42.80913" lon="0.45657">
        <ele>1816.07</ele>
        <time>2016-03-13T09:13:43Z</time>
      </trkpt>
      <trkpt lat="42.80919" lon="0.45658">
        <ele>1817.99</ele>
        <time>2016-03-13T09:13:56Z</time>
      </trkpt>
      <trkpt lat="42.80924" lon="0.4566">
        <ele>1820.87</ele>
        <time>2016-03-13T09:14:10Z</time>
      </trkpt>
      <trkpt lat="42.80931" lon="0.45662">
        <ele>1824.24</ele>
        <time>2016-03-13T09:14:26Z</time>
      </trkpt>
      <trkpt lat="42.80937" lon="0.45663">
        <ele>1826.64</ele>
        <time>2016-03-13T09:14:40Z</time>
      </trkpt>
      <trkpt lat="42.80942" lon="0.45661">
        <ele>1828.08</ele>
        <time>2016-03-13T09:14:54Z</time>
      </trkpt>
      <trkpt lat="42.80943" lon="0.45662">
        <ele>1828.08</ele>
        <time>2016-03-13T09:15:21Z</time>
      </trkpt>
      <trkpt lat="42.80945" lon="0.45662">
        <ele>1830.01</ele>
        <time>2016-03-13T09:15:47Z</time>
      </trkpt>
      <trkpt lat="42.80952" lon="0.4566">
        <ele>1832.41</ele>
        <time>2016-03-13T09:16:01Z</time>
      </trkpt>
      <trkpt lat="42.80953" lon="0.4566">
        <ele>1833.85</ele>
        <time>2016-03-13T09:16:18Z</time>
      </trkpt>
      <trkpt lat="42.80958" lon="0.45658">
        <ele>1834.81</ele>
        <time>2016-03-13T09:16:34Z</time>
      </trkpt>
      <trkpt lat="42.80963" lon="0.45657">
        <ele>1837.22</ele>
        <time>2016-03-13T09:16:47Z</time>
      </trkpt>
      <trkpt lat="42.8097" lon="0.45655">
        <ele>1840.1</ele>
        <time>2016-03-13T09:17:00Z</time>
      </trkpt>
      <trkpt lat="42.80972" lon="0.45653">
        <ele>1841.06</ele>
        <time>2016-03-13T09:17:13Z</time>
      </trkpt>
      <trkpt lat="42.80977" lon="0.45651">
        <ele>1843.47</ele>
        <time>2016-03-13T09:17:26Z</time>
      </trkpt>
      <trkpt lat="42.80985" lon="0.45649">
        <ele>1845.87</ele>
        <time>2016-03-13T09:17:40Z</time>
      </trkpt>
      <trkpt lat="42.80992" lon="0.45647">
        <ele>1848.75</ele>
        <time>2016-03-13T09:17:56Z</time>
      </trkpt>
      <trkpt lat="42.80997" lon="0.45644">
        <ele>1850.68</ele>
        <time>2016-03-13T09:18:08Z</time>
      </trkpt>
      <trkpt lat="42.81002" lon="0.45641">
        <ele>1851.64</ele>
        <time>2016-03-13T09:18:22Z</time>
      </trkpt>
      <trkpt lat="42.81005" lon="0.4564">
        <ele>1852.12</ele>
        <time>2016-03-13T09:18:38Z</time>
      </trkpt>
      <trkpt lat="42.81006" lon="0.45635">
        <ele>1852.6</ele>
        <time>2016-03-13T09:19:00Z</time>
      </trkpt>
      <trkpt lat="42.81008" lon="0.45634">
        <ele>1852.6</ele>
        <time>2016-03-13T09:19:18Z</time>
      </trkpt>
      <trkpt lat="42.81007" lon="0.45633">
        <ele>1852.6</ele>
        <time>2016-03-13T09:21:00Z</time>
      </trkpt>
      <trkpt lat="42.81007" lon="0.45634">
        <ele>1852.6</ele>
        <time>2016-03-13T09:21:27Z</time>
      </trkpt>
      <trkpt lat="42.81007" lon="0.45635">
        <ele>1852.12</ele>
        <time>2016-03-13T09:21:41Z</time>
      </trkpt>
      <trkpt lat="42.81007" lon="0.45634">
        <ele>1852.12</ele>
        <time>2016-03-13T09:21:47Z</time>
      </trkpt>
      <trkpt lat="42.81007" lon="0.45634">
        <ele>1852.12</ele>
        <time>2016-03-13T09:22:25Z</time>
      </trkpt>
      <trkpt lat="42.81007" lon="0.45634">
        <ele>1850.68</ele>
        <time>2016-03-13T09:22:46Z</time>
      </trkpt>
      <trkpt lat="42.8101" lon="0.45628">
        <ele>1850.68</ele>
        <time>2016-03-13T09:23:06Z</time>
      </trkpt>
      <trkpt lat="42.81015" lon="0.45614">
        <ele>1849.71</ele>
        <time>2016-03-13T09:23:20Z</time>
      </trkpt>
      <trkpt lat="42.81016" lon="0.45609">
        <ele>1849.23</ele>
        <time>2016-03-13T09:23:24Z</time>
      </trkpt>
      <trkpt lat="42.81019" lon="0.45589">
        <ele>1845.87</ele>
        <time>2016-03-13T09:23:39Z</time>
      </trkpt>
      <trkpt lat="42.8102" lon="0.45583">
        <ele>1845.39</ele>
        <time>2016-03-13T09:23:43Z</time>
      </trkpt>
      <trkpt lat="42.81019" lon="0.4556">
        <ele>1842.98</ele>
        <time>2016-03-13T09:23:59Z</time>
      </trkpt>
      <trkpt lat="42.8102" lon="0.45542">
        <ele>1840.58</ele>
        <time>2016-03-13T09:24:12Z</time>
      </trkpt>
      <trkpt lat="42.81019" lon="0.4553">
        <ele>1837.7</ele>
        <time>2016-03-13T09:24:21Z</time>
      </trkpt>
      <trkpt lat="42.81017" lon="0.45526">
        <ele>1836.74</ele>
        <time>2016-03-13T09:24:24Z</time>
      </trkpt>
      <trkpt lat="42.81011" lon="0.45515">
        <ele>1832.41</ele>
        <time>2016-03-13T09:24:35Z</time>
      </trkpt>
      <trkpt lat="42.81005" lon="0.45501">
        <ele>1829.53</ele>
        <time>2016-03-13T09:24:47Z</time>
      </trkpt>
      <trkpt lat="42.81003" lon="0.45498">
        <ele>1828.08</ele>
        <time>2016-03-13T09:24:50Z</time>
      </trkpt>
      <trkpt lat="42.81002" lon="0.45497">
        <ele>1827.6</ele>
        <time>2016-03-13T09:24:52Z</time>
      </trkpt>
      <trkpt lat="42.80996" lon="0.45486">
        <ele>1824.24</ele>
        <time>2016-03-13T09:25:01Z</time>
      </trkpt>
      <trkpt lat="42.80989" lon="0.45476">
        <ele>1821.35</ele>
        <time>2016-03-13T09:25:10Z</time>
      </trkpt>
      <trkpt lat="42.80982" lon="0.45467">
        <ele>1817.99</ele>
        <time>2016-03-13T09:25:19Z</time>
      </trkpt>
      <trkpt lat="42.80978" lon="0.45465">
        <ele>1816.55</ele>
        <time>2016-03-13T09:25:24Z</time>
      </trkpt>
      <trkpt lat="42.80971" lon="0.45467">
        <ele>1815.11</ele>
        <time>2016-03-13T09:25:41Z</time>
      </trkpt>
      <trkpt lat="42.8097" lon="0.45464">
        <ele>1814.63</ele>
        <time>2016-03-13T09:25:55Z</time>
      </trkpt>
      <trkpt lat="42.80967" lon="0.45449">
        <ele>1811.26</ele>
        <time>2016-03-13T09:26:06Z</time>
      </trkpt>
      <trkpt lat="42.80963" lon="0.45436">
        <ele>1807.9</ele>
        <time>2016-03-13T09:26:16Z</time>
      </trkpt>
      <trkpt lat="42.8096" lon="0.45425">
        <ele>1804.53</ele>
        <time>2016-03-13T09:26:26Z</time>
      </trkpt>
      <trkpt lat="42.8096" lon="0.45423">
        <ele>1804.05</ele>
        <time>2016-03-13T09:26:27Z</time>
      </trkpt>
      <trkpt lat="42.80957" lon="0.45412">
        <ele>1801.17</ele>
        <time>2016-03-13T09:26:36Z</time>
      </trkpt>
      <trkpt lat="42.80953" lon="0.454">
        <ele>1797.32</ele>
        <time>2016-03-13T09:26:47Z</time>
      </trkpt>
      <trkpt lat="42.80951" lon="0.45392">
        <ele>1795.4</ele>
        <time>2016-03-13T09:27:01Z</time>
      </trkpt>
      <trkpt lat="42.80951" lon="0.45391">
        <ele>1794.92</ele>
        <time>2016-03-13T09:27:16Z</time>
      </trkpt>
      <trkpt lat="42.80963" lon="0.45386">
        <ele>1794.44</ele>
        <time>2016-03-13T09:27:31Z</time>
      </trkpt>
      <trkpt lat="42.80973" lon="0.4539">
        <ele>1796.84</ele>
        <time>2016-03-13T09:27:45Z</time>
      </trkpt>
      <trkpt lat="42.80978" lon="0.45391">
        <ele>1798.28</ele>
        <time>2016-03-13T09:27:52Z</time>
      </trkpt>
      <trkpt lat="42.80987" lon="0.45396">
        <ele>1800.21</ele>
        <time>2016-03-13T09:28:05Z</time>
      </trkpt>
      <trkpt lat="42.80995" lon="0.45402">
        <ele>1803.09</ele>
        <time>2016-03-13T09:28:20Z</time>
      </trkpt>
      <trkpt lat="42.80998" lon="0.45406">
        <ele>1804.05</ele>
        <time>2016-03-13T09:28:36Z</time>
      </trkpt>
      <trkpt lat="42.81003" lon="0.45416">
        <ele>1805.97</ele>
        <time>2016-03-13T09:28:49Z</time>
      </trkpt>
      <trkpt lat="42.81007" lon="0.45427">
        <ele>1808.38</ele>
        <time>2016-03-13T09:29:02Z</time>
      </trkpt>
      <trkpt lat="42.8101" lon="0.45435">
        <ele>1809.82</ele>
        <time>2016-03-13T09:29:17Z</time>
      </trkpt>
      <trkpt lat="42.81012" lon="0.45442">
        <ele>1811.26</ele>
        <time>2016-03-13T09:29:30Z</time>
      </trkpt>
      <trkpt lat="42.81019" lon="0.45452">
        <ele>1812.7</ele>
        <time>2016-03-13T09:29:45Z</time>
      </trkpt>
      <trkpt lat="42.81021" lon="0.45454">
        <ele>1813.18</ele>
        <time>2016-03-13T09:30:00Z</time>
      </trkpt>
      <trkpt lat="42.81034" lon="0.4546">
        <ele>1813.18</ele>
        <time>2016-03-13T09:30:13Z</time>
      </trkpt>
      <trkpt lat="42.81043" lon="0.45466">
        <ele>1811.74</ele>
        <time>2016-03-13T09:30:22Z</time>
      </trkpt>
      <trkpt lat="42.81057" lon="0.45479">
        <ele>1810.78</ele>
        <time>2016-03-13T09:30:36Z</time>
      </trkpt>
      <trkpt lat="42.81069" lon="0.45495">
        <ele>1809.82</ele>
        <time>2016-03-13T09:30:52Z</time>
      </trkpt>
      <trkpt lat="42.81079" lon="0.45508">
        <ele>1809.34</ele>
        <time>2016-03-13T09:31:05Z</time>
      </trkpt>
      <trkpt lat="42.81089" lon="0.4552">
        <ele>1809.34</ele>
        <time>2016-03-13T09:31:18Z</time>
      </trkpt>
      <trkpt lat="42.811" lon="0.45537">
        <ele>1808.86</ele>
        <time>2016-03-13T09:31:35Z</time>
      </trkpt>
      <trkpt lat="42.81103" lon="0.45548">
        <ele>1808.86</ele>
        <time>2016-03-13T09:31:52Z</time>
      </trkpt>
      <trkpt lat="42.81106" lon="0.45554">
        <ele>1808.86</ele>
        <time>2016-03-13T09:32:12Z</time>
      </trkpt>
      <trkpt lat="42.81112" lon="0.45572">
        <ele>1807.9</ele>
        <time>2016-03-13T09:32:28Z</time>
      </trkpt>
      <trkpt lat="42.81119" lon="0.4559">
        <ele>1807.42</ele>
        <time>2016-03-13T09:32:42Z</time>
      </trkpt>
      <trkpt lat="42.81125" lon="0.45604">
        <ele>1807.42</ele>
        <time>2016-03-13T09:32:54Z</time>
      </trkpt>
      <trkpt lat="42.81136" lon="0.45619">
        <ele>1806.94</ele>
        <time>2016-03-13T09:33:09Z</time>
      </trkpt>
      <trkpt lat="42.8115" lon="0.45624">
        <ele>1805.01</ele>
        <time>2016-03-13T09:33:23Z</time>
      </trkpt>
      <trkpt lat="42.81155" lon="0.45623">
        <ele>1804.53</ele>
        <time>2016-03-13T09:33:38Z</time>
      </trkpt>
      <trkpt lat="42.81156" lon="0.45623">
        <ele>1804.53</ele>
        <time>2016-03-13T09:33:56Z</time>
      </trkpt>
      <trkpt lat="42.81166" lon="0.45619">
        <ele>1803.57</ele>
        <time>2016-03-13T09:34:11Z</time>
      </trkpt>
      <trkpt lat="42.81179" lon="0.45613">
        <ele>1803.57</ele>
        <time>2016-03-13T09:34:25Z</time>
      </trkpt>
      <trkpt lat="42.81185" lon="0.45611">
        <ele>1803.09</ele>
        <time>2016-03-13T09:34:31Z</time>
      </trkpt>
      <trkpt lat="42.81196" lon="0.45609">
        <ele>1804.53</ele>
        <time>2016-03-13T09:34:44Z</time>
      </trkpt>
      <trkpt lat="42.81207" lon="0.4561">
        <ele>1806.94</ele>
        <time>2016-03-13T09:34:59Z</time>
      </trkpt>
      <trkpt lat="42.81215" lon="0.45609">
        <ele>1808.86</ele>
        <time>2016-03-13T09:35:13Z</time>
      </trkpt>
      <trkpt lat="42.81223" lon="0.45606">
        <ele>1811.74</ele>
        <time>2016-03-13T09:35:27Z</time>
      </trkpt>
      <trkpt lat="42.81231" lon="0.45606">
        <ele>1813.66</ele>
        <time>2016-03-13T09:35:40Z</time>
      </trkpt>
      <trkpt lat="42.8124" lon="0.45604">
        <ele>1816.07</ele>
        <time>2016-03-13T09:35:54Z</time>
      </trkpt>
      <trkpt lat="42.81249" lon="0.45602">
        <ele>1817.99</ele>
        <time>2016-03-13T09:36:08Z</time>
      </trkpt>
      <trkpt lat="42.81258" lon="0.45603">
        <ele>1820.39</ele>
        <time>2016-03-13T09:36:22Z</time>
      </trkpt>
      <trkpt lat="42.81269" lon="0.45601">
        <ele>1822.8</ele>
        <time>2016-03-13T09:36:38Z</time>
      </trkpt>
      <trkpt lat="42.81279" lon="0.456">
        <ele>1824.72</ele>
        <time>2016-03-13T09:36:52Z</time>
      </trkpt>
      <trkpt lat="42.81289" lon="0.45599">
        <ele>1827.12</ele>
        <time>2016-03-13T09:37:06Z</time>
      </trkpt>
      <trkpt lat="42.81297" lon="0.45598">
        <ele>1829.05</ele>
        <time>2016-03-13T09:37:20Z</time>
      </trkpt>
      <trkpt lat="42.81304" lon="0.45599">
        <ele>1830.97</ele>
        <time>2016-03-13T09:37:34Z</time>
      </trkpt>
      <trkpt lat="42.81311" lon="0.45601">
        <ele>1833.37</ele>
        <time>2016-03-13T09:37:48Z</time>
      </trkpt>
      <trkpt lat="42.81318" lon="0.45602">
        <ele>1835.77</ele>
        <time>2016-03-13T09:38:04Z</time>
      </trkpt>
      <trkpt lat="42.81322" lon="0.45602">
        <ele>1837.22</ele>
        <time>2016-03-13T09:38:19Z</time>
      </trkpt>
      <trkpt lat="42.81327" lon="0.45603">
        <ele>1839.62</ele>
        <time>2016-03-13T09:38:33Z</time>
      </trkpt>
      <trkpt lat="42.81332" lon="0.45604">
        <ele>1842.02</ele>
        <time>2016-03-13T09:38:47Z</time>
      </trkpt>
      <trkpt lat="42.81337" lon="0.45603">
        <ele>1843.95</ele>
        <time>2016-03-13T09:39:01Z</time>
      </trkpt>
      <trkpt lat="42.81342" lon="0.45604">
        <ele>1846.83</ele>
        <time>2016-03-13T09:39:16Z</time>
      </trkpt>
      <trkpt lat="42.81345" lon="0.45606">
        <ele>1848.27</ele>
        <time>2016-03-13T09:39:28Z</time>
      </trkpt>
      <trkpt lat="42.8135" lon="0.45608">
        <ele>1850.68</ele>
        <time>2016-03-13T09:39:41Z</time>
      </trkpt>
      <trkpt lat="42.81355" lon="0.45611">
        <ele>1852.6</ele>
        <time>2016-03-13T09:39:56Z</time>
      </trkpt>
      <trkpt lat="42.8136" lon="0.45611">
        <ele>1855.48</ele>
        <time>2016-03-13T09:40:12Z</time>
      </trkpt>
      <trkpt lat="42.81366" lon="0.4561">
        <ele>1857.89</ele>
        <time>2016-03-13T09:40:26Z</time>
      </trkpt>
      <trkpt lat="42.81368" lon="0.45611">
        <ele>1859.33</ele>
        <time>2016-03-13T09:40:42Z</time>
      </trkpt>
      <trkpt lat="42.81372" lon="0.45615">
        <ele>1861.73</ele>
        <time>2016-03-13T09:40:55Z</time>
      </trkpt>
      <trkpt lat="42.81377" lon="0.45617">
        <ele>1864.61</ele>
        <time>2016-03-13T09:41:08Z</time>
      </trkpt>
      <trkpt lat="42.81384" lon="0.45622">
        <ele>1867.98</ele>
        <time>2016-03-13T09:41:23Z</time>
      </trkpt>
      <trkpt lat="42.81386" lon="0.45629">
        <ele>1868.46</ele>
        <time>2016-03-13T09:41:37Z</time>
      </trkpt>
      <trkpt lat="42.81387" lon="0.4563">
        <ele>1867.98</ele>
        <time>2016-03-13T09:43:04Z</time>
      </trkpt>
      <trkpt lat="42.81386" lon="0.45628">
        <ele>1867.98</ele>
        <time>2016-03-13T09:43:36Z</time>
      </trkpt>
      <trkpt lat="42.81386" lon="0.45629">
        <ele>1867.5</ele>
        <time>2016-03-13T09:44:31Z</time>
      </trkpt>
      <trkpt lat="42.81386" lon="0.45629">
        <ele>1866.06</ele>
        <time>2016-03-13T09:45:36Z</time>
      </trkpt>
      <trkpt lat="42.81387" lon="0.4563">
        <ele>1866.06</ele>
        <time>2016-03-13T09:46:02Z</time>
      </trkpt>
      <trkpt lat="42.81386" lon="0.4563">
        <ele>1865.58</ele>
        <time>2016-03-13T09:46:23Z</time>
      </trkpt>
      <trkpt lat="42.81388" lon="0.45632">
        <ele>1864.61</ele>
        <time>2016-03-13T09:48:36Z</time>
      </trkpt>
      <trkpt lat="42.81389" lon="0.45632">
        <ele>1864.61</ele>
        <time>2016-03-13T09:48:53Z</time>
      </trkpt>
      <trkpt lat="42.81391" lon="0.45635">
        <ele>1864.61</ele>
        <time>2016-03-13T09:48:56Z</time>
      </trkpt>
      <trkpt lat="42.81393" lon="0.45636">
        <ele>1864.61</ele>
        <time>2016-03-13T09:48:58Z</time>
      </trkpt>
      <trkpt lat="42.81396" lon="0.45645">
        <ele>1864.61</ele>
        <time>2016-03-13T09:49:17Z</time>
      </trkpt>
      <trkpt lat="42.81397" lon="0.45645">
        <ele>1864.61</ele>
        <time>2016-03-13T09:49:37Z</time>
      </trkpt>
      <trkpt lat="42.81403" lon="0.45653">
        <ele>1864.61</ele>
        <time>2016-03-13T09:49:48Z</time>
      </trkpt>
      <trkpt lat="42.81414" lon="0.45662">
        <ele>1864.61</ele>
        <time>2016-03-13T09:50:02Z</time>
      </trkpt>
      <trkpt lat="42.81422" lon="0.45667">
        <ele>1864.61</ele>
        <time>2016-03-13T09:50:15Z</time>
      </trkpt>
      <trkpt lat="42.81431" lon="0.45673">
        <ele>1864.61</ele>
        <time>2016-03-13T09:50:29Z</time>
      </trkpt>
      <trkpt lat="42.81437" lon="0.45677">
        <ele>1865.58</ele>
        <time>2016-03-13T09:50:38Z</time>
      </trkpt>
      <trkpt lat="42.81447" lon="0.4568">
        <ele>1868.46</ele>
        <time>2016-03-13T09:50:52Z</time>
      </trkpt>
      <trkpt lat="42.81458" lon="0.45683">
        <ele>1870.38</ele>
        <time>2016-03-13T09:51:07Z</time>
      </trkpt>
      <trkpt lat="42.81467" lon="0.45685">
        <ele>1872.3</ele>
        <time>2016-03-13T09:51:20Z</time>
      </trkpt>
      <trkpt lat="42.81479" lon="0.45684">
        <ele>1873.75</ele>
        <time>2016-03-13T09:51:36Z</time>
      </trkpt>
      <trkpt lat="42.8149" lon="0.45682">
        <ele>1874.71</ele>
        <time>2016-03-13T09:51:51Z</time>
      </trkpt>
      <trkpt lat="42.81496" lon="0.4568">
        <ele>1876.15</ele>
        <time>2016-03-13T09:52:03Z</time>
      </trkpt>
      <trkpt lat="42.81502" lon="0.45678">
        <ele>1878.07</ele>
        <time>2016-03-13T09:52:16Z</time>
      </trkpt>
      <trkpt lat="42.81509" lon="0.45674">
        <ele>1879.51</ele>
        <time>2016-03-13T09:52:30Z</time>
      </trkpt>
      <trkpt lat="42.81518" lon="0.45672">
        <ele>1881.44</ele>
        <time>2016-03-13T09:52:44Z</time>
      </trkpt>
      <trkpt lat="42.81525" lon="0.45669">
        <ele>1882.4</ele>
        <time>2016-03-13T09:52:57Z</time>
      </trkpt>
      <trkpt lat="42.81534" lon="0.45664">
        <ele>1885.28</ele>
        <time>2016-03-13T09:53:12Z</time>
      </trkpt>
      <trkpt lat="42.81544" lon="0.45658">
        <ele>1885.76</ele>
        <time>2016-03-13T09:53:27Z</time>
      </trkpt>
      <trkpt lat="42.81553" lon="0.45653">
        <ele>1887.69</ele>
        <time>2016-03-13T09:53:41Z</time>
      </trkpt>
      <trkpt lat="42.81558" lon="0.45648">
        <ele>1890.09</ele>
        <time>2016-03-13T09:53:55Z</time>
      </trkpt>
      <trkpt lat="42.81564" lon="0.45643">
        <ele>1890.09</ele>
        <time>2016-03-13T09:54:15Z</time>
      </trkpt>
      <trkpt lat="42.81571" lon="0.45641">
        <ele>1888.17</ele>
        <time>2016-03-13T09:54:22Z</time>
      </trkpt>
      <trkpt lat="42.81581" lon="0.45631">
        <ele>1887.69</ele>
        <time>2016-03-13T09:54:36Z</time>
      </trkpt>
      <trkpt lat="42.81594" lon="0.45621">
        <ele>1887.69</ele>
        <time>2016-03-13T09:54:51Z</time>
      </trkpt>
      <trkpt lat="42.81603" lon="0.45612">
        <ele>1888.65</ele>
        <time>2016-03-13T09:55:04Z</time>
      </trkpt>
      <trkpt lat="42.8161" lon="0.45604">
        <ele>1890.09</ele>
        <time>2016-03-13T09:55:15Z</time>
      </trkpt>
      <trkpt lat="42.81619" lon="0.45596">
        <ele>1892.01</ele>
        <time>2016-03-13T09:55:29Z</time>
      </trkpt>
      <trkpt lat="42.81626" lon="0.4559">
        <ele>1893.93</ele>
        <time>2016-03-13T09:55:39Z</time>
      </trkpt>
      <trkpt lat="42.81639" lon="0.45583">
        <ele>1896.34</ele>
        <time>2016-03-13T09:55:54Z</time>
      </trkpt>
      <trkpt lat="42.81646" lon="0.45579">
        <ele>1897.78</ele>
        <time>2016-03-13T09:56:05Z</time>
      </trkpt>
      <trkpt lat="42.81653" lon="0.45575">
        <ele>1899.7</ele>
        <time>2016-03-13T09:56:17Z</time>
      </trkpt>
      <trkpt lat="42.81662" lon="0.45569">
        <ele>1902.11</ele>
        <time>2016-03-13T09:56:32Z</time>
      </trkpt>
      <trkpt lat="42.8167" lon="0.45565">
        <ele>1904.51</ele>
        <time>2016-03-13T09:56:44Z</time>
      </trkpt>
      <trkpt lat="42.81679" lon="0.45558">
        <ele>1906.91</ele>
        <time>2016-03-13T09:56:58Z</time>
      </trkpt>
      <trkpt lat="42.81686" lon="0.45552">
        <ele>1907.87</ele>
        <time>2016-03-13T09:57:11Z</time>
      </trkpt>
      <trkpt lat="42.81687" lon="0.45544">
        <ele>1909.32</ele>
        <time>2016-03-13T09:57:25Z</time>
      </trkpt>
      <trkpt lat="42.81688" lon="0.45543">
        <ele>1909.32</ele>
        <time>2016-03-13T09:57:50Z</time>
      </trkpt>
      <trkpt lat="42.8169" lon="0.45541">
        <ele>1909.32</ele>
        <time>2016-03-13T09:58:37Z</time>
      </trkpt>
      <trkpt lat="42.81692" lon="0.45543">
        <ele>1906.43</ele>
        <time>2016-03-13T10:01:03Z</time>
      </trkpt>
      <trkpt lat="42.81694" lon="0.45545">
        <ele>1906.43</ele>
        <time>2016-03-13T10:01:24Z</time>
      </trkpt>
      <trkpt lat="42.81698" lon="0.45552">
        <ele>1904.99</ele>
        <time>2016-03-13T10:01:36Z</time>
      </trkpt>
      <trkpt lat="42.81699" lon="0.45554">
        <ele>1904.03</ele>
        <time>2016-03-13T10:01:39Z</time>
      </trkpt>
      <trkpt lat="42.81704" lon="0.45561">
        <ele>1900.18</ele>
        <time>2016-03-13T10:01:48Z</time>
      </trkpt>
      <trkpt lat="42.81705" lon="0.45564">
        <ele>1899.7</ele>
        <time>2016-03-13T10:01:56Z</time>
      </trkpt>
      <trkpt lat="42.81709" lon="0.45571">
        <ele>1896.34</ele>
        <time>2016-03-13T10:02:02Z</time>
      </trkpt>
      <trkpt lat="42.81714" lon="0.45576">
        <ele>1892.49</ele>
        <time>2016-03-13T10:02:07Z</time>
      </trkpt>
      <trkpt lat="42.81719" lon="0.45583">
        <ele>1889.13</ele>
        <time>2016-03-13T10:02:12Z</time>
      </trkpt>
      <trkpt lat="42.8172" lon="0.45586">
        <ele>1887.69</ele>
        <time>2016-03-13T10:02:14Z</time>
      </trkpt>
      <trkpt lat="42.81725" lon="0.4559">
        <ele>1884.8</ele>
        <time>2016-03-13T10:02:18Z</time>
      </trkpt>
      <trkpt lat="42.81731" lon="0.45595">
        <ele>1882.88</ele>
        <time>2016-03-13T10:02:25Z</time>
      </trkpt>
      <trkpt lat="42.81736" lon="0.45595">
        <ele>1881.44</ele>
        <time>2016-03-13T10:02:29Z</time>
      </trkpt>
      <trkpt lat="42.81745" lon="0.45604">
        <ele>1878.07</ele>
        <time>2016-03-13T10:02:39Z</time>
      </trkpt>
      <trkpt lat="42.81746" lon="0.45608">
        <ele>1875.19</ele>
        <time>2016-03-13T10:02:43Z</time>
      </trkpt>
      <trkpt lat="42.81751" lon="0.45611">
        <ele>1871.82</ele>
        <time>2016-03-13T10:02:49Z</time>
      </trkpt>
      <trkpt lat="42.81754" lon="0.45613">
        <ele>1870.38</ele>
        <time>2016-03-13T10:02:53Z</time>
      </trkpt>
      <trkpt lat="42.81758" lon="0.45616">
        <ele>1867.98</ele>
        <time>2016-03-13T10:02:58Z</time>
      </trkpt>
      <trkpt lat="42.81766" lon="0.45616">
        <ele>1864.13</ele>
        <time>2016-03-13T10:03:05Z</time>
      </trkpt>
      <trkpt lat="42.81771" lon="0.45616">
        <ele>1860.77</ele>
        <time>2016-03-13T10:03:09Z</time>
      </trkpt>
      <trkpt lat="42.81777" lon="0.45617">
        <ele>1858.85</ele>
        <time>2016-03-13T10:03:14Z</time>
      </trkpt>
      <trkpt lat="42.81788" lon="0.45621">
        <ele>1856.92</ele>
        <time>2016-03-13T10:03:27Z</time>
      </trkpt>
      <trkpt lat="42.81789" lon="0.4562">
        <ele>1856.92</ele>
        <time>2016-03-13T10:03:43Z</time>
      </trkpt>
      <trkpt lat="42.81794" lon="0.45624">
        <ele>1855.48</ele>
        <time>2016-03-13T10:04:03Z</time>
      </trkpt>
      <trkpt lat="42.81803" lon="0.45626">
        <ele>1853.08</ele>
        <time>2016-03-13T10:04:17Z</time>
      </trkpt>
      <trkpt lat="42.81806" lon="0.45626">
        <ele>1852.12</ele>
        <time>2016-03-13T10:04:27Z</time>
      </trkpt>
      <trkpt lat="42.8182" lon="0.45626">
        <ele>1850.19</ele>
        <time>2016-03-13T10:04:42Z</time>
      </trkpt>
      <trkpt lat="42.81835" lon="0.45627">
        <ele>1847.31</ele>
        <time>2016-03-13T10:04:55Z</time>
      </trkpt>
      <trkpt lat="42.81854" lon="0.45633">
        <ele>1844.43</ele>
        <time>2016-03-13T10:05:10Z</time>
      </trkpt>
      <trkpt lat="42.81872" lon="0.4564">
        <ele>1841.54</ele>
        <time>2016-03-13T10:05:25Z</time>
      </trkpt>
      <trkpt lat="42.81888" lon="0.45647">
        <ele>1840.1</ele>
        <time>2016-03-13T10:05:40Z</time>
      </trkpt>
      <trkpt lat="42.81889" lon="0.45648">
        <ele>1840.1</ele>
        <time>2016-03-13T10:05:41Z</time>
      </trkpt>
      <trkpt lat="42.81906" lon="0.45657">
        <ele>1840.1</ele>
        <time>2016-03-13T10:05:57Z</time>
      </trkpt>
      <trkpt lat="42.81923" lon="0.45662">
        <ele>1839.62</ele>
        <time>2016-03-13T10:06:12Z</time>
      </trkpt>
      <trkpt lat="42.81926" lon="0.45662">
        <ele>1840.58</ele>
        <time>2016-03-13T10:06:18Z</time>
      </trkpt>
      <trkpt lat="42.81929" lon="0.45664">
        <ele>1840.58</ele>
        <time>2016-03-13T10:06:32Z</time>
      </trkpt>
      <trkpt lat="42.81936" lon="0.45667">
        <ele>1841.06</ele>
        <time>2016-03-13T10:06:49Z</time>
      </trkpt>
      <trkpt lat="42.8194" lon="0.45671">
        <ele>1842.5</ele>
        <time>2016-03-13T10:07:29Z</time>
      </trkpt>
      <trkpt lat="42.81944" lon="0.45673">
        <ele>1842.5</ele>
        <time>2016-03-13T10:07:35Z</time>
      </trkpt>
      <trkpt lat="42.81957" lon="0.45675">
        <ele>1844.43</ele>
        <time>2016-03-13T10:07:50Z</time>
      </trkpt>
      <trkpt lat="42.81967" lon="0.45681">
        <ele>1846.83</ele>
        <time>2016-03-13T10:08:05Z</time>
      </trkpt>
      <trkpt lat="42.81977" lon="0.45686">
        <ele>1848.75</ele>
        <time>2016-03-13T10:08:19Z</time>
      </trkpt>
      <trkpt lat="42.81987" lon="0.45694">
        <ele>1851.16</ele>
        <time>2016-03-13T10:08:33Z</time>
      </trkpt>
      <trkpt lat="42.81996" lon="0.45701">
        <ele>1853.08</ele>
        <time>2016-03-13T10:08:48Z</time>
      </trkpt>
      <trkpt lat="42.82004" lon="0.45706">
        <ele>1855</ele>
        <time>2016-03-13T10:09:02Z</time>
      </trkpt>
      <trkpt lat="42.82013" lon="0.4571">
        <ele>1858.37</ele>
        <time>2016-03-13T10:09:16Z</time>
      </trkpt>
      <trkpt lat="42.82023" lon="0.45715">
        <ele>1860.77</ele>
        <time>2016-03-13T10:09:33Z</time>
      </trkpt>
      <trkpt lat="42.82032" lon="0.4572">
        <ele>1863.17</ele>
        <time>2016-03-13T10:09:49Z</time>
      </trkpt>
      <trkpt lat="42.82035" lon="0.45723">
        <ele>1863.65</ele>
        <time>2016-03-13T10:10:02Z</time>
      </trkpt>
      <trkpt lat="42.82035" lon="0.45723">
        <ele>1863.65</ele>
        <time>2016-03-13T10:10:39Z</time>
      </trkpt>
      <trkpt lat="42.8204" lon="0.45724">
        <ele>1864.13</ele>
        <time>2016-03-13T10:10:55Z</time>
      </trkpt>
      <trkpt lat="42.82054" lon="0.45733">
        <ele>1864.61</ele>
        <time>2016-03-13T10:11:11Z</time>
      </trkpt>
      <trkpt lat="42.82058" lon="0.45734">
        <ele>1864.61</ele>
        <time>2016-03-13T10:11:25Z</time>
      </trkpt>
      <trkpt lat="42.82067" lon="0.45738">
        <ele>1864.61</ele>
        <time>2016-03-13T10:11:40Z</time>
      </trkpt>
      <trkpt lat="42.82081" lon="0.45742">
        <ele>1865.58</ele>
        <time>2016-03-13T10:11:55Z</time>
      </trkpt>
      <trkpt lat="42.82088" lon="0.45743">
        <ele>1866.54</ele>
        <time>2016-03-13T10:12:10Z</time>
      </trkpt>
      <trkpt lat="42.82099" lon="0.45747">
        <ele>1866.54</ele>
        <time>2016-03-13T10:12:26Z</time>
      </trkpt>
      <trkpt lat="42.82108" lon="0.4575">
        <ele>1865.09</ele>
        <time>2016-03-13T10:12:34Z</time>
      </trkpt>
      <trkpt lat="42.82123" lon="0.45754">
        <ele>1864.13</ele>
        <time>2016-03-13T10:12:48Z</time>
      </trkpt>
      <trkpt lat="42.82131" lon="0.45755">
        <ele>1865.58</ele>
        <time>2016-03-13T10:12:57Z</time>
      </trkpt>
      <trkpt lat="42.82142" lon="0.45756">
        <ele>1866.54</ele>
        <time>2016-03-13T10:13:10Z</time>
      </trkpt>
      <trkpt lat="42.82145" lon="0.45757">
        <ele>1867.02</ele>
        <time>2016-03-13T10:13:23Z</time>
      </trkpt>
      <trkpt lat="42.82151" lon="0.45757">
        <ele>1867.5</ele>
        <time>2016-03-13T10:13:39Z</time>
      </trkpt>
      <trkpt lat="42.82163" lon="0.4576">
        <ele>1868.94</ele>
        <time>2016-03-13T10:13:52Z</time>
      </trkpt>
      <trkpt lat="42.82174" lon="0.45763">
        <ele>1870.38</ele>
        <time>2016-03-13T10:14:05Z</time>
      </trkpt>
      <trkpt lat="42.82184" lon="0.45766">
        <ele>1871.82</ele>
        <time>2016-03-13T10:14:18Z</time>
      </trkpt>
      <trkpt lat="42.82192" lon="0.4577">
        <ele>1873.75</ele>
        <time>2016-03-13T10:14:30Z</time>
      </trkpt>
      <trkpt lat="42.82201" lon="0.45776">
        <ele>1876.15</ele>
        <time>2016-03-13T10:14:44Z</time>
      </trkpt>
      <trkpt lat="42.82208" lon="0.45778">
        <ele>1878.07</ele>
        <time>2016-03-13T10:14:57Z</time>
      </trkpt>
      <trkpt lat="42.82216" lon="0.45783">
        <ele>1880.48</ele>
        <time>2016-03-13T10:15:11Z</time>
      </trkpt>
      <trkpt lat="42.82223" lon="0.4579">
        <ele>1883.36</ele>
        <time>2016-03-13T10:15:27Z</time>
      </trkpt>
      <trkpt lat="42.82231" lon="0.45796">
        <ele>1885.76</ele>
        <time>2016-03-13T10:15:42Z</time>
      </trkpt>
      <trkpt lat="42.82237" lon="0.45801">
        <ele>1887.69</ele>
        <time>2016-03-13T10:15:55Z</time>
      </trkpt>
      <trkpt lat="42.82243" lon="0.45803">
        <ele>1890.57</ele>
        <time>2016-03-13T10:16:10Z</time>
      </trkpt>
      <trkpt lat="42.82249" lon="0.45804">
        <ele>1892.97</ele>
        <time>2016-03-13T10:16:25Z</time>
      </trkpt>
      <trkpt lat="42.82255" lon="0.45805">
        <ele>1895.86</ele>
        <time>2016-03-13T10:16:41Z</time>
      </trkpt>
      <trkpt lat="42.8226" lon="0.45804">
        <ele>1898.26</ele>
        <time>2016-03-13T10:16:54Z</time>
      </trkpt>
      <trkpt lat="42.82264" lon="0.45803">
        <ele>1900.18</ele>
        <time>2016-03-13T10:17:07Z</time>
      </trkpt>
      <trkpt lat="42.82269" lon="0.45802">
        <ele>1902.11</ele>
        <time>2016-03-13T10:17:28Z</time>
      </trkpt>
      <trkpt lat="42.82273" lon="0.45802">
        <ele>1904.51</ele>
        <time>2016-03-13T10:17:41Z</time>
      </trkpt>
      <trkpt lat="42.82277" lon="0.45802">
        <ele>1906.43</ele>
        <time>2016-03-13T10:17:55Z</time>
      </trkpt>
      <trkpt lat="42.82277" lon="0.45802">
        <ele>1904.03</ele>
        <time>2016-03-13T10:21:46Z</time>
      </trkpt>
      <trkpt lat="42.82275" lon="0.45802">
        <ele>1902.59</ele>
        <time>2016-03-13T10:22:20Z</time>
      </trkpt>
      <trkpt lat="42.82276" lon="0.45802">
        <ele>1902.59</ele>
        <time>2016-03-13T10:22:33Z</time>
      </trkpt>
      <trkpt lat="42.82277" lon="0.45802">
        <ele>1903.55</ele>
        <time>2016-03-13T10:22:52Z</time>
      </trkpt>
      <trkpt lat="42.82281" lon="0.45802">
        <ele>1904.51</ele>
        <time>2016-03-13T10:23:05Z</time>
      </trkpt>
      <trkpt lat="42.82287" lon="0.45801">
        <ele>1907.39</ele>
        <time>2016-03-13T10:23:19Z</time>
      </trkpt>
      <trkpt lat="42.82292" lon="0.458">
        <ele>1910.28</ele>
        <time>2016-03-13T10:23:33Z</time>
      </trkpt>
      <trkpt lat="42.82298" lon="0.45801">
        <ele>1912.2</ele>
        <time>2016-03-13T10:23:46Z</time>
      </trkpt>
      <trkpt lat="42.82304" lon="0.45803">
        <ele>1915.08</ele>
        <time>2016-03-13T10:24:00Z</time>
      </trkpt>
      <trkpt lat="42.82309" lon="0.45806">
        <ele>1917.49</ele>
        <time>2016-03-13T10:24:13Z</time>
      </trkpt>
      <trkpt lat="42.82315" lon="0.45808">
        <ele>1919.89</ele>
        <time>2016-03-13T10:24:26Z</time>
      </trkpt>
      <trkpt lat="42.82321" lon="0.45811">
        <ele>1921.81</ele>
        <time>2016-03-13T10:24:39Z</time>
      </trkpt>
      <trkpt lat="42.82328" lon="0.45814">
        <ele>1924.7</ele>
        <time>2016-03-13T10:24:53Z</time>
      </trkpt>
      <trkpt lat="42.82335" lon="0.45817">
        <ele>1927.1</ele>
        <time>2016-03-13T10:25:07Z</time>
      </trkpt>
      <trkpt lat="42.8234" lon="0.45819">
        <ele>1929.5</ele>
        <time>2016-03-13T10:25:21Z</time>
      </trkpt>
      <trkpt lat="42.82345" lon="0.45822">
        <ele>1932.39</ele>
        <time>2016-03-13T10:25:34Z</time>
      </trkpt>
      <trkpt lat="42.82351" lon="0.45824">
        <ele>1934.31</ele>
        <time>2016-03-13T10:25:47Z</time>
      </trkpt>
      <trkpt lat="42.82355" lon="0.45826">
        <ele>1935.75</ele>
        <time>2016-03-13T10:26:01Z</time>
      </trkpt>
      <trkpt lat="42.82356" lon="0.45826">
        <ele>1936.23</ele>
        <time>2016-03-13T10:26:18Z</time>
      </trkpt>
      <trkpt lat="42.82364" lon="0.45826">
        <ele>1939.6</ele>
        <time>2016-03-13T10:26:33Z</time>
      </trkpt>
      <trkpt lat="42.82371" lon="0.45829">
        <ele>1942.48</ele>
        <time>2016-03-13T10:26:48Z</time>
      </trkpt>
      <trkpt lat="42.82377" lon="0.45831">
        <ele>1944.88</ele>
        <time>2016-03-13T10:27:02Z</time>
      </trkpt>
      <trkpt lat="42.82384" lon="0.45831">
        <ele>1947.29</ele>
        <time>2016-03-13T10:27:16Z</time>
      </trkpt>
      <trkpt lat="42.8239" lon="0.45833">
        <ele>1950.17</ele>
        <time>2016-03-13T10:27:29Z</time>
      </trkpt>
      <trkpt lat="42.82395" lon="0.45835">
        <ele>1953.06</ele>
        <time>2016-03-13T10:27:43Z</time>
      </trkpt>
      <trkpt lat="42.82401" lon="0.45837">
        <ele>1954.5</ele>
        <time>2016-03-13T10:28:03Z</time>
      </trkpt>
      <trkpt lat="42.82406" lon="0.45841">
        <ele>1956.9</ele>
        <time>2016-03-13T10:28:16Z</time>
      </trkpt>
      <trkpt lat="42.8241" lon="0.45844">
        <ele>1958.34</ele>
        <time>2016-03-13T10:28:34Z</time>
      </trkpt>
      <trkpt lat="42.82417" lon="0.45845">
        <ele>1961.23</ele>
        <time>2016-03-13T10:28:49Z</time>
      </trkpt>
      <trkpt lat="42.82423" lon="0.45845">
        <ele>1963.63</ele>
        <time>2016-03-13T10:29:03Z</time>
      </trkpt>
      <trkpt lat="42.8243" lon="0.45845">
        <ele>1965.55</ele>
        <time>2016-03-13T10:29:16Z</time>
      </trkpt>
      <trkpt lat="42.8244" lon="0.45845">
        <ele>1967.96</ele>
        <time>2016-03-13T10:29:30Z</time>
      </trkpt>
      <trkpt lat="42.82449" lon="0.45846">
        <ele>1969.4</ele>
        <time>2016-03-13T10:29:43Z</time>
      </trkpt>
      <trkpt lat="42.82457" lon="0.4585">
        <ele>1970.36</ele>
        <time>2016-03-13T10:29:54Z</time>
      </trkpt>
      <trkpt lat="42.82464" lon="0.45854">
        <ele>1971.32</ele>
        <time>2016-03-13T10:30:22Z</time>
      </trkpt>
      <trkpt lat="42.82471" lon="0.45853">
        <ele>1971.8</ele>
        <time>2016-03-13T10:36:23Z</time>
      </trkpt>
      <trkpt lat="42.82478" lon="0.45856">
        <ele>1971.8</ele>
        <time>2016-03-13T10:36:36Z</time>
      </trkpt>
      <trkpt lat="42.82487" lon="0.45856">
        <ele>1970.84</ele>
        <time>2016-03-13T10:36:56Z</time>
      </trkpt>
      <trkpt lat="42.82497" lon="0.45853">
        <ele>1969.4</ele>
        <time>2016-03-13T10:37:09Z</time>
      </trkpt>
      <trkpt lat="42.82508" lon="0.45847">
        <ele>1968.92</ele>
        <time>2016-03-13T10:37:22Z</time>
      </trkpt>
      <trkpt lat="42.8252" lon="0.4584">
        <ele>1968.92</ele>
        <time>2016-03-13T10:37:36Z</time>
      </trkpt>
      <trkpt lat="42.82531" lon="0.45839">
        <ele>1972.28</ele>
        <time>2016-03-13T10:37:49Z</time>
      </trkpt>
      <trkpt lat="42.8254" lon="0.45838">
        <ele>1974.69</ele>
        <time>2016-03-13T10:38:02Z</time>
      </trkpt>
      <trkpt lat="42.82548" lon="0.45836">
        <ele>1977.09</ele>
        <time>2016-03-13T10:38:17Z</time>
      </trkpt>
      <trkpt lat="42.82555" lon="0.45834">
        <ele>1979.97</ele>
        <time>2016-03-13T10:38:30Z</time>
      </trkpt>
      <trkpt lat="42.82562" lon="0.45832">
        <ele>1981.9</ele>
        <time>2016-03-13T10:38:43Z</time>
      </trkpt>
      <trkpt lat="42.8257" lon="0.4583">
        <ele>1984.3</ele>
        <time>2016-03-13T10:38:56Z</time>
      </trkpt>
      <trkpt lat="42.82579" lon="0.45828">
        <ele>1986.7</ele>
        <time>2016-03-13T10:39:11Z</time>
      </trkpt>
      <trkpt lat="42.82588" lon="0.45825">
        <ele>1988.14</ele>
        <time>2016-03-13T10:39:25Z</time>
      </trkpt>
      <trkpt lat="42.82592" lon="0.45825">
        <ele>1989.1</ele>
        <time>2016-03-13T10:39:38Z</time>
      </trkpt>
      <trkpt lat="42.82593" lon="0.45825">
        <ele>1989.1</ele>
        <time>2016-03-13T10:40:04Z</time>
      </trkpt>
      <trkpt lat="42.82596" lon="0.45823">
        <ele>1989.59</ele>
        <time>2016-03-13T10:40:43Z</time>
      </trkpt>
      <trkpt lat="42.82605" lon="0.45818">
        <ele>1991.03</ele>
        <time>2016-03-13T10:40:55Z</time>
      </trkpt>
      <trkpt lat="42.82616" lon="0.45815">
        <ele>1992.47</ele>
        <time>2016-03-13T10:41:08Z</time>
      </trkpt>
      <trkpt lat="42.82621" lon="0.45814">
        <ele>1993.91</ele>
        <time>2016-03-13T10:41:23Z</time>
      </trkpt>
      <trkpt lat="42.82625" lon="0.45814">
        <ele>1993.91</ele>
        <time>2016-03-13T10:41:44Z</time>
      </trkpt>
      <trkpt lat="42.82628" lon="0.45814">
        <ele>1993.91</ele>
        <time>2016-03-13T10:41:47Z</time>
      </trkpt>
      <trkpt lat="42.82641" lon="0.45821">
        <ele>1993.91</ele>
        <time>2016-03-13T10:42:00Z</time>
      </trkpt>
      <trkpt lat="42.82644" lon="0.45822">
        <ele>1994.39</ele>
        <time>2016-03-13T10:42:03Z</time>
      </trkpt>
      <trkpt lat="42.82661" lon="0.4582">
        <ele>1995.83</ele>
        <time>2016-03-13T10:42:20Z</time>
      </trkpt>
      <trkpt lat="42.8267" lon="0.4582">
        <ele>1997.28</ele>
        <time>2016-03-13T10:42:30Z</time>
      </trkpt>
      <trkpt lat="42.82685" lon="0.45817">
        <ele>1998.24</ele>
        <time>2016-03-13T10:42:45Z</time>
      </trkpt>
      <trkpt lat="42.82699" lon="0.45816">
        <ele>1999.2</ele>
        <time>2016-03-13T10:43:00Z</time>
      </trkpt>
      <trkpt lat="42.82712" lon="0.45815">
        <ele>2000.64</ele>
        <time>2016-03-13T10:43:15Z</time>
      </trkpt>
      <trkpt lat="42.82723" lon="0.45814">
        <ele>2003.52</ele>
        <time>2016-03-13T10:43:29Z</time>
      </trkpt>
      <trkpt lat="42.8273" lon="0.45815">
        <ele>2004.97</ele>
        <time>2016-03-13T10:44:04Z</time>
      </trkpt>
      <trkpt lat="42.8274" lon="0.45814">
        <ele>2007.37</ele>
        <time>2016-03-13T10:44:18Z</time>
      </trkpt>
      <trkpt lat="42.82749" lon="0.45816">
        <ele>2010.25</ele>
        <time>2016-03-13T10:44:32Z</time>
      </trkpt>
      <trkpt lat="42.82758" lon="0.45816">
        <ele>2013.62</ele>
        <time>2016-03-13T10:44:48Z</time>
      </trkpt>
      <trkpt lat="42.82766" lon="0.45815">
        <ele>2016.02</ele>
        <time>2016-03-13T10:45:02Z</time>
      </trkpt>
      <trkpt lat="42.82772" lon="0.45814">
        <ele>2018.43</ele>
        <time>2016-03-13T10:45:15Z</time>
      </trkpt>
      <trkpt lat="42.82779" lon="0.45811">
        <ele>2020.35</ele>
        <time>2016-03-13T10:45:35Z</time>
      </trkpt>
      <trkpt lat="42.82786" lon="0.45814">
        <ele>2022.27</ele>
        <time>2016-03-13T10:45:48Z</time>
      </trkpt>
      <trkpt lat="42.82794" lon="0.45815">
        <ele>2024.67</ele>
        <time>2016-03-13T10:46:01Z</time>
      </trkpt>
      <trkpt lat="42.82801" lon="0.45816">
        <ele>2026.6</ele>
        <time>2016-03-13T10:46:13Z</time>
      </trkpt>
      <trkpt lat="42.82807" lon="0.4582">
        <ele>2028.52</ele>
        <time>2016-03-13T10:46:25Z</time>
      </trkpt>
      <trkpt lat="42.82814" lon="0.45823">
        <ele>2030.44</ele>
        <time>2016-03-13T10:46:37Z</time>
      </trkpt>
      <trkpt lat="42.82818" lon="0.45824">
        <ele>2031.88</ele>
        <time>2016-03-13T10:46:49Z</time>
      </trkpt>
      <trkpt lat="42.82818" lon="0.45824">
        <ele>2032.36</ele>
        <time>2016-03-13T10:47:14Z</time>
      </trkpt>
      <trkpt lat="42.82826" lon="0.45826">
        <ele>2033.81</ele>
        <time>2016-03-13T10:47:28Z</time>
      </trkpt>
      <trkpt lat="42.82833" lon="0.45827">
        <ele>2035.73</ele>
        <time>2016-03-13T10:47:40Z</time>
      </trkpt>
      <trkpt lat="42.82843" lon="0.45829">
        <ele>2037.65</ele>
        <time>2016-03-13T10:47:53Z</time>
      </trkpt>
      <trkpt lat="42.82852" lon="0.45833">
        <ele>2040.05</ele>
        <time>2016-03-13T10:48:06Z</time>
      </trkpt>
      <trkpt lat="42.82862" lon="0.45834">
        <ele>2041.98</ele>
        <time>2016-03-13T10:48:20Z</time>
      </trkpt>
      <trkpt lat="42.8287" lon="0.45835">
        <ele>2043.9</ele>
        <time>2016-03-13T10:48:35Z</time>
      </trkpt>
      <trkpt lat="42.82877" lon="0.45839">
        <ele>2045.34</ele>
        <time>2016-03-13T10:48:47Z</time>
      </trkpt>
      <trkpt lat="42.82887" lon="0.45844">
        <ele>2046.78</ele>
        <time>2016-03-13T10:49:01Z</time>
      </trkpt>
      <trkpt lat="42.82893" lon="0.45847">
        <ele>2048.23</ele>
        <time>2016-03-13T10:49:14Z</time>
      </trkpt>
      <trkpt lat="42.82898" lon="0.45849">
        <ele>2048.71</ele>
        <time>2016-03-13T10:49:29Z</time>
      </trkpt>
      <trkpt lat="42.82908" lon="0.45853">
        <ele>2050.15</ele>
        <time>2016-03-13T10:49:42Z</time>
      </trkpt>
      <trkpt lat="42.8292" lon="0.45856">
        <ele>2052.07</ele>
        <time>2016-03-13T10:49:57Z</time>
      </trkpt>
      <trkpt lat="42.8293" lon="0.45861">
        <ele>2053.03</ele>
        <time>2016-03-13T10:50:11Z</time>
      </trkpt>
      <trkpt lat="42.8294" lon="0.45858">
        <ele>2053.51</ele>
        <time>2016-03-13T10:51:10Z</time>
      </trkpt>
      <trkpt lat="42.82947" lon="0.45858">
        <ele>2053.99</ele>
        <time>2016-03-13T10:51:24Z</time>
      </trkpt>
      <trkpt lat="42.82962" lon="0.4586">
        <ele>2054.96</ele>
        <time>2016-03-13T10:51:40Z</time>
      </trkpt>
      <trkpt lat="42.82973" lon="0.45864">
        <ele>2056.4</ele>
        <time>2016-03-13T10:51:54Z</time>
      </trkpt>
      <trkpt lat="42.82975" lon="0.45865">
        <ele>2056.4</ele>
        <time>2016-03-13T10:51:56Z</time>
      </trkpt>
      <trkpt lat="42.8298" lon="0.45867">
        <ele>2057.84</ele>
        <time>2016-03-13T10:52:02Z</time>
      </trkpt>
      <trkpt lat="42.82991" lon="0.45874">
        <ele>2059.28</ele>
        <time>2016-03-13T10:52:18Z</time>
      </trkpt>
      <trkpt lat="42.82992" lon="0.45875">
        <ele>2059.28</ele>
        <time>2016-03-13T10:52:19Z</time>
      </trkpt>
      <trkpt lat="42.82991" lon="0.45886">
        <ele>2059.76</ele>
        <time>2016-03-13T10:52:29Z</time>
      </trkpt>
      <trkpt lat="42.8299" lon="0.45891">
        <ele>2059.76</ele>
        <time>2016-03-13T10:52:43Z</time>
      </trkpt>
      <trkpt lat="42.82989" lon="0.45892">
        <ele>2059.76</ele>
        <time>2016-03-13T10:52:57Z</time>
      </trkpt>
      <trkpt lat="42.82992" lon="0.4589">
        <ele>2060.24</ele>
        <time>2016-03-13T10:54:16Z</time>
      </trkpt>
      <trkpt lat="42.82993" lon="0.4589">
        <ele>2060.24</ele>
        <time>2016-03-13T10:54:36Z</time>
      </trkpt>
      <trkpt lat="42.82995" lon="0.45888">
        <ele>2060.24</ele>
        <time>2016-03-13T10:54:54Z</time>
      </trkpt>
      <trkpt lat="42.83008" lon="0.45884">
        <ele>2058.8</ele>
        <time>2016-03-13T10:55:08Z</time>
      </trkpt>
      <trkpt lat="42.83015" lon="0.45884">
        <ele>2058.8</ele>
        <time>2016-03-13T10:55:22Z</time>
      </trkpt>
      <trkpt lat="42.83027" lon="0.45885">
        <ele>2058.8</ele>
        <time>2016-03-13T10:55:36Z</time>
      </trkpt>
      <trkpt lat="42.83034" lon="0.45883">
        <ele>2058.8</ele>
        <time>2016-03-13T10:55:43Z</time>
      </trkpt>
      <trkpt lat="42.83046" lon="0.45885">
        <ele>2058.32</ele>
        <time>2016-03-13T10:55:55Z</time>
      </trkpt>
      <trkpt lat="42.83063" lon="0.45891">
        <ele>2058.32</ele>
        <time>2016-03-13T10:56:12Z</time>
      </trkpt>
      <trkpt lat="42.83074" lon="0.45896">
        <ele>2058.32</ele>
        <time>2016-03-13T10:56:24Z</time>
      </trkpt>
      <trkpt lat="42.83076" lon="0.45896">
        <ele>2058.32</ele>
        <time>2016-03-13T10:56:26Z</time>
      </trkpt>
      <trkpt lat="42.83092" lon="0.45903">
        <ele>2056.88</ele>
        <time>2016-03-13T10:56:41Z</time>
      </trkpt>
      <trkpt lat="42.8311" lon="0.4591">
        <ele>2055.44</ele>
        <time>2016-03-13T10:56:58Z</time>
      </trkpt>
      <trkpt lat="42.83119" lon="0.45914">
        <ele>2053.99</ele>
        <time>2016-03-13T10:57:12Z</time>
      </trkpt>
      <trkpt lat="42.8313" lon="0.45919">
        <ele>2053.03</ele>
        <time>2016-03-13T10:57:30Z</time>
      </trkpt>
      <trkpt lat="42.83142" lon="0.45923">
        <ele>2050.63</ele>
        <time>2016-03-13T10:57:41Z</time>
      </trkpt>
      <trkpt lat="42.83143" lon="0.45925">
        <ele>2050.15</ele>
        <time>2016-03-13T10:57:43Z</time>
      </trkpt>
      <trkpt lat="42.83156" lon="0.45929">
        <ele>2046.78</ele>
        <time>2016-03-13T10:57:55Z</time>
      </trkpt>
      <trkpt lat="42.83173" lon="0.45936">
        <ele>2043.9</ele>
        <time>2016-03-13T10:58:10Z</time>
      </trkpt>
      <trkpt lat="42.83191" lon="0.45944">
        <ele>2040.05</ele>
        <time>2016-03-13T10:58:27Z</time>
      </trkpt>
      <trkpt lat="42.83194" lon="0.45945">
        <ele>2039.57</ele>
        <time>2016-03-13T10:58:37Z</time>
      </trkpt>
      <trkpt lat="42.83211" lon="0.4595">
        <ele>2036.21</ele>
        <time>2016-03-13T10:58:54Z</time>
      </trkpt>
      <trkpt lat="42.83217" lon="0.45954">
        <ele>2034.77</ele>
        <time>2016-03-13T10:59:00Z</time>
      </trkpt>
      <trkpt lat="42.83226" lon="0.45958">
        <ele>2032.84</ele>
        <time>2016-03-13T10:59:13Z</time>
      </trkpt>
      <trkpt lat="42.83236" lon="0.45963">
        <ele>2029.48</ele>
        <time>2016-03-13T10:59:24Z</time>
      </trkpt>
      <trkpt lat="42.8324" lon="0.45966">
        <ele>2028.52</ele>
        <time>2016-03-13T10:59:40Z</time>
      </trkpt>
      <trkpt lat="42.83251" lon="0.4597">
        <ele>2025.64</ele>
        <time>2016-03-13T10:59:51Z</time>
      </trkpt>
      <trkpt lat="42.83265" lon="0.45977">
        <ele>2022.27</ele>
        <time>2016-03-13T11:00:04Z</time>
      </trkpt>
      <trkpt lat="42.83282" lon="0.45988">
        <ele>2019.39</ele>
        <time>2016-03-13T11:00:21Z</time>
      </trkpt>
      <trkpt lat="42.83296" lon="0.45998">
        <ele>2016.98</ele>
        <time>2016-03-13T11:00:35Z</time>
      </trkpt>
      <trkpt lat="42.83312" lon="0.46007">
        <ele>2014.58</ele>
        <time>2016-03-13T11:00:50Z</time>
      </trkpt>
      <trkpt lat="42.83327" lon="0.46012">
        <ele>2012.18</ele>
        <time>2016-03-13T11:01:04Z</time>
      </trkpt>
      <trkpt lat="42.83343" lon="0.46016">
        <ele>2012.18</ele>
        <time>2016-03-13T11:01:19Z</time>
      </trkpt>
      <trkpt lat="42.83361" lon="0.46021">
        <ele>2011.7</ele>
        <time>2016-03-13T11:01:35Z</time>
      </trkpt>
      <trkpt lat="42.83374" lon="0.46026">
        <ele>2011.7</ele>
        <time>2016-03-13T11:01:46Z</time>
      </trkpt>
      <trkpt lat="42.83391" lon="0.46029">
        <ele>2010.73</ele>
        <time>2016-03-13T11:02:01Z</time>
      </trkpt>
      <trkpt lat="42.83408" lon="0.46031">
        <ele>2010.73</ele>
        <time>2016-03-13T11:02:16Z</time>
      </trkpt>
      <trkpt lat="42.8342" lon="0.46033">
        <ele>2010.73</ele>
        <time>2016-03-13T11:02:28Z</time>
      </trkpt>
      <trkpt lat="42.83429" lon="0.46034">
        <ele>2010.73</ele>
        <time>2016-03-13T11:02:37Z</time>
      </trkpt>
      <trkpt lat="42.83436" lon="0.46038">
        <ele>2010.73</ele>
        <time>2016-03-13T11:02:44Z</time>
      </trkpt>
      <trkpt lat="42.83438" lon="0.46039">
        <ele>2012.18</ele>
        <time>2016-03-13T11:02:46Z</time>
      </trkpt>
      <trkpt lat="42.83451" lon="0.46043">
        <ele>2012.66</ele>
        <time>2016-03-13T11:03:00Z</time>
      </trkpt>
      <trkpt lat="42.83454" lon="0.46044">
        <ele>2012.66</ele>
        <time>2016-03-13T11:03:03Z</time>
      </trkpt>
      <trkpt lat="42.8346" lon="0.46048">
        <ele>2014.1</ele>
        <time>2016-03-13T11:03:11Z</time>
      </trkpt>
      <trkpt lat="42.83474" lon="0.46053">
        <ele>2014.58</ele>
        <time>2016-03-13T11:03:27Z</time>
      </trkpt>
      <trkpt lat="42.83489" lon="0.46057">
        <ele>2014.58</ele>
        <time>2016-03-13T11:03:42Z</time>
      </trkpt>
      <trkpt lat="42.83504" lon="0.46062">
        <ele>2013.62</ele>
        <time>2016-03-13T11:03:56Z</time>
      </trkpt>
      <trkpt lat="42.83519" lon="0.46066">
        <ele>2013.62</ele>
        <time>2016-03-13T11:04:11Z</time>
      </trkpt>
      <trkpt lat="42.83533" lon="0.46072">
        <ele>2015.06</ele>
        <time>2016-03-13T11:04:25Z</time>
      </trkpt>
      <trkpt lat="42.83538" lon="0.46074">
        <ele>2015.06</ele>
        <time>2016-03-13T11:04:31Z</time>
      </trkpt>
      <trkpt lat="42.83543" lon="0.46077">
        <ele>2015.54</ele>
        <time>2016-03-13T11:04:37Z</time>
      </trkpt>
      <trkpt lat="42.83554" lon="0.46083">
        <ele>2016.5</ele>
        <time>2016-03-13T11:04:51Z</time>
      </trkpt>
      <trkpt lat="42.83565" lon="0.46088">
        <ele>2017.94</ele>
        <time>2016-03-13T11:05:05Z</time>
      </trkpt>
      <trkpt lat="42.8357" lon="0.46091">
        <ele>2018.91</ele>
        <time>2016-03-13T11:05:19Z</time>
      </trkpt>
      <trkpt lat="42.83579" lon="0.46098">
        <ele>2020.35</ele>
        <time>2016-03-13T11:05:32Z</time>
      </trkpt>
      <trkpt lat="42.83587" lon="0.46104">
        <ele>2020.83</ele>
        <time>2016-03-13T11:05:44Z</time>
      </trkpt>
      <trkpt lat="42.83596" lon="0.46111">
        <ele>2022.27</ele>
        <time>2016-03-13T11:05:57Z</time>
      </trkpt>
      <trkpt lat="42.83608" lon="0.46118">
        <ele>2022.75</ele>
        <time>2016-03-13T11:06:10Z</time>
      </trkpt>
      <trkpt lat="42.83613" lon="0.46122">
        <ele>2022.75</ele>
        <time>2016-03-13T11:06:16Z</time>
      </trkpt>
      <trkpt lat="42.83615" lon="0.46123">
        <ele>2022.75</ele>
        <time>2016-03-13T11:06:18Z</time>
      </trkpt>
      <trkpt lat="42.83627" lon="0.46131">
        <ele>2023.23</ele>
        <time>2016-03-13T11:06:33Z</time>
      </trkpt>
      <trkpt lat="42.83636" lon="0.46137">
        <ele>2024.67</ele>
        <time>2016-03-13T11:06:45Z</time>
      </trkpt>
      <trkpt lat="42.83645" lon="0.46142">
        <ele>2025.64</ele>
        <time>2016-03-13T11:06:56Z</time>
      </trkpt>
      <trkpt lat="42.83655" lon="0.46148">
        <ele>2026.6</ele>
        <time>2016-03-13T11:07:08Z</time>
      </trkpt>
      <trkpt lat="42.83667" lon="0.46156">
        <ele>2027.56</ele>
        <time>2016-03-13T11:07:22Z</time>
      </trkpt>
      <trkpt lat="42.83678" lon="0.46165">
        <ele>2028.52</ele>
        <time>2016-03-13T11:07:36Z</time>
      </trkpt>
      <trkpt lat="42.83688" lon="0.46172">
        <ele>2028.52</ele>
        <time>2016-03-13T11:07:48Z</time>
      </trkpt>
      <trkpt lat="42.83691" lon="0.46174">
        <ele>2029</ele>
        <time>2016-03-13T11:07:51Z</time>
      </trkpt>
      <trkpt lat="42.83693" lon="0.46176">
        <ele>2029</ele>
        <time>2016-03-13T11:07:54Z</time>
      </trkpt>
      <trkpt lat="42.83695" lon="0.46179">
        <ele>2029.48</ele>
        <time>2016-03-13T11:07:57Z</time>
      </trkpt>
      <trkpt lat="42.83697" lon="0.4618">
        <ele>2029.96</ele>
        <time>2016-03-13T11:08:00Z</time>
      </trkpt>
      <trkpt lat="42.83698" lon="0.46182">
        <ele>2029.96</ele>
        <time>2016-03-13T11:08:02Z</time>
      </trkpt>
      <trkpt lat="42.83702" lon="0.46184">
        <ele>2030.44</ele>
        <time>2016-03-13T11:08:07Z</time>
      </trkpt>
      <trkpt lat="42.8371" lon="0.46191">
        <ele>2031.88</ele>
        <time>2016-03-13T11:08:18Z</time>
      </trkpt>
      <trkpt lat="42.83713" lon="0.46192">
        <ele>2031.88</ele>
        <time>2016-03-13T11:08:21Z</time>
      </trkpt>
      <trkpt lat="42.83722" lon="0.46198">
        <ele>2032.84</ele>
        <time>2016-03-13T11:08:33Z</time>
      </trkpt>
      <trkpt lat="42.83724" lon="0.462">
        <ele>2032.84</ele>
        <time>2016-03-13T11:08:36Z</time>
      </trkpt>
      <trkpt lat="42.83726" lon="0.46202">
        <ele>2033.33</ele>
        <time>2016-03-13T11:08:39Z</time>
      </trkpt>
      <trkpt lat="42.83736" lon="0.4621">
        <ele>2033.81</ele>
        <time>2016-03-13T11:08:51Z</time>
      </trkpt>
      <trkpt lat="42.83747" lon="0.46217">
        <ele>2034.77</ele>
        <time>2016-03-13T11:09:03Z</time>
      </trkpt>
      <trkpt lat="42.83749" lon="0.46218">
        <ele>2035.25</ele>
        <time>2016-03-13T11:09:06Z</time>
      </trkpt>
      <trkpt lat="42.83758" lon="0.46226">
        <ele>2036.21</ele>
        <time>2016-03-13T11:09:19Z</time>
      </trkpt>
      <trkpt lat="42.83768" lon="0.46234">
        <ele>2037.65</ele>
        <time>2016-03-13T11:09:33Z</time>
      </trkpt>
      <trkpt lat="42.83776" lon="0.46241">
        <ele>2039.09</ele>
        <time>2016-03-13T11:09:44Z</time>
      </trkpt>
      <trkpt lat="42.83784" lon="0.46246">
        <ele>2040.54</ele>
        <time>2016-03-13T11:09:56Z</time>
      </trkpt>
      <trkpt lat="42.83792" lon="0.46253">
        <ele>2041.98</ele>
        <time>2016-03-13T11:10:08Z</time>
      </trkpt>
      <trkpt lat="42.83799" lon="0.46259">
        <ele>2042.94</ele>
        <time>2016-03-13T11:10:20Z</time>
      </trkpt>
      <trkpt lat="42.83802" lon="0.46262">
        <ele>2042.94</ele>
        <time>2016-03-13T11:10:24Z</time>
      </trkpt>
      <trkpt lat="42.83812" lon="0.4627">
        <ele>2044.38</ele>
        <time>2016-03-13T11:10:38Z</time>
      </trkpt>
      <trkpt lat="42.8382" lon="0.46277">
        <ele>2045.34</ele>
        <time>2016-03-13T11:10:50Z</time>
      </trkpt>
      <trkpt lat="42.83829" lon="0.46288">
        <ele>2046.3</ele>
        <time>2016-03-13T11:11:03Z</time>
      </trkpt>
      <trkpt lat="42.83837" lon="0.46298">
        <ele>2047.26</ele>
        <time>2016-03-13T11:11:16Z</time>
      </trkpt>
      <trkpt lat="42.83843" lon="0.46308">
        <ele>2048.23</ele>
        <time>2016-03-13T11:11:28Z</time>
      </trkpt>
      <trkpt lat="42.8385" lon="0.46318">
        <ele>2049.67</ele>
        <time>2016-03-13T11:11:41Z</time>
      </trkpt>
      <trkpt lat="42.83858" lon="0.46326">
        <ele>2050.63</ele>
        <time>2016-03-13T11:11:53Z</time>
      </trkpt>
      <trkpt lat="42.83865" lon="0.46334">
        <ele>2051.59</ele>
        <time>2016-03-13T11:12:05Z</time>
      </trkpt>
      <trkpt lat="42.83872" lon="0.46342">
        <ele>2053.03</ele>
        <time>2016-03-13T11:12:18Z</time>
      </trkpt>
      <trkpt lat="42.83875" lon="0.46346">
        <ele>2053.51</ele>
        <time>2016-03-13T11:12:23Z</time>
      </trkpt>
      <trkpt lat="42.83882" lon="0.46352">
        <ele>2054.96</ele>
        <time>2016-03-13T11:12:36Z</time>
      </trkpt>
      <trkpt lat="42.83884" lon="0.46355">
        <ele>2055.92</ele>
        <time>2016-03-13T11:12:41Z</time>
      </trkpt>
      <trkpt lat="42.83893" lon="0.46364">
        <ele>2056.88</ele>
        <time>2016-03-13T11:12:55Z</time>
      </trkpt>
      <trkpt lat="42.839" lon="0.46372">
        <ele>2058.8</ele>
        <time>2016-03-13T11:13:08Z</time>
      </trkpt>
      <trkpt lat="42.83906" lon="0.46377">
        <ele>2059.76</ele>
        <time>2016-03-13T11:13:20Z</time>
      </trkpt>
      <trkpt lat="42.83913" lon="0.46383">
        <ele>2061.68</ele>
        <time>2016-03-13T11:13:34Z</time>
      </trkpt>
      <trkpt lat="42.83918" lon="0.46386">
        <ele>2063.13</ele>
        <time>2016-03-13T11:13:46Z</time>
      </trkpt>
      <trkpt lat="42.83926" lon="0.46389">
        <ele>2065.05</ele>
        <time>2016-03-13T11:13:58Z</time>
      </trkpt>
      <trkpt lat="42.83935" lon="0.46393">
        <ele>2066.97</ele>
        <time>2016-03-13T11:14:12Z</time>
      </trkpt>
      <trkpt lat="42.83944" lon="0.46397">
        <ele>2068.89</ele>
        <time>2016-03-13T11:14:25Z</time>
      </trkpt>
      <trkpt lat="42.83945" lon="0.46397">
        <ele>2069.38</ele>
        <time>2016-03-13T11:14:39Z</time>
      </trkpt>
      <trkpt lat="42.83951" lon="0.46399">
        <ele>2070.82</ele>
        <time>2016-03-13T11:14:52Z</time>
      </trkpt>
      <trkpt lat="42.8396" lon="0.46403">
        <ele>2072.74</ele>
        <time>2016-03-13T11:15:05Z</time>
      </trkpt>
      <trkpt lat="42.8397" lon="0.46409">
        <ele>2074.18</ele>
        <time>2016-03-13T11:15:18Z</time>
      </trkpt>
      <trkpt lat="42.83976" lon="0.46412">
        <ele>2075.14</ele>
        <time>2016-03-13T11:15:26Z</time>
      </trkpt>
      <trkpt lat="42.83979" lon="0.46413">
        <ele>2075.14</ele>
        <time>2016-03-13T11:15:42Z</time>
      </trkpt>
      <trkpt lat="42.83987" lon="0.4642">
        <ele>2075.14</ele>
        <time>2016-03-13T11:15:55Z</time>
      </trkpt>
      <trkpt lat="42.83999" lon="0.46427">
        <ele>2075.14</ele>
        <time>2016-03-13T11:16:07Z</time>
      </trkpt>
      <trkpt lat="42.84001" lon="0.46429">
        <ele>2075.14</ele>
        <time>2016-03-13T11:16:11Z</time>
      </trkpt>
      <trkpt lat="42.8401" lon="0.46432">
        <ele>2075.14</ele>
        <time>2016-03-13T11:16:20Z</time>
      </trkpt>
      <trkpt lat="42.84012" lon="0.46433">
        <ele>2075.14</ele>
        <time>2016-03-13T11:16:23Z</time>
      </trkpt>
      <trkpt lat="42.84025" lon="0.46441">
        <ele>2075.14</ele>
        <time>2016-03-13T11:23:56Z</time>
      </trkpt>
      <trkpt lat="42.84025" lon="0.46442">
        <ele>2076.59</ele>
        <time>2016-03-13T11:24:07Z</time>
      </trkpt>
      <trkpt lat="42.8402" lon="0.46437">
        <ele>2076.59</ele>
        <time>2016-03-13T11:24:18Z</time>
      </trkpt>
      <trkpt lat="42.84015" lon="0.46434">
        <ele>2076.59</ele>
        <time>2016-03-13T11:24:33Z</time>
      </trkpt>
      <trkpt lat="42.84012" lon="0.46433">
        <ele>2076.59</ele>
        <time>2016-03-13T11:24:51Z</time>
      </trkpt>
      <trkpt lat="42.83999" lon="0.46427">
        <ele>2075.14</ele>
        <time>2016-03-13T11:25:05Z</time>
      </trkpt>
      <trkpt lat="42.8399" lon="0.4642">
        <ele>2074.18</ele>
        <time>2016-03-13T11:25:16Z</time>
      </trkpt>
      <trkpt lat="42.83978" lon="0.4641">
        <ele>2074.18</ele>
        <time>2016-03-13T11:25:30Z</time>
      </trkpt>
      <trkpt lat="42.8397" lon="0.46405">
        <ele>2074.18</ele>
        <time>2016-03-13T11:25:41Z</time>
      </trkpt>
      <trkpt lat="42.83968" lon="0.46404">
        <ele>2073.7</ele>
        <time>2016-03-13T11:25:50Z</time>
      </trkpt>
      <trkpt lat="42.8396" lon="0.46402">
        <ele>2072.74</ele>
        <time>2016-03-13T11:25:59Z</time>
      </trkpt>
      <trkpt lat="42.83958" lon="0.46402">
        <ele>2072.26</ele>
        <time>2016-03-13T11:26:01Z</time>
      </trkpt>
      <trkpt lat="42.83956" lon="0.46401">
        <ele>2072.26</ele>
        <time>2016-03-13T11:26:03Z</time>
      </trkpt>
      <trkpt lat="42.83952" lon="0.464">
        <ele>2070.82</ele>
        <time>2016-03-13T11:26:07Z</time>
      </trkpt>
      <trkpt lat="42.83942" lon="0.46395">
        <ele>2068.89</ele>
        <time>2016-03-13T11:26:18Z</time>
      </trkpt>
      <trkpt lat="42.8393" lon="0.4639">
        <ele>2065.53</ele>
        <time>2016-03-13T11:26:30Z</time>
      </trkpt>
      <trkpt lat="42.83928" lon="0.46389">
        <ele>2065.05</ele>
        <time>2016-03-13T11:26:32Z</time>
      </trkpt>
      <trkpt lat="42.83914" lon="0.46382">
        <ele>2061.68</ele>
        <time>2016-03-13T11:26:45Z</time>
      </trkpt>
      <trkpt lat="42.83911" lon="0.4638">
        <ele>2061.2</ele>
        <time>2016-03-13T11:26:48Z</time>
      </trkpt>
      <trkpt lat="42.83908" lon="0.46378">
        <ele>2060.24</ele>
        <time>2016-03-13T11:26:52Z</time>
      </trkpt>
      <trkpt lat="42.83906" lon="0.46376">
        <ele>2059.28</ele>
        <time>2016-03-13T11:26:54Z</time>
      </trkpt>
      <trkpt lat="42.83902" lon="0.46373">
        <ele>2058.32</ele>
        <time>2016-03-13T11:26:58Z</time>
      </trkpt>
      <trkpt lat="42.839" lon="0.46372">
        <ele>2057.84</ele>
        <time>2016-03-13T11:27:00Z</time>
      </trkpt>
      <trkpt lat="42.83896" lon="0.46368">
        <ele>2057.36</ele>
        <time>2016-03-13T11:27:04Z</time>
      </trkpt>
      <trkpt lat="42.83887" lon="0.46357">
        <ele>2055.44</ele>
        <time>2016-03-13T11:27:14Z</time>
      </trkpt>
      <trkpt lat="42.83885" lon="0.46356">
        <ele>2055.44</ele>
        <time>2016-03-13T11:27:16Z</time>
      </trkpt>
      <trkpt lat="42.83869" lon="0.46342">
        <ele>2052.55</ele>
        <time>2016-03-13T11:27:30Z</time>
      </trkpt>
      <trkpt lat="42.83855" lon="0.46325">
        <ele>2050.15</ele>
        <time>2016-03-13T11:27:46Z</time>
      </trkpt>
      <trkpt lat="42.83845" lon="0.46315">
        <ele>2048.71</ele>
        <time>2016-03-13T11:27:56Z</time>
      </trkpt>
      <trkpt lat="42.83835" lon="0.463">
        <ele>2046.78</ele>
        <time>2016-03-13T11:28:09Z</time>
      </trkpt>
      <trkpt lat="42.83824" lon="0.46287">
        <ele>2045.34</ele>
        <time>2016-03-13T11:28:23Z</time>
      </trkpt>
      <trkpt lat="42.8381" lon="0.46274">
        <ele>2043.42</ele>
        <time>2016-03-13T11:28:38Z</time>
      </trkpt>
      <trkpt lat="42.83796" lon="0.46263">
        <ele>2041.98</ele>
        <time>2016-03-13T11:28:51Z</time>
      </trkpt>
      <trkpt lat="42.8378" lon="0.46251">
        <ele>2040.05</ele>
        <time>2016-03-13T11:29:06Z</time>
      </trkpt>
      <trkpt lat="42.83765" lon="0.4624">
        <ele>2037.17</ele>
        <time>2016-03-13T11:29:19Z</time>
      </trkpt>
      <trkpt lat="42.83751" lon="0.46231">
        <ele>2035.25</ele>
        <time>2016-03-13T11:29:32Z</time>
      </trkpt>
      <trkpt lat="42.83734" lon="0.46221">
        <ele>2033.33</ele>
        <time>2016-03-13T11:29:47Z</time>
      </trkpt>
      <trkpt lat="42.83719" lon="0.4621">
        <ele>2032.36</ele>
        <time>2016-03-13T11:30:01Z</time>
      </trkpt>
      <trkpt lat="42.83716" lon="0.46208">
        <ele>2031.88</ele>
        <time>2016-03-13T11:30:04Z</time>
      </trkpt>
      <trkpt lat="42.83707" lon="0.46201">
        <ele>2031.4</ele>
        <time>2016-03-13T11:30:17Z</time>
      </trkpt>
      <trkpt lat="42.83695" lon="0.46197">
        <ele>2030.44</ele>
        <time>2016-03-13T11:30:31Z</time>
      </trkpt>
      <trkpt lat="42.83689" lon="0.46195">
        <ele>2036.69</ele>
        <time>2016-03-13T12:42:02Z</time>
      </trkpt>
      <trkpt lat="42.83688" lon="0.46193">
        <ele>2036.21</ele>
        <time>2016-03-13T12:42:04Z</time>
      </trkpt>
      <trkpt lat="42.83683" lon="0.46185">
        <ele>2035.73</ele>
        <time>2016-03-13T12:42:19Z</time>
      </trkpt>
      <trkpt lat="42.83679" lon="0.46177">
        <ele>2035.73</ele>
        <time>2016-03-13T12:42:35Z</time>
      </trkpt>
      <trkpt lat="42.83678" lon="0.46174">
        <ele>2035.73</ele>
        <time>2016-03-13T12:42:38Z</time>
      </trkpt>
      <trkpt lat="42.83667" lon="0.46161">
        <ele>2033.81</ele>
        <time>2016-03-13T12:42:51Z</time>
      </trkpt>
      <trkpt lat="42.83662" lon="0.46156">
        <ele>2033.81</ele>
        <time>2016-03-13T12:42:56Z</time>
      </trkpt>
      <trkpt lat="42.83648" lon="0.46147">
        <ele>2032.36</ele>
        <time>2016-03-13T12:43:09Z</time>
      </trkpt>
      <trkpt lat="42.83637" lon="0.46141">
        <ele>2031.4</ele>
        <time>2016-03-13T12:43:20Z</time>
      </trkpt>
      <trkpt lat="42.83632" lon="0.46139">
        <ele>2030.92</ele>
        <time>2016-03-13T12:43:24Z</time>
      </trkpt>
      <trkpt lat="42.83617" lon="0.46128">
        <ele>2029</ele>
        <time>2016-03-13T12:43:39Z</time>
      </trkpt>
      <trkpt lat="42.83606" lon="0.4612">
        <ele>2028.52</ele>
        <time>2016-03-13T12:43:51Z</time>
      </trkpt>
      <trkpt lat="42.83592" lon="0.46112">
        <ele>2028.52</ele>
        <time>2016-03-13T12:44:05Z</time>
      </trkpt>
      <trkpt lat="42.83579" lon="0.46103">
        <ele>2026.12</ele>
        <time>2016-03-13T12:44:19Z</time>
      </trkpt>
      <trkpt lat="42.83565" lon="0.46094">
        <ele>2024.19</ele>
        <time>2016-03-13T12:44:33Z</time>
      </trkpt>
      <trkpt lat="42.83554" lon="0.46086">
        <ele>2023.23</ele>
        <time>2016-03-13T12:44:46Z</time>
      </trkpt>
      <trkpt lat="42.8355" lon="0.46085">
        <ele>2023.23</ele>
        <time>2016-03-13T12:44:52Z</time>
      </trkpt>
      <trkpt lat="42.83546" lon="0.46081">
        <ele>2022.75</ele>
        <time>2016-03-13T12:44:57Z</time>
      </trkpt>
      <trkpt lat="42.83543" lon="0.4608">
        <ele>2022.27</ele>
        <time>2016-03-13T12:44:59Z</time>
      </trkpt>
      <trkpt lat="42.83541" lon="0.46079">
        <ele>2022.27</ele>
        <time>2016-03-13T12:45:01Z</time>
      </trkpt>
      <trkpt lat="42.83537" lon="0.46077">
        <ele>2021.79</ele>
        <time>2016-03-13T12:45:05Z</time>
      </trkpt>
      <trkpt lat="42.83532" lon="0.46075">
        <ele>2021.79</ele>
        <time>2016-03-13T12:45:09Z</time>
      </trkpt>
      <trkpt lat="42.83528" lon="0.46073">
        <ele>2021.31</ele>
        <time>2016-03-13T12:45:13Z</time>
      </trkpt>
      <trkpt lat="42.83516" lon="0.46068">
        <ele>2020.35</ele>
        <time>2016-03-13T12:45:23Z</time>
      </trkpt>
      <trkpt lat="42.83508" lon="0.46065">
        <ele>2019.39</ele>
        <time>2016-03-13T12:45:30Z</time>
      </trkpt>
      <trkpt lat="42.835" lon="0.46063">
        <ele>2019.39</ele>
        <time>2016-03-13T12:45:37Z</time>
      </trkpt>
      <trkpt lat="42.83486" lon="0.4606">
        <ele>2019.87</ele>
        <time>2016-03-13T12:45:51Z</time>
      </trkpt>
      <trkpt lat="42.83481" lon="0.46058">
        <ele>2020.83</ele>
        <time>2016-03-13T12:45:56Z</time>
      </trkpt>
      <trkpt lat="42.83474" lon="0.46057">
        <ele>2020.83</ele>
        <time>2016-03-13T12:46:02Z</time>
      </trkpt>
      <trkpt lat="42.83458" lon="0.46052">
        <ele>2020.83</ele>
        <time>2016-03-13T12:46:17Z</time>
      </trkpt>
      <trkpt lat="42.83456" lon="0.46051">
        <ele>2020.83</ele>
        <time>2016-03-13T12:46:19Z</time>
      </trkpt>
      <trkpt lat="42.8345" lon="0.46048">
        <ele>2019.39</ele>
        <time>2016-03-13T12:46:24Z</time>
      </trkpt>
      <trkpt lat="42.83431" lon="0.4604">
        <ele>2017.46</ele>
        <time>2016-03-13T12:46:40Z</time>
      </trkpt>
      <trkpt lat="42.83415" lon="0.46035">
        <ele>2017.46</ele>
        <time>2016-03-13T12:46:54Z</time>
      </trkpt>
      <trkpt lat="42.83397" lon="0.46033">
        <ele>2016.5</ele>
        <time>2016-03-13T12:47:10Z</time>
      </trkpt>
      <trkpt lat="42.83394" lon="0.46034">
        <ele>2016.02</ele>
        <time>2016-03-13T12:47:21Z</time>
      </trkpt>
      <trkpt lat="42.83394" lon="0.46034">
        <ele>2016.02</ele>
        <time>2016-03-13T12:47:22Z</time>
      </trkpt>
      <trkpt lat="42.83393" lon="0.46033">
        <ele>2016.02</ele>
        <time>2016-03-13T12:47:24Z</time>
      </trkpt>
      <trkpt lat="42.83391" lon="0.46034">
        <ele>2016.02</ele>
        <time>2016-03-13T12:47:26Z</time>
      </trkpt>
      <trkpt lat="42.83374" lon="0.46031">
        <ele>2016.02</ele>
        <time>2016-03-13T12:47:43Z</time>
      </trkpt>
      <trkpt lat="42.83361" lon="0.46026">
        <ele>2017.46</ele>
        <time>2016-03-13T12:47:57Z</time>
      </trkpt>
      <trkpt lat="42.83356" lon="0.46023">
        <ele>2017.46</ele>
        <time>2016-03-13T12:48:11Z</time>
      </trkpt>
      <trkpt lat="42.8334" lon="0.46019">
        <ele>2017.46</ele>
        <time>2016-03-13T12:48:25Z</time>
      </trkpt>
      <trkpt lat="42.83331" lon="0.46017">
        <ele>2017.46</ele>
        <time>2016-03-13T12:48:33Z</time>
      </trkpt>
      <trkpt lat="42.83319" lon="0.46014">
        <ele>2018.43</ele>
        <time>2016-03-13T12:48:44Z</time>
      </trkpt>
      <trkpt lat="42.83317" lon="0.46013">
        <ele>2018.43</ele>
        <time>2016-03-13T12:48:46Z</time>
      </trkpt>
      <trkpt lat="42.83306" lon="0.46008">
        <ele>2019.87</ele>
        <time>2016-03-13T12:48:59Z</time>
      </trkpt>
      <trkpt lat="42.83297" lon="0.46003">
        <ele>2021.79</ele>
        <time>2016-03-13T12:49:11Z</time>
      </trkpt>
      <trkpt lat="42.83287" lon="0.45996">
        <ele>2023.23</ele>
        <time>2016-03-13T12:49:25Z</time>
      </trkpt>
      <trkpt lat="42.83277" lon="0.45991">
        <ele>2024.67</ele>
        <time>2016-03-13T12:49:39Z</time>
      </trkpt>
      <trkpt lat="42.83268" lon="0.45985">
        <ele>2027.08</ele>
        <time>2016-03-13T12:49:52Z</time>
      </trkpt>
      <trkpt lat="42.83259" lon="0.45979">
        <ele>2028.52</ele>
        <time>2016-03-13T12:50:05Z</time>
      </trkpt>
      <trkpt lat="42.83251" lon="0.45975">
        <ele>2029.96</ele>
        <time>2016-03-13T12:50:18Z</time>
      </trkpt>
      <trkpt lat="42.83243" lon="0.45971">
        <ele>2032.36</ele>
        <time>2016-03-13T12:50:32Z</time>
      </trkpt>
      <trkpt lat="42.83236" lon="0.45967">
        <ele>2034.29</ele>
        <time>2016-03-13T12:50:46Z</time>
      </trkpt>
      <trkpt lat="42.83227" lon="0.45962">
        <ele>2036.69</ele>
        <time>2016-03-13T12:51:00Z</time>
      </trkpt>
      <trkpt lat="42.83219" lon="0.45958">
        <ele>2039.09</ele>
        <time>2016-03-13T12:51:13Z</time>
      </trkpt>
      <trkpt lat="42.8321" lon="0.45953">
        <ele>2041.5</ele>
        <time>2016-03-13T12:51:27Z</time>
      </trkpt>
      <trkpt lat="42.83201" lon="0.45949">
        <ele>2042.94</ele>
        <time>2016-03-13T12:51:41Z</time>
      </trkpt>
      <trkpt lat="42.8319" lon="0.45945">
        <ele>2045.34</ele>
        <time>2016-03-13T12:51:57Z</time>
      </trkpt>
      <trkpt lat="42.8318" lon="0.45941">
        <ele>2047.26</ele>
        <time>2016-03-13T12:52:12Z</time>
      </trkpt>
      <trkpt lat="42.83171" lon="0.45938">
        <ele>2049.19</ele>
        <time>2016-03-13T12:52:25Z</time>
      </trkpt>
      <trkpt lat="42.83161" lon="0.45934">
        <ele>2050.63</ele>
        <time>2016-03-13T12:52:39Z</time>
      </trkpt>
      <trkpt lat="42.83152" lon="0.4593">
        <ele>2052.07</ele>
        <time>2016-03-13T12:52:52Z</time>
      </trkpt>
      <trkpt lat="42.83144" lon="0.45927">
        <ele>2053.99</ele>
        <time>2016-03-13T12:53:06Z</time>
      </trkpt>
      <trkpt lat="42.83136" lon="0.45924">
        <ele>2056.4</ele>
        <time>2016-03-13T12:53:19Z</time>
      </trkpt>
      <trkpt lat="42.83126" lon="0.45921">
        <ele>2058.32</ele>
        <time>2016-03-13T12:53:32Z</time>
      </trkpt>
      <trkpt lat="42.83116" lon="0.45917">
        <ele>2059.28</ele>
        <time>2016-03-13T12:53:46Z</time>
      </trkpt>
      <trkpt lat="42.83106" lon="0.45913">
        <ele>2060.72</ele>
        <time>2016-03-13T12:53:59Z</time>
      </trkpt>
      <trkpt lat="42.83093" lon="0.45909">
        <ele>2061.68</ele>
        <time>2016-03-13T12:54:14Z</time>
      </trkpt>
      <trkpt lat="42.83081" lon="0.45904">
        <ele>2063.13</ele>
        <time>2016-03-13T12:54:28Z</time>
      </trkpt>
      <trkpt lat="42.83067" lon="0.45899">
        <ele>2064.09</ele>
        <time>2016-03-13T12:54:43Z</time>
      </trkpt>
      <trkpt lat="42.83054" lon="0.45892">
        <ele>2064.09</ele>
        <time>2016-03-13T12:54:58Z</time>
      </trkpt>
      <trkpt lat="42.83041" lon="0.45886">
        <ele>2064.09</ele>
        <time>2016-03-13T12:55:11Z</time>
      </trkpt>
      <trkpt lat="42.83028" lon="0.4588">
        <ele>2064.09</ele>
        <time>2016-03-13T12:55:24Z</time>
      </trkpt>
      <trkpt lat="42.83015" lon="0.45876">
        <ele>2064.57</ele>
        <time>2016-03-13T12:55:36Z</time>
      </trkpt>
      <trkpt lat="42.83001" lon="0.45873">
        <ele>2064.57</ele>
        <time>2016-03-13T12:55:49Z</time>
      </trkpt>
      <trkpt lat="42.82999" lon="0.45871">
        <ele>2064.57</ele>
        <time>2016-03-13T12:56:02Z</time>
      </trkpt>
      <trkpt lat="42.82998" lon="0.4587">
        <ele>2064.57</ele>
        <time>2016-03-13T12:56:21Z</time>
      </trkpt>
      <trkpt lat="42.82996" lon="0.45868">
        <ele>2064.57</ele>
        <time>2016-03-13T12:56:27Z</time>
      </trkpt>
      <trkpt lat="42.82992" lon="0.45867">
        <ele>2064.57</ele>
        <time>2016-03-13T12:56:31Z</time>
      </trkpt>
      <trkpt lat="42.8299" lon="0.45866">
        <ele>2064.57</ele>
        <time>2016-03-13T12:56:33Z</time>
      </trkpt>
      <trkpt lat="42.82984" lon="0.45863">
        <ele>2063.13</ele>
        <time>2016-03-13T12:56:40Z</time>
      </trkpt>
      <trkpt lat="42.82982" lon="0.45863">
        <ele>2063.13</ele>
        <time>2016-03-13T12:56:42Z</time>
      </trkpt>
      <trkpt lat="42.82973" lon="0.45863">
        <ele>2062.17</ele>
        <time>2016-03-13T12:56:50Z</time>
      </trkpt>
      <trkpt lat="42.82958" lon="0.45861">
        <ele>2060.24</ele>
        <time>2016-03-13T12:57:03Z</time>
      </trkpt>
      <trkpt lat="42.82955" lon="0.45861">
        <ele>2060.24</ele>
        <time>2016-03-13T12:57:05Z</time>
      </trkpt>
      <trkpt lat="42.8294" lon="0.45859">
        <ele>2058.8</ele>
        <time>2016-03-13T12:57:20Z</time>
      </trkpt>
      <trkpt lat="42.82938" lon="0.45859">
        <ele>2058.8</ele>
        <time>2016-03-13T12:57:22Z</time>
      </trkpt>
      <trkpt lat="42.82934" lon="0.45859">
        <ele>2058.32</ele>
        <time>2016-03-13T12:57:26Z</time>
      </trkpt>
      <trkpt lat="42.8292" lon="0.45858">
        <ele>2057.84</ele>
        <time>2016-03-13T12:57:40Z</time>
      </trkpt>
      <trkpt lat="42.82906" lon="0.45856">
        <ele>2055.92</ele>
        <time>2016-03-13T12:57:53Z</time>
      </trkpt>
      <trkpt lat="42.82897" lon="0.45852">
        <ele>2054.96</ele>
        <time>2016-03-13T12:58:08Z</time>
      </trkpt>
      <trkpt lat="42.82888" lon="0.45848">
        <ele>2053.51</ele>
        <time>2016-03-13T12:58:24Z</time>
      </trkpt>
      <trkpt lat="42.82883" lon="0.45848">
        <ele>2053.03</ele>
        <time>2016-03-13T12:58:28Z</time>
      </trkpt>
      <trkpt lat="42.82881" lon="0.45847">
        <ele>2052.55</ele>
        <time>2016-03-13T12:58:30Z</time>
      </trkpt>
      <trkpt lat="42.82874" lon="0.45845">
        <ele>2051.11</ele>
        <time>2016-03-13T12:58:37Z</time>
      </trkpt>
      <trkpt lat="42.82859" lon="0.45842">
        <ele>2048.23</ele>
        <time>2016-03-13T12:58:51Z</time>
      </trkpt>
      <trkpt lat="42.82843" lon="0.45844">
        <ele>2045.34</ele>
        <time>2016-03-13T12:59:03Z</time>
      </trkpt>
      <trkpt lat="42.82828" lon="0.4584">
        <ele>2041.98</ele>
        <time>2016-03-13T12:59:15Z</time>
      </trkpt>
      <trkpt lat="42.82814" lon="0.45837">
        <ele>2038.61</ele>
        <time>2016-03-13T12:59:24Z</time>
      </trkpt>
      <trkpt lat="42.82804" lon="0.45833">
        <ele>2035.73</ele>
        <time>2016-03-13T12:59:30Z</time>
      </trkpt>
      <trkpt lat="42.82791" lon="0.45831">
        <ele>2032.36</ele>
        <time>2016-03-13T12:59:37Z</time>
      </trkpt>
      <trkpt lat="42.82783" lon="0.45831">
        <ele>2030.44</ele>
        <time>2016-03-13T12:59:41Z</time>
      </trkpt>
      <trkpt lat="42.82774" lon="0.4583">
        <ele>2026.6</ele>
        <time>2016-03-13T12:59:47Z</time>
      </trkpt>
      <trkpt lat="42.82763" lon="0.45829">
        <ele>2023.71</ele>
        <time>2016-03-13T12:59:53Z</time>
      </trkpt>
      <trkpt lat="42.82754" lon="0.45829">
        <ele>2020.35</ele>
        <time>2016-03-13T12:59:59Z</time>
      </trkpt>
      <trkpt lat="42.82745" lon="0.45828">
        <ele>2016.98</ele>
        <time>2016-03-13T13:00:05Z</time>
      </trkpt>
      <trkpt lat="42.82734" lon="0.45826">
        <ele>2013.14</ele>
        <time>2016-03-13T13:00:12Z</time>
      </trkpt>
      <trkpt lat="42.8273" lon="0.45826">
        <ele>2012.66</ele>
        <time>2016-03-13T13:00:14Z</time>
      </trkpt>
      <trkpt lat="42.82725" lon="0.45826">
        <ele>2011.22</ele>
        <time>2016-03-13T13:00:17Z</time>
      </trkpt>
      <trkpt lat="42.8271" lon="0.45824">
        <ele>2007.37</ele>
        <time>2016-03-13T13:00:26Z</time>
      </trkpt>
      <trkpt lat="42.82693" lon="0.45824">
        <ele>2004.97</ele>
        <time>2016-03-13T13:00:39Z</time>
      </trkpt>
      <trkpt lat="42.82677" lon="0.45824">
        <ele>2004.01</ele>
        <time>2016-03-13T13:00:52Z</time>
      </trkpt>
      <trkpt lat="42.82675" lon="0.45824">
        <ele>2004.01</ele>
        <time>2016-03-13T13:00:54Z</time>
      </trkpt>
      <trkpt lat="42.82662" lon="0.45826">
        <ele>2003.04</ele>
        <time>2016-03-13T13:01:05Z</time>
      </trkpt>
      <trkpt lat="42.82639" lon="0.45827">
        <ele>2000.64</ele>
        <time>2016-03-13T13:01:24Z</time>
      </trkpt>
      <trkpt lat="42.82623" lon="0.45828">
        <ele>2000.16</ele>
        <time>2016-03-13T13:01:39Z</time>
      </trkpt>
      <trkpt lat="42.82605" lon="0.4583">
        <ele>1998.24</ele>
        <time>2016-03-13T13:01:54Z</time>
      </trkpt>
      <trkpt lat="42.82588" lon="0.45835">
        <ele>1994.87</ele>
        <time>2016-03-13T13:02:08Z</time>
      </trkpt>
      <trkpt lat="42.82572" lon="0.45838">
        <ele>1991.99</ele>
        <time>2016-03-13T13:02:21Z</time>
      </trkpt>
      <trkpt lat="42.82559" lon="0.45842">
        <ele>1988.62</ele>
        <time>2016-03-13T13:02:30Z</time>
      </trkpt>
      <trkpt lat="42.82548" lon="0.45844">
        <ele>1985.26</ele>
        <time>2016-03-13T13:02:36Z</time>
      </trkpt>
      <trkpt lat="42.82543" lon="0.45847">
        <ele>1984.3</ele>
        <time>2016-03-13T13:02:39Z</time>
      </trkpt>
      <trkpt lat="42.82535" lon="0.45847">
        <ele>1980.93</ele>
        <time>2016-03-13T13:02:44Z</time>
      </trkpt>
      <trkpt lat="42.82523" lon="0.4585">
        <ele>1977.57</ele>
        <time>2016-03-13T13:02:52Z</time>
      </trkpt>
      <trkpt lat="42.82502" lon="0.45856">
        <ele>1975.17</ele>
        <time>2016-03-13T13:03:09Z</time>
      </trkpt>
      <trkpt lat="42.82487" lon="0.45861">
        <ele>1975.65</ele>
        <time>2016-03-13T13:03:24Z</time>
      </trkpt>
      <trkpt lat="42.82482" lon="0.45861">
        <ele>1976.61</ele>
        <time>2016-03-13T13:03:30Z</time>
      </trkpt>
      <trkpt lat="42.8248" lon="0.45861">
        <ele>1976.61</ele>
        <time>2016-03-13T13:03:32Z</time>
      </trkpt>
      <trkpt lat="42.8247" lon="0.45858">
        <ele>1978.05</ele>
        <time>2016-03-13T13:03:44Z</time>
      </trkpt>
      <trkpt lat="42.82461" lon="0.45857">
        <ele>1978.05</ele>
        <time>2016-03-13T13:03:57Z</time>
      </trkpt>
      <trkpt lat="42.82447" lon="0.45854">
        <ele>1976.61</ele>
        <time>2016-03-13T13:04:10Z</time>
      </trkpt>
      <trkpt lat="42.82432" lon="0.45848">
        <ele>1974.2</ele>
        <time>2016-03-13T13:04:23Z</time>
      </trkpt>
      <trkpt lat="42.82424" lon="0.45844">
        <ele>1972.28</ele>
        <time>2016-03-13T13:04:36Z</time>
      </trkpt>
      <trkpt lat="42.82424" lon="0.45844">
        <ele>1972.28</ele>
        <time>2016-03-13T13:04:58Z</time>
      </trkpt>
      <trkpt lat="42.82424" lon="0.45843">
        <ele>1971.8</ele>
        <time>2016-03-13T13:05:09Z</time>
      </trkpt>
      <trkpt lat="42.82414" lon="0.45838">
        <ele>1968.44</ele>
        <time>2016-03-13T13:05:18Z</time>
      </trkpt>
      <trkpt lat="42.82406" lon="0.45836">
        <ele>1965.55</ele>
        <time>2016-03-13T13:05:25Z</time>
      </trkpt>
      <trkpt lat="42.824" lon="0.45831">
        <ele>1961.71</ele>
        <time>2016-03-13T13:05:32Z</time>
      </trkpt>
      <trkpt lat="42.82393" lon="0.45825">
        <ele>1958.82</ele>
        <time>2016-03-13T13:05:39Z</time>
      </trkpt>
      <trkpt lat="42.82386" lon="0.45823">
        <ele>1955.46</ele>
        <time>2016-03-13T13:05:48Z</time>
      </trkpt>
      <trkpt lat="42.82383" lon="0.45821">
        <ele>1954.02</ele>
        <time>2016-03-13T13:05:57Z</time>
      </trkpt>
      <trkpt lat="42.82372" lon="0.45818">
        <ele>1949.69</ele>
        <time>2016-03-13T13:06:09Z</time>
      </trkpt>
      <trkpt lat="42.82369" lon="0.45816">
        <ele>1948.73</ele>
        <time>2016-03-13T13:06:12Z</time>
      </trkpt>
      <trkpt lat="42.8236" lon="0.45811">
        <ele>1944.88</ele>
        <time>2016-03-13T13:06:22Z</time>
      </trkpt>
      <trkpt lat="42.82352" lon="0.45808">
        <ele>1941.52</ele>
        <time>2016-03-13T13:06:31Z</time>
      </trkpt>
      <trkpt lat="42.82345" lon="0.45805">
        <ele>1938.64</ele>
        <time>2016-03-13T13:06:41Z</time>
      </trkpt>
      <trkpt lat="42.82336" lon="0.45802">
        <ele>1935.27</ele>
        <time>2016-03-13T13:06:50Z</time>
      </trkpt>
      <trkpt lat="42.82328" lon="0.458">
        <ele>1931.43</ele>
        <time>2016-03-13T13:06:58Z</time>
      </trkpt>
      <trkpt lat="42.82327" lon="0.45799">
        <ele>1931.43</ele>
        <time>2016-03-13T13:06:59Z</time>
      </trkpt>
      <trkpt lat="42.82319" lon="0.45796">
        <ele>1928.06</ele>
        <time>2016-03-13T13:07:09Z</time>
      </trkpt>
      <trkpt lat="42.8231" lon="0.45794">
        <ele>1925.18</ele>
        <time>2016-03-13T13:07:19Z</time>
      </trkpt>
      <trkpt lat="42.82305" lon="0.45793">
        <ele>1922.77</ele>
        <time>2016-03-13T13:07:31Z</time>
      </trkpt>
      <trkpt lat="42.82305" lon="0.45793">
        <ele>1922.77</ele>
        <time>2016-03-13T13:07:34Z</time>
      </trkpt>
      <trkpt lat="42.82297" lon="0.45792">
        <ele>1919.41</ele>
        <time>2016-03-13T13:07:41Z</time>
      </trkpt>
      <trkpt lat="42.8229" lon="0.45792">
        <ele>1917.01</ele>
        <time>2016-03-13T13:07:48Z</time>
      </trkpt>
      <trkpt lat="42.82287" lon="0.45792">
        <ele>1915.56</ele>
        <time>2016-03-13T13:07:51Z</time>
      </trkpt>
      <trkpt lat="42.8228" lon="0.45792">
        <ele>1912.68</ele>
        <time>2016-03-13T13:07:58Z</time>
      </trkpt>
      <trkpt lat="42.82278" lon="0.45792">
        <ele>1911.72</ele>
        <time>2016-03-13T13:08:00Z</time>
      </trkpt>
      <trkpt lat="42.82273" lon="0.45792">
        <ele>1909.32</ele>
        <time>2016-03-13T13:08:06Z</time>
      </trkpt>
      <trkpt lat="42.82263" lon="0.45792">
        <ele>1904.99</ele>
        <time>2016-03-13T13:08:15Z</time>
      </trkpt>
      <trkpt lat="42.82257" lon="0.45791">
        <ele>1902.11</ele>
        <time>2016-03-13T13:08:21Z</time>
      </trkpt>
      <trkpt lat="42.82252" lon="0.4579">
        <ele>1898.74</ele>
        <time>2016-03-13T13:08:27Z</time>
      </trkpt>
      <trkpt lat="42.82246" lon="0.45789">
        <ele>1896.34</ele>
        <time>2016-03-13T13:08:32Z</time>
      </trkpt>
      <trkpt lat="42.82238" lon="0.45786">
        <ele>1892.01</ele>
        <time>2016-03-13T13:08:40Z</time>
      </trkpt>
      <trkpt lat="42.82238" lon="0.45785">
        <ele>1892.01</ele>
        <time>2016-03-13T13:08:41Z</time>
      </trkpt>
      <trkpt lat="42.82232" lon="0.45783">
        <ele>1889.13</ele>
        <time>2016-03-13T13:08:47Z</time>
      </trkpt>
      <trkpt lat="42.82228" lon="0.45782">
        <ele>1887.69</ele>
        <time>2016-03-13T13:08:51Z</time>
      </trkpt>
      <trkpt lat="42.82224" lon="0.45779">
        <ele>1885.76</ele>
        <time>2016-03-13T13:08:56Z</time>
      </trkpt>
      <trkpt lat="42.82214" lon="0.45776">
        <ele>1882.4</ele>
        <time>2016-03-13T13:09:09Z</time>
      </trkpt>
      <trkpt lat="42.82207" lon="0.45775">
        <ele>1881.44</ele>
        <time>2016-03-13T13:09:16Z</time>
      </trkpt>
      <trkpt lat="42.82195" lon="0.45771">
        <ele>1878.55</ele>
        <time>2016-03-13T13:09:30Z</time>
      </trkpt>
      <trkpt lat="42.82195" lon="0.45772">
        <ele>1877.59</ele>
        <time>2016-03-13T13:09:55Z</time>
      </trkpt>
      <trkpt lat="42.82188" lon="0.45769">
        <ele>1876.15</ele>
        <time>2016-03-13T13:10:05Z</time>
      </trkpt>
      <trkpt lat="42.82186" lon="0.45769">
        <ele>1875.67</ele>
        <time>2016-03-13T13:10:07Z</time>
      </trkpt>
      <trkpt lat="42.82168" lon="0.45764">
        <ele>1873.27</ele>
        <time>2016-03-13T13:10:22Z</time>
      </trkpt>
      <trkpt lat="42.82149" lon="0.45762">
        <ele>1870.38</ele>
        <time>2016-03-13T13:10:37Z</time>
      </trkpt>
      <trkpt lat="42.82134" lon="0.45761">
        <ele>1869.42</ele>
        <time>2016-03-13T13:10:49Z</time>
      </trkpt>
      <trkpt lat="42.82119" lon="0.45756">
        <ele>1867.5</ele>
        <time>2016-03-13T13:11:03Z</time>
      </trkpt>
      <trkpt lat="42.82112" lon="0.45755">
        <ele>1867.02</ele>
        <time>2016-03-13T13:11:09Z</time>
      </trkpt>
      <trkpt lat="42.82099" lon="0.4575">
        <ele>1868.46</ele>
        <time>2016-03-13T13:11:24Z</time>
      </trkpt>
      <trkpt lat="42.82087" lon="0.45748">
        <ele>1868.94</ele>
        <time>2016-03-13T13:11:38Z</time>
      </trkpt>
      <trkpt lat="42.82074" lon="0.45745">
        <ele>1868.94</ele>
        <time>2016-03-13T13:11:51Z</time>
      </trkpt>
      <trkpt lat="42.82061" lon="0.4574">
        <ele>1867.98</ele>
        <time>2016-03-13T13:12:04Z</time>
      </trkpt>
      <trkpt lat="42.8205" lon="0.45736">
        <ele>1867.5</ele>
        <time>2016-03-13T13:12:17Z</time>
      </trkpt>
      <trkpt lat="42.82039" lon="0.45732">
        <ele>1867.02</ele>
        <time>2016-03-13T13:12:30Z</time>
      </trkpt>
      <trkpt lat="42.82037" lon="0.45727">
        <ele>1866.54</ele>
        <time>2016-03-13T13:16:31Z</time>
      </trkpt>
      <trkpt lat="42.82037" lon="0.45726">
        <ele>1867.5</ele>
        <time>2016-03-13T13:16:55Z</time>
      </trkpt>
      <trkpt lat="42.82036" lon="0.45726">
        <ele>1867.5</ele>
        <time>2016-03-13T13:17:14Z</time>
      </trkpt>
      <trkpt lat="42.82029" lon="0.45723">
        <ele>1866.06</ele>
        <time>2016-03-13T13:17:24Z</time>
      </trkpt>
      <trkpt lat="42.82028" lon="0.45723">
        <ele>1866.06</ele>
        <time>2016-03-13T13:17:25Z</time>
      </trkpt>
      <trkpt lat="42.82026" lon="0.45719">
        <ele>1865.09</ele>
        <time>2016-03-13T13:17:37Z</time>
      </trkpt>
      <trkpt lat="42.82023" lon="0.45717">
        <ele>1865.09</ele>
        <time>2016-03-13T13:17:46Z</time>
      </trkpt>
      <trkpt lat="42.82011" lon="0.45712">
        <ele>1860.77</ele>
        <time>2016-03-13T13:18:01Z</time>
      </trkpt>
      <trkpt lat="42.82" lon="0.45705">
        <ele>1858.37</ele>
        <time>2016-03-13T13:18:14Z</time>
      </trkpt>
      <trkpt lat="42.81988" lon="0.45699">
        <ele>1855</ele>
        <time>2016-03-13T13:18:26Z</time>
      </trkpt>
      <trkpt lat="42.81975" lon="0.4569">
        <ele>1852.6</ele>
        <time>2016-03-13T13:18:40Z</time>
      </trkpt>
      <trkpt lat="42.8196" lon="0.45683">
        <ele>1850.19</ele>
        <time>2016-03-13T13:18:54Z</time>
      </trkpt>
      <trkpt lat="42.81959" lon="0.45683">
        <ele>1849.23</ele>
        <time>2016-03-13T13:18:55Z</time>
      </trkpt>
      <trkpt lat="42.81954" lon="0.45679">
        <ele>1848.27</ele>
        <time>2016-03-13T13:19:00Z</time>
      </trkpt>
      <trkpt lat="42.81947" lon="0.45676">
        <ele>1846.83</ele>
        <time>2016-03-13T13:19:05Z</time>
      </trkpt>
      <trkpt lat="42.81938" lon="0.45673">
        <ele>1845.87</ele>
        <time>2016-03-13T13:19:13Z</time>
      </trkpt>
      <trkpt lat="42.81924" lon="0.45666">
        <ele>1843.95</ele>
        <time>2016-03-13T13:19:26Z</time>
      </trkpt>
      <trkpt lat="42.81917" lon="0.45662">
        <ele>1843.47</ele>
        <time>2016-03-13T13:19:40Z</time>
      </trkpt>
      <trkpt lat="42.81903" lon="0.45658">
        <ele>1843.47</ele>
        <time>2016-03-13T13:19:54Z</time>
      </trkpt>
      <trkpt lat="42.81894" lon="0.45653">
        <ele>1843.47</ele>
        <time>2016-03-13T13:20:06Z</time>
      </trkpt>
      <trkpt lat="42.81893" lon="0.45653">
        <ele>1843.47</ele>
        <time>2016-03-13T13:20:07Z</time>
      </trkpt>
      <trkpt lat="42.81882" lon="0.45648">
        <ele>1843.47</ele>
        <time>2016-03-13T13:20:21Z</time>
      </trkpt>
      <trkpt lat="42.81876" lon="0.45645">
        <ele>1844.43</ele>
        <time>2016-03-13T13:20:34Z</time>
      </trkpt>
      <trkpt lat="42.81869" lon="0.45642">
        <ele>1845.39</ele>
        <time>2016-03-13T13:20:46Z</time>
      </trkpt>
      <trkpt lat="42.8186" lon="0.45639">
        <ele>1846.35</ele>
        <time>2016-03-13T13:20:57Z</time>
      </trkpt>
      <trkpt lat="42.81848" lon="0.45636">
        <ele>1847.79</ele>
        <time>2016-03-13T13:21:11Z</time>
      </trkpt>
      <trkpt lat="42.81836" lon="0.45632">
        <ele>1850.19</ele>
        <time>2016-03-13T13:21:27Z</time>
      </trkpt>
      <trkpt lat="42.81827" lon="0.45631">
        <ele>1852.12</ele>
        <time>2016-03-13T13:21:40Z</time>
      </trkpt>
      <trkpt lat="42.81818" lon="0.4563">
        <ele>1853.56</ele>
        <time>2016-03-13T13:21:53Z</time>
      </trkpt>
      <trkpt lat="42.81809" lon="0.45629">
        <ele>1855</ele>
        <time>2016-03-13T13:22:05Z</time>
      </trkpt>
      <trkpt lat="42.81799" lon="0.45629">
        <ele>1855.96</ele>
        <time>2016-03-13T13:22:18Z</time>
      </trkpt>
      <trkpt lat="42.8179" lon="0.45627">
        <ele>1857.89</ele>
        <time>2016-03-13T13:22:31Z</time>
      </trkpt>
      <trkpt lat="42.8178" lon="0.45629">
        <ele>1859.81</ele>
        <time>2016-03-13T13:22:45Z</time>
      </trkpt>
      <trkpt lat="42.81777" lon="0.4563">
        <ele>1860.29</ele>
        <time>2016-03-13T13:22:59Z</time>
      </trkpt>
      <trkpt lat="42.81769" lon="0.45635">
        <ele>1861.73</ele>
        <time>2016-03-13T13:23:13Z</time>
      </trkpt>
      <trkpt lat="42.81762" lon="0.45637">
        <ele>1864.61</ele>
        <time>2016-03-13T13:23:27Z</time>
      </trkpt>
      <trkpt lat="42.81756" lon="0.45638">
        <ele>1866.54</ele>
        <time>2016-03-13T13:23:39Z</time>
      </trkpt>
      <trkpt lat="42.81751" lon="0.4564">
        <ele>1867.98</ele>
        <time>2016-03-13T13:23:51Z</time>
      </trkpt>
      <trkpt lat="42.81744" lon="0.45641">
        <ele>1870.38</ele>
        <time>2016-03-13T13:24:05Z</time>
      </trkpt>
      <trkpt lat="42.81739" lon="0.45641">
        <ele>1872.79</ele>
        <time>2016-03-13T13:24:18Z</time>
      </trkpt>
      <trkpt lat="42.8174" lon="0.45635">
        <ele>1873.27</ele>
        <time>2016-03-13T13:24:32Z</time>
      </trkpt>
      <trkpt lat="42.81738" lon="0.45632">
        <ele>1874.71</ele>
        <time>2016-03-13T13:24:44Z</time>
      </trkpt>
      <trkpt lat="42.81738" lon="0.45627">
        <ele>1875.67</ele>
        <time>2016-03-13T13:24:55Z</time>
      </trkpt>
      <trkpt lat="42.81735" lon="0.45619">
        <ele>1878.07</ele>
        <time>2016-03-13T13:25:08Z</time>
      </trkpt>
      <trkpt lat="42.81732" lon="0.45612">
        <ele>1879.51</ele>
        <time>2016-03-13T13:25:22Z</time>
      </trkpt>
      <trkpt lat="42.8173" lon="0.45607">
        <ele>1881.44</ele>
        <time>2016-03-13T13:25:33Z</time>
      </trkpt>
      <trkpt lat="42.81727" lon="0.456">
        <ele>1883.84</ele>
        <time>2016-03-13T13:25:48Z</time>
      </trkpt>
      <trkpt lat="42.81723" lon="0.45593">
        <ele>1885.76</ele>
        <time>2016-03-13T13:26:02Z</time>
      </trkpt>
      <trkpt lat="42.81722" lon="0.45592">
        <ele>1886.72</ele>
        <time>2016-03-13T13:26:17Z</time>
      </trkpt>
      <trkpt lat="42.81723" lon="0.45592">
        <ele>1885.28</ele>
        <time>2016-03-13T13:26:37Z</time>
      </trkpt>
      <trkpt lat="42.81721" lon="0.45589">
        <ele>1886.72</ele>
        <time>2016-03-13T13:26:48Z</time>
      </trkpt>
      <trkpt lat="42.81716" lon="0.45586">
        <ele>1889.13</ele>
        <time>2016-03-13T13:27:02Z</time>
      </trkpt>
      <trkpt lat="42.81713" lon="0.45583">
        <ele>1891.05</ele>
        <time>2016-03-13T13:27:13Z</time>
      </trkpt>
      <trkpt lat="42.81708" lon="0.45579">
        <ele>1893.45</ele>
        <time>2016-03-13T13:27:28Z</time>
      </trkpt>
      <trkpt lat="42.81707" lon="0.45576">
        <ele>1894.9</ele>
        <time>2016-03-13T13:27:52Z</time>
      </trkpt>
      <trkpt lat="42.81703" lon="0.45574">
        <ele>1898.26</ele>
        <time>2016-03-13T13:28:06Z</time>
      </trkpt>
      <trkpt lat="42.817" lon="0.45571">
        <ele>1899.7</ele>
        <time>2016-03-13T13:28:19Z</time>
      </trkpt>
      <trkpt lat="42.81696" lon="0.45568">
        <ele>1902.59</ele>
        <time>2016-03-13T13:28:34Z</time>
      </trkpt>
      <trkpt lat="42.81694" lon="0.45566">
        <ele>1904.51</ele>
        <time>2016-03-13T13:28:48Z</time>
      </trkpt>
      <trkpt lat="42.81694" lon="0.45564">
        <ele>1904.99</ele>
        <time>2016-03-13T13:29:15Z</time>
      </trkpt>
      <trkpt lat="42.81688" lon="0.45559">
        <ele>1907.39</ele>
        <time>2016-03-13T13:29:28Z</time>
      </trkpt>
      <trkpt lat="42.81683" lon="0.45553">
        <ele>1908.83</ele>
        <time>2016-03-13T13:30:47Z</time>
      </trkpt>
      <trkpt lat="42.81682" lon="0.45552">
        <ele>1908.83</ele>
        <time>2016-03-13T13:31:01Z</time>
      </trkpt>
      <trkpt lat="42.81677" lon="0.45551">
        <ele>1907.39</ele>
        <time>2016-03-13T13:31:13Z</time>
      </trkpt>
      <trkpt lat="42.81665" lon="0.45558">
        <ele>1904.03</ele>
        <time>2016-03-13T13:31:26Z</time>
      </trkpt>
      <trkpt lat="42.81652" lon="0.45566">
        <ele>1900.66</ele>
        <time>2016-03-13T13:31:40Z</time>
      </trkpt>
      <trkpt lat="42.81642" lon="0.45572">
        <ele>1897.3</ele>
        <time>2016-03-13T13:31:52Z</time>
      </trkpt>
      <trkpt lat="42.81626" lon="0.45582">
        <ele>1893.93</ele>
        <time>2016-03-13T13:32:08Z</time>
      </trkpt>
      <trkpt lat="42.81611" lon="0.45591">
        <ele>1891.05</ele>
        <time>2016-03-13T13:32:22Z</time>
      </trkpt>
      <trkpt lat="42.81597" lon="0.45598">
        <ele>1888.17</ele>
        <time>2016-03-13T13:32:35Z</time>
      </trkpt>
      <trkpt lat="42.81584" lon="0.45602">
        <ele>1887.21</ele>
        <time>2016-03-13T13:32:48Z</time>
      </trkpt>
      <trkpt lat="42.8158" lon="0.45603">
        <ele>1887.21</ele>
        <time>2016-03-13T13:32:51Z</time>
      </trkpt>
      <trkpt lat="42.81565" lon="0.45606">
        <ele>1886.24</ele>
        <time>2016-03-13T13:33:05Z</time>
      </trkpt>
      <trkpt lat="42.8156" lon="0.45606">
        <ele>1886.24</ele>
        <time>2016-03-13T13:33:10Z</time>
      </trkpt>
      <trkpt lat="42.81551" lon="0.45606">
        <ele>1885.76</ele>
        <time>2016-03-13T13:33:19Z</time>
      </trkpt>
      <trkpt lat="42.81539" lon="0.45605">
        <ele>1884.32</ele>
        <time>2016-03-13T13:33:34Z</time>
      </trkpt>
      <trkpt lat="42.81537" lon="0.45605">
        <ele>1884.32</ele>
        <time>2016-03-13T13:33:37Z</time>
      </trkpt>
      <trkpt lat="42.8152" lon="0.45606">
        <ele>1882.4</ele>
        <time>2016-03-13T13:33:53Z</time>
      </trkpt>
      <trkpt lat="42.81514" lon="0.45607">
        <ele>1880.96</ele>
        <time>2016-03-13T13:34:06Z</time>
      </trkpt>
      <trkpt lat="42.81513" lon="0.45607">
        <ele>1880.96</ele>
        <time>2016-03-13T13:34:07Z</time>
      </trkpt>
      <trkpt lat="42.81509" lon="0.4561">
        <ele>1880</ele>
        <time>2016-03-13T13:34:11Z</time>
      </trkpt>
      <trkpt lat="42.81506" lon="0.45613">
        <ele>1880</ele>
        <time>2016-03-13T13:34:14Z</time>
      </trkpt>
      <trkpt lat="42.815" lon="0.45614">
        <ele>1877.59</ele>
        <time>2016-03-13T13:34:21Z</time>
      </trkpt>
      <trkpt lat="42.81498" lon="0.45614">
        <ele>1877.11</ele>
        <time>2016-03-13T13:34:23Z</time>
      </trkpt>
      <trkpt lat="42.81496" lon="0.45614">
        <ele>1876.63</ele>
        <time>2016-03-13T13:34:25Z</time>
      </trkpt>
      <trkpt lat="42.81485" lon="0.45613">
        <ele>1873.27</ele>
        <time>2016-03-13T13:34:35Z</time>
      </trkpt>
      <trkpt lat="42.8147" lon="0.45616">
        <ele>1869.42</ele>
        <time>2016-03-13T13:34:48Z</time>
      </trkpt>
      <trkpt lat="42.81467" lon="0.45617">
        <ele>1868.94</ele>
        <time>2016-03-13T13:34:51Z</time>
      </trkpt>
      <trkpt lat="42.81465" lon="0.45617">
        <ele>1868.46</ele>
        <time>2016-03-13T13:34:53Z</time>
      </trkpt>
      <trkpt lat="42.81463" lon="0.45618">
        <ele>1868.46</ele>
        <time>2016-03-13T13:34:55Z</time>
      </trkpt>
      <trkpt lat="42.81455" lon="0.45619">
        <ele>1867.98</ele>
        <time>2016-03-13T13:35:11Z</time>
      </trkpt>
      <trkpt lat="42.81451" lon="0.45624">
        <ele>1867.5</ele>
        <time>2016-03-13T13:37:05Z</time>
      </trkpt>
      <trkpt lat="42.81439" lon="0.4564">
        <ele>1867.5</ele>
        <time>2016-03-13T13:37:21Z</time>
      </trkpt>
      <trkpt lat="42.81429" lon="0.4565">
        <ele>1865.09</ele>
        <time>2016-03-13T13:37:36Z</time>
      </trkpt>
      <trkpt lat="42.81429" lon="0.4565">
        <ele>1865.09</ele>
        <time>2016-03-13T13:37:39Z</time>
      </trkpt>
      <trkpt lat="42.81426" lon="0.45655">
        <ele>1864.61</ele>
        <time>2016-03-13T13:37:44Z</time>
      </trkpt>
      <trkpt lat="42.8142" lon="0.4567">
        <ele>1864.13</ele>
        <time>2016-03-13T13:37:55Z</time>
      </trkpt>
      <trkpt lat="42.81406" lon="0.45669">
        <ele>1864.61</ele>
        <time>2016-03-13T13:41:25Z</time>
      </trkpt>
      <trkpt lat="42.81404" lon="0.4566">
        <ele>1864.61</ele>
        <time>2016-03-13T13:41:32Z</time>
      </trkpt>
      <trkpt lat="42.81398" lon="0.45648">
        <ele>1864.61</ele>
        <time>2016-03-13T13:41:45Z</time>
      </trkpt>
      <trkpt lat="42.81394" lon="0.45638">
        <ele>1864.61</ele>
        <time>2016-03-13T13:41:53Z</time>
      </trkpt>
      <trkpt lat="42.81383" lon="0.45624">
        <ele>1865.58</ele>
        <time>2016-03-13T13:42:09Z</time>
      </trkpt>
      <trkpt lat="42.81382" lon="0.45623">
        <ele>1865.58</ele>
        <time>2016-03-13T13:42:10Z</time>
      </trkpt>
      <trkpt lat="42.8138" lon="0.45619">
        <ele>1865.58</ele>
        <time>2016-03-13T13:42:14Z</time>
      </trkpt>
      <trkpt lat="42.81378" lon="0.45612">
        <ele>1864.13</ele>
        <time>2016-03-13T13:42:19Z</time>
      </trkpt>
      <trkpt lat="42.81372" lon="0.456">
        <ele>1860.77</ele>
        <time>2016-03-13T13:42:30Z</time>
      </trkpt>
      <trkpt lat="42.81368" lon="0.45598">
        <ele>1859.81</ele>
        <time>2016-03-13T13:42:34Z</time>
      </trkpt>
      <trkpt lat="42.81361" lon="0.45597">
        <ele>1856.44</ele>
        <time>2016-03-13T13:42:43Z</time>
      </trkpt>
      <trkpt lat="42.81358" lon="0.45597">
        <ele>1855</ele>
        <time>2016-03-13T13:42:46Z</time>
      </trkpt>
      <trkpt lat="42.81352" lon="0.45598">
        <ele>1851.64</ele>
        <time>2016-03-13T13:42:52Z</time>
      </trkpt>
      <trkpt lat="42.81346" lon="0.45597">
        <ele>1848.75</ele>
        <time>2016-03-13T13:42:57Z</time>
      </trkpt>
      <trkpt lat="42.81338" lon="0.45599">
        <ele>1844.91</ele>
        <time>2016-03-13T13:43:04Z</time>
      </trkpt>
      <trkpt lat="42.81332" lon="0.456">
        <ele>1841.54</ele>
        <time>2016-03-13T13:43:09Z</time>
      </trkpt>
      <trkpt lat="42.81331" lon="0.45601">
        <ele>1842.02</ele>
        <time>2016-03-13T13:43:10Z</time>
      </trkpt>
      <trkpt lat="42.81324" lon="0.45601">
        <ele>1838.18</ele>
        <time>2016-03-13T13:43:15Z</time>
      </trkpt>
      <trkpt lat="42.81316" lon="0.45601">
        <ele>1834.81</ele>
        <time>2016-03-13T13:43:21Z</time>
      </trkpt>
      <trkpt lat="42.81314" lon="0.45601">
        <ele>1834.33</ele>
        <time>2016-03-13T13:43:23Z</time>
      </trkpt>
      <trkpt lat="42.81304" lon="0.456">
        <ele>1830.97</ele>
        <time>2016-03-13T13:43:31Z</time>
      </trkpt>
      <trkpt lat="42.81292" lon="0.45602">
        <ele>1828.08</ele>
        <time>2016-03-13T13:43:40Z</time>
      </trkpt>
      <trkpt lat="42.81281" lon="0.45602">
        <ele>1824.24</ele>
        <time>2016-03-13T13:43:49Z</time>
      </trkpt>
      <trkpt lat="42.81268" lon="0.45603">
        <ele>1821.84</ele>
        <time>2016-03-13T13:44:02Z</time>
      </trkpt>
      <trkpt lat="42.81253" lon="0.45607">
        <ele>1819.43</ele>
        <time>2016-03-13T13:44:16Z</time>
      </trkpt>
      <trkpt lat="42.81242" lon="0.45611">
        <ele>1816.55</ele>
        <time>2016-03-13T13:44:24Z</time>
      </trkpt>
      <trkpt lat="42.8123" lon="0.45613">
        <ele>1813.18</ele>
        <time>2016-03-13T13:44:33Z</time>
      </trkpt>
      <trkpt lat="42.81219" lon="0.45617">
        <ele>1810.3</ele>
        <time>2016-03-13T13:44:42Z</time>
      </trkpt>
      <trkpt lat="42.81207" lon="0.45619">
        <ele>1806.94</ele>
        <time>2016-03-13T13:44:50Z</time>
      </trkpt>
      <trkpt lat="42.81193" lon="0.45623">
        <ele>1803.57</ele>
        <time>2016-03-13T13:45:00Z</time>
      </trkpt>
      <trkpt lat="42.81181" lon="0.45623">
        <ele>1802.13</ele>
        <time>2016-03-13T13:45:16Z</time>
      </trkpt>
      <trkpt lat="42.8118" lon="0.45624">
        <ele>1801.65</ele>
        <time>2016-03-13T13:45:30Z</time>
      </trkpt>
      <trkpt lat="42.81166" lon="0.45625">
        <ele>1801.65</ele>
        <time>2016-03-13T13:45:44Z</time>
      </trkpt>
      <trkpt lat="42.81153" lon="0.45626">
        <ele>1801.65</ele>
        <time>2016-03-13T13:45:57Z</time>
      </trkpt>
      <trkpt lat="42.8114" lon="0.45624">
        <ele>1803.57</ele>
        <time>2016-03-13T13:46:11Z</time>
      </trkpt>
      <trkpt lat="42.81128" lon="0.45621">
        <ele>1805.01</ele>
        <time>2016-03-13T13:46:25Z</time>
      </trkpt>
      <trkpt lat="42.81124" lon="0.45619">
        <ele>1805.49</ele>
        <time>2016-03-13T13:46:29Z</time>
      </trkpt>
      <trkpt lat="42.81113" lon="0.45613">
        <ele>1806.94</ele>
        <time>2016-03-13T13:46:44Z</time>
      </trkpt>
      <trkpt lat="42.81107" lon="0.45612">
        <ele>1808.38</ele>
        <time>2016-03-13T13:46:56Z</time>
      </trkpt>
      <trkpt lat="42.811" lon="0.45611">
        <ele>1810.78</ele>
        <time>2016-03-13T13:47:10Z</time>
      </trkpt>
      <trkpt lat="42.81094" lon="0.45611">
        <ele>1813.18</ele>
        <time>2016-03-13T13:47:23Z</time>
      </trkpt>
      <trkpt lat="42.81086" lon="0.45609">
        <ele>1815.59</ele>
        <time>2016-03-13T13:47:38Z</time>
      </trkpt>
      <trkpt lat="42.81083" lon="0.45607">
        <ele>1816.55</ele>
        <time>2016-03-13T13:47:54Z</time>
      </trkpt>
      <trkpt lat="42.81079" lon="0.45606">
        <ele>1817.51</ele>
        <time>2016-03-13T13:48:08Z</time>
      </trkpt>
      <trkpt lat="42.81074" lon="0.45606">
        <ele>1819.91</ele>
        <time>2016-03-13T13:48:22Z</time>
      </trkpt>
      <trkpt lat="42.81069" lon="0.45604">
        <ele>1821.84</ele>
        <time>2016-03-13T13:48:35Z</time>
      </trkpt>
      <trkpt lat="42.81064" lon="0.45603">
        <ele>1824.72</ele>
        <time>2016-03-13T13:48:50Z</time>
      </trkpt>
      <trkpt lat="42.81061" lon="0.45604">
        <ele>1826.16</ele>
        <time>2016-03-13T13:49:07Z</time>
      </trkpt>
      <trkpt lat="42.81058" lon="0.45606">
        <ele>1828.56</ele>
        <time>2016-03-13T13:49:21Z</time>
      </trkpt>
      <trkpt lat="42.81053" lon="0.45607">
        <ele>1830.97</ele>
        <time>2016-03-13T13:49:35Z</time>
      </trkpt>
      <trkpt lat="42.8105" lon="0.45608">
        <ele>1832.41</ele>
        <time>2016-03-13T13:49:48Z</time>
      </trkpt>
      <trkpt lat="42.81045" lon="0.4561">
        <ele>1835.77</ele>
        <time>2016-03-13T13:50:04Z</time>
      </trkpt>
      <trkpt lat="42.81042" lon="0.45612">
        <ele>1836.26</ele>
        <time>2016-03-13T13:50:20Z</time>
      </trkpt>
      <trkpt lat="42.81036" lon="0.45616">
        <ele>1839.14</ele>
        <time>2016-03-13T13:50:34Z</time>
      </trkpt>
      <trkpt lat="42.81029" lon="0.4562">
        <ele>1842.5</ele>
        <time>2016-03-13T13:50:48Z</time>
      </trkpt>
      <trkpt lat="42.8102" lon="0.45625">
        <ele>1845.39</ele>
        <time>2016-03-13T13:51:04Z</time>
      </trkpt>
      <trkpt lat="42.81014" lon="0.45629">
        <ele>1846.83</ele>
        <time>2016-03-13T13:51:16Z</time>
      </trkpt>
      <trkpt lat="42.8101" lon="0.45632">
        <ele>1847.31</ele>
        <time>2016-03-13T13:51:31Z</time>
      </trkpt>
      <trkpt lat="42.81002" lon="0.45638">
        <ele>1847.31</ele>
        <time>2016-03-13T13:51:44Z</time>
      </trkpt>
      <trkpt lat="42.80999" lon="0.4564">
        <ele>1847.31</ele>
        <time>2016-03-13T13:52:21Z</time>
      </trkpt>
      <trkpt lat="42.80996" lon="0.45645">
        <ele>1847.31</ele>
        <time>2016-03-13T13:52:33Z</time>
      </trkpt>
      <trkpt lat="42.80997" lon="0.45645">
        <ele>1847.31</ele>
        <time>2016-03-13T13:52:49Z</time>
      </trkpt>
      <trkpt lat="42.80987" lon="0.4565">
        <ele>1843.95</ele>
        <time>2016-03-13T13:52:58Z</time>
      </trkpt>
      <trkpt lat="42.80985" lon="0.45651">
        <ele>1843.47</ele>
        <time>2016-03-13T13:53:00Z</time>
      </trkpt>
      <trkpt lat="42.80977" lon="0.45658">
        <ele>1840.1</ele>
        <time>2016-03-13T13:53:09Z</time>
      </trkpt>
      <trkpt lat="42.80969" lon="0.45662">
        <ele>1836.26</ele>
        <time>2016-03-13T13:53:17Z</time>
      </trkpt>
      <trkpt lat="42.80967" lon="0.45664">
        <ele>1835.29</ele>
        <time>2016-03-13T13:53:19Z</time>
      </trkpt>
      <trkpt lat="42.80964" lon="0.45666">
        <ele>1834.33</ele>
        <time>2016-03-13T13:53:22Z</time>
      </trkpt>
      <trkpt lat="42.80955" lon="0.45676">
        <ele>1830.49</ele>
        <time>2016-03-13T13:53:32Z</time>
      </trkpt>
      <trkpt lat="42.8095" lon="0.45677">
        <ele>1828.56</ele>
        <time>2016-03-13T13:53:36Z</time>
      </trkpt>
      <trkpt lat="42.80941" lon="0.4568">
        <ele>1825.68</ele>
        <time>2016-03-13T13:53:43Z</time>
      </trkpt>
      <trkpt lat="42.80939" lon="0.4568">
        <ele>1824.72</ele>
        <time>2016-03-13T13:53:45Z</time>
      </trkpt>
      <trkpt lat="42.80932" lon="0.45682">
        <ele>1821.35</ele>
        <time>2016-03-13T13:53:52Z</time>
      </trkpt>
      <trkpt lat="42.80921" lon="0.45683">
        <ele>1817.99</ele>
        <time>2016-03-13T13:54:02Z</time>
      </trkpt>
      <trkpt lat="42.80921" lon="0.45683">
        <ele>1817.99</ele>
        <time>2016-03-13T13:54:03Z</time>
      </trkpt>
      <trkpt lat="42.80913" lon="0.45688">
        <ele>1814.15</ele>
        <time>2016-03-13T13:54:13Z</time>
      </trkpt>
      <trkpt lat="42.80909" lon="0.45693">
        <ele>1813.18</ele>
        <time>2016-03-13T13:54:28Z</time>
      </trkpt>
      <trkpt lat="42.80902" lon="0.457">
        <ele>1809.82</ele>
        <time>2016-03-13T13:54:38Z</time>
      </trkpt>
      <trkpt lat="42.80895" lon="0.45707">
        <ele>1805.49</ele>
        <time>2016-03-13T13:54:46Z</time>
      </trkpt>
      <trkpt lat="42.8089" lon="0.45707">
        <ele>1802.13</ele>
        <time>2016-03-13T13:54:51Z</time>
      </trkpt>
      <trkpt lat="42.80883" lon="0.45709">
        <ele>1798.76</ele>
        <time>2016-03-13T13:54:57Z</time>
      </trkpt>
      <trkpt lat="42.80877" lon="0.45712">
        <ele>1795.4</ele>
        <time>2016-03-13T13:55:03Z</time>
      </trkpt>
      <trkpt lat="42.80874" lon="0.45713">
        <ele>1793.96</ele>
        <time>2016-03-13T13:55:06Z</time>
      </trkpt>
      <trkpt lat="42.80873" lon="0.45713">
        <ele>1792.52</ele>
        <time>2016-03-13T13:55:07Z</time>
      </trkpt>
      <trkpt lat="42.80866" lon="0.45716">
        <ele>1789.15</ele>
        <time>2016-03-13T13:55:14Z</time>
      </trkpt>
      <trkpt lat="42.80864" lon="0.45716">
        <ele>1788.67</ele>
        <time>2016-03-13T13:55:16Z</time>
      </trkpt>
      <trkpt lat="42.80857" lon="0.45721">
        <ele>1785.31</ele>
        <time>2016-03-13T13:55:23Z</time>
      </trkpt>
      <trkpt lat="42.80845" lon="0.45725">
        <ele>1781.94</ele>
        <time>2016-03-13T13:55:32Z</time>
      </trkpt>
      <trkpt lat="42.80835" lon="0.45727">
        <ele>1778.58</ele>
        <time>2016-03-13T13:55:40Z</time>
      </trkpt>
      <trkpt lat="42.80824" lon="0.45732">
        <ele>1775.69</ele>
        <time>2016-03-13T13:55:48Z</time>
      </trkpt>
      <trkpt lat="42.80817" lon="0.45735">
        <ele>1772.33</ele>
        <time>2016-03-13T13:55:54Z</time>
      </trkpt>
      <trkpt lat="42.80803" lon="0.45742">
        <ele>1769.44</ele>
        <time>2016-03-13T13:56:05Z</time>
      </trkpt>
      <trkpt lat="42.80792" lon="0.45745">
        <ele>1767.52</ele>
        <time>2016-03-13T13:56:16Z</time>
      </trkpt>
      <trkpt lat="42.80784" lon="0.4575">
        <ele>1767.52</ele>
        <time>2016-03-13T13:56:36Z</time>
      </trkpt>
      <trkpt lat="42.8077" lon="0.45759">
        <ele>1768.96</ele>
        <time>2016-03-13T13:56:51Z</time>
      </trkpt>
      <trkpt lat="42.8076" lon="0.45763">
        <ele>1771.37</ele>
        <time>2016-03-13T13:57:05Z</time>
      </trkpt>
      <trkpt lat="42.80751" lon="0.45767">
        <ele>1773.77</ele>
        <time>2016-03-13T13:57:21Z</time>
      </trkpt>
      <trkpt lat="42.80745" lon="0.45769">
        <ele>1776.65</ele>
        <time>2016-03-13T13:57:35Z</time>
      </trkpt>
      <trkpt lat="42.80742" lon="0.45771">
        <ele>1778.1</ele>
        <time>2016-03-13T13:57:55Z</time>
      </trkpt>
      <trkpt lat="42.80738" lon="0.45773">
        <ele>1780.98</ele>
        <time>2016-03-13T13:58:07Z</time>
      </trkpt>
      <trkpt lat="42.80733" lon="0.45776">
        <ele>1783.38</ele>
        <time>2016-03-13T13:58:23Z</time>
      </trkpt>
      <trkpt lat="42.80728" lon="0.45779">
        <ele>1786.27</ele>
        <time>2016-03-13T13:58:39Z</time>
      </trkpt>
      <trkpt lat="42.80723" lon="0.45779">
        <ele>1788.19</ele>
        <time>2016-03-13T13:58:58Z</time>
      </trkpt>
      <trkpt lat="42.80721" lon="0.45784">
        <ele>1791.07</ele>
        <time>2016-03-13T13:59:12Z</time>
      </trkpt>
      <trkpt lat="42.80717" lon="0.45786">
        <ele>1793.48</ele>
        <time>2016-03-13T13:59:27Z</time>
      </trkpt>
      <trkpt lat="42.80712" lon="0.45789">
        <ele>1795.4</ele>
        <time>2016-03-13T13:59:39Z</time>
      </trkpt>
      <trkpt lat="42.80708" lon="0.45795">
        <ele>1798.28</ele>
        <time>2016-03-13T13:59:52Z</time>
      </trkpt>
      <trkpt lat="42.80705" lon="0.45805">
        <ele>1800.69</ele>
        <time>2016-03-13T14:00:06Z</time>
      </trkpt>
      <trkpt lat="42.80705" lon="0.45817">
        <ele>1802.13</ele>
        <time>2016-03-13T14:00:20Z</time>
      </trkpt>
      <trkpt lat="42.80705" lon="0.45826">
        <ele>1804.05</ele>
        <time>2016-03-13T14:00:34Z</time>
      </trkpt>
      <trkpt lat="42.80705" lon="0.45827">
        <ele>1802.61</ele>
        <time>2016-03-13T14:00:41Z</time>
      </trkpt>
      <trkpt lat="42.80705" lon="0.45827">
        <ele>1803.09</ele>
        <time>2016-03-13T14:01:14Z</time>
      </trkpt>
      <trkpt lat="42.80704" lon="0.45834">
        <ele>1804.05</ele>
        <time>2016-03-13T14:02:20Z</time>
      </trkpt>
      <trkpt lat="42.80702" lon="0.45839">
        <ele>1803.57</ele>
        <time>2016-03-13T14:03:00Z</time>
      </trkpt>
      <trkpt lat="42.80701" lon="0.45846">
        <ele>1803.57</ele>
        <time>2016-03-13T14:03:06Z</time>
      </trkpt>
      <trkpt lat="42.80694" lon="0.45862">
        <ele>1803.57</ele>
        <time>2016-03-13T14:03:20Z</time>
      </trkpt>
      <trkpt lat="42.80692" lon="0.45866">
        <ele>1802.13</ele>
        <time>2016-03-13T14:03:23Z</time>
      </trkpt>
      <trkpt lat="42.80688" lon="0.45871">
        <ele>1801.65</ele>
        <time>2016-03-13T14:03:36Z</time>
      </trkpt>
      <trkpt lat="42.80676" lon="0.45883">
        <ele>1798.76</ele>
        <time>2016-03-13T14:03:50Z</time>
      </trkpt>
      <trkpt lat="42.80668" lon="0.4589">
        <ele>1795.88</ele>
        <time>2016-03-13T14:04:00Z</time>
      </trkpt>
      <trkpt lat="42.8066" lon="0.45896">
        <ele>1793.96</ele>
        <time>2016-03-13T14:04:08Z</time>
      </trkpt>
      <trkpt lat="42.80647" lon="0.45907">
        <ele>1792.03</ele>
        <time>2016-03-13T14:04:20Z</time>
      </trkpt>
      <trkpt lat="42.80645" lon="0.45909">
        <ele>1792.03</ele>
        <time>2016-03-13T14:04:22Z</time>
      </trkpt>
      <trkpt lat="42.80632" lon="0.45918">
        <ele>1790.59</ele>
        <time>2016-03-13T14:04:36Z</time>
      </trkpt>
      <trkpt lat="42.8063" lon="0.4592">
        <ele>1790.59</ele>
        <time>2016-03-13T14:04:39Z</time>
      </trkpt>
      <trkpt lat="42.80628" lon="0.45924">
        <ele>1790.59</ele>
        <time>2016-03-13T14:04:56Z</time>
      </trkpt>
      <trkpt lat="42.80624" lon="0.45922">
        <ele>1792.03</ele>
        <time>2016-03-13T14:05:16Z</time>
      </trkpt>
      <trkpt lat="42.8062" lon="0.45922">
        <ele>1790.11</ele>
        <time>2016-03-13T14:05:21Z</time>
      </trkpt>
      <trkpt lat="42.8062" lon="0.45922">
        <ele>1792.03</ele>
        <time>2016-03-13T14:05:23Z</time>
      </trkpt>
      <trkpt lat="42.8062" lon="0.45921">
        <ele>1792.03</ele>
        <time>2016-03-13T14:05:39Z</time>
      </trkpt>
      <trkpt lat="42.80609" lon="0.45921">
        <ele>1790.11</ele>
        <time>2016-03-13T14:05:49Z</time>
      </trkpt>
      <trkpt lat="42.80593" lon="0.45918">
        <ele>1790.11</ele>
        <time>2016-03-13T14:06:06Z</time>
      </trkpt>
      <trkpt lat="42.80577" lon="0.45913">
        <ele>1787.23</ele>
        <time>2016-03-13T14:06:22Z</time>
      </trkpt>
      <trkpt lat="42.80575" lon="0.45913">
        <ele>1786.27</ele>
        <time>2016-03-13T14:06:24Z</time>
      </trkpt>
      <trkpt lat="42.80571" lon="0.45911">
        <ele>1784.82</ele>
        <time>2016-03-13T14:06:27Z</time>
      </trkpt>
      <trkpt lat="42.80567" lon="0.4591">
        <ele>1782.42</ele>
        <time>2016-03-13T14:06:30Z</time>
      </trkpt>
      <trkpt lat="42.80559" lon="0.45907">
        <ele>1778.58</ele>
        <time>2016-03-13T14:06:37Z</time>
      </trkpt>
      <trkpt lat="42.80552" lon="0.45907">
        <ele>1775.21</ele>
        <time>2016-03-13T14:06:43Z</time>
      </trkpt>
      <trkpt lat="42.80542" lon="0.45907">
        <ele>1771.37</ele>
        <time>2016-03-13T14:06:51Z</time>
      </trkpt>
      <trkpt lat="42.80534" lon="0.45904">
        <ele>1768.48</ele>
        <time>2016-03-13T14:06:57Z</time>
      </trkpt>
      <trkpt lat="42.80526" lon="0.45902">
        <ele>1766.08</ele>
        <time>2016-03-13T14:07:03Z</time>
      </trkpt>
      <trkpt lat="42.80522" lon="0.45901">
        <ele>1764.64</ele>
        <time>2016-03-13T14:07:06Z</time>
      </trkpt>
      <trkpt lat="42.8051" lon="0.45896">
        <ele>1761.27</ele>
        <time>2016-03-13T14:07:15Z</time>
      </trkpt>
      <trkpt lat="42.80503" lon="0.45887">
        <ele>1758.39</ele>
        <time>2016-03-13T14:07:23Z</time>
      </trkpt>
      <trkpt lat="42.80493" lon="0.45876">
        <ele>1755.02</ele>
        <time>2016-03-13T14:07:33Z</time>
      </trkpt>
      <trkpt lat="42.80486" lon="0.45864">
        <ele>1752.14</ele>
        <time>2016-03-13T14:07:49Z</time>
      </trkpt>
      <trkpt lat="42.80482" lon="0.45859">
        <ele>1750.7</ele>
        <time>2016-03-13T14:07:54Z</time>
      </trkpt>
      <trkpt lat="42.80474" lon="0.45855">
        <ele>1748.78</ele>
        <time>2016-03-13T14:08:08Z</time>
      </trkpt>
      <trkpt lat="42.80471" lon="0.45847">
        <ele>1746.85</ele>
        <time>2016-03-13T14:08:24Z</time>
      </trkpt>
      <trkpt lat="42.80467" lon="0.45831">
        <ele>1744.45</ele>
        <time>2016-03-13T14:08:38Z</time>
      </trkpt>
      <trkpt lat="42.80465" lon="0.45812">
        <ele>1741.08</ele>
        <time>2016-03-13T14:08:49Z</time>
      </trkpt>
      <trkpt lat="42.80465" lon="0.45809">
        <ele>1740.12</ele>
        <time>2016-03-13T14:08:51Z</time>
      </trkpt>
      <trkpt lat="42.80465" lon="0.45807">
        <ele>1740.12</ele>
        <time>2016-03-13T14:08:52Z</time>
      </trkpt>
      <trkpt lat="42.80463" lon="0.45792">
        <ele>1736.28</ele>
        <time>2016-03-13T14:09:01Z</time>
      </trkpt>
      <trkpt lat="42.80463" lon="0.45772">
        <ele>1732.91</ele>
        <time>2016-03-13T14:09:12Z</time>
      </trkpt>
      <trkpt lat="42.80465" lon="0.45753">
        <ele>1730.03</ele>
        <time>2016-03-13T14:09:23Z</time>
      </trkpt>
      <trkpt lat="42.80468" lon="0.4574">
        <ele>1727.15</ele>
        <time>2016-03-13T14:09:31Z</time>
      </trkpt>
      <trkpt lat="42.80468" lon="0.45739">
        <ele>1727.15</ele>
        <time>2016-03-13T14:09:32Z</time>
      </trkpt>
      <trkpt lat="42.8047" lon="0.45732">
        <ele>1725.22</ele>
        <time>2016-03-13T14:09:47Z</time>
      </trkpt>
      <trkpt lat="42.80471" lon="0.45719">
        <ele>1723.3</ele>
        <time>2016-03-13T14:10:01Z</time>
      </trkpt>
      <trkpt lat="42.80469" lon="0.45715">
        <ele>1722.82</ele>
        <time>2016-03-13T14:10:04Z</time>
      </trkpt>
      <trkpt lat="42.80466" lon="0.45706">
        <ele>1719.94</ele>
        <time>2016-03-13T14:10:10Z</time>
      </trkpt>
      <trkpt lat="42.80463" lon="0.45691">
        <ele>1716.09</ele>
        <time>2016-03-13T14:10:20Z</time>
      </trkpt>
      <trkpt lat="42.80462" lon="0.4569">
        <ele>1716.09</ele>
        <time>2016-03-13T14:10:21Z</time>
      </trkpt>
      <trkpt lat="42.80462" lon="0.45686">
        <ele>1714.65</ele>
        <time>2016-03-13T14:10:25Z</time>
      </trkpt>
      <trkpt lat="42.80463" lon="0.45672">
        <ele>1711.28</ele>
        <time>2016-03-13T14:10:38Z</time>
      </trkpt>
      <trkpt lat="42.80459" lon="0.45673">
        <ele>1711.28</ele>
        <time>2016-03-13T14:10:54Z</time>
      </trkpt>
      <trkpt lat="42.80458" lon="0.45673">
        <ele>1710.8</ele>
        <time>2016-03-13T14:11:23Z</time>
      </trkpt>
      <trkpt lat="42.80456" lon="0.45677">
        <ele>1710.8</ele>
        <time>2016-03-13T14:11:44Z</time>
      </trkpt>
      <trkpt lat="42.80454" lon="0.45679">
        <ele>1710.32</ele>
        <time>2016-03-13T14:11:48Z</time>
      </trkpt>
      <trkpt lat="42.8044" lon="0.45693">
        <ele>1708.88</ele>
        <time>2016-03-13T14:12:04Z</time>
      </trkpt>
      <trkpt lat="42.80436" lon="0.45696">
        <ele>1707.92</ele>
        <time>2016-03-13T14:12:08Z</time>
      </trkpt>
      <trkpt lat="42.80427" lon="0.45703">
        <ele>1706.48</ele>
        <time>2016-03-13T14:12:23Z</time>
      </trkpt>
      <trkpt lat="42.80426" lon="0.45703">
        <ele>1706</ele>
        <time>2016-03-13T14:12:52Z</time>
      </trkpt>
      <trkpt lat="42.80425" lon="0.45705">
        <ele>1706</ele>
        <time>2016-03-13T14:12:54Z</time>
      </trkpt>
      <trkpt lat="42.8042" lon="0.45714">
        <ele>1705.04</ele>
        <time>2016-03-13T14:13:02Z</time>
      </trkpt>
      <trkpt lat="42.80405" lon="0.45735">
        <ele>1702.15</ele>
        <time>2016-03-13T14:13:20Z</time>
      </trkpt>
      <trkpt lat="42.80402" lon="0.4574">
        <ele>1701.67</ele>
        <time>2016-03-13T14:13:24Z</time>
      </trkpt>
      <trkpt lat="42.804" lon="0.45751">
        <ele>1699.75</ele>
        <time>2016-03-13T14:16:11Z</time>
      </trkpt>
      <trkpt lat="42.804" lon="0.45763">
        <ele>1699.27</ele>
        <time>2016-03-13T14:16:21Z</time>
      </trkpt>
      <trkpt lat="42.804" lon="0.45765">
        <ele>1699.27</ele>
        <time>2016-03-13T14:16:24Z</time>
      </trkpt>
      <trkpt lat="42.804" lon="0.45782">
        <ele>1697.34</ele>
        <time>2016-03-13T14:16:38Z</time>
      </trkpt>
      <trkpt lat="42.80397" lon="0.45803">
        <ele>1693.98</ele>
        <time>2016-03-13T14:16:54Z</time>
      </trkpt>
      <trkpt lat="42.80398" lon="0.45824">
        <ele>1692.54</ele>
        <time>2016-03-13T14:17:11Z</time>
      </trkpt>
      <trkpt lat="42.80398" lon="0.45834">
        <ele>1691.58</ele>
        <time>2016-03-13T14:17:26Z</time>
      </trkpt>
      <trkpt lat="42.80399" lon="0.4586">
        <ele>1689.17</ele>
        <time>2016-03-13T14:17:43Z</time>
      </trkpt>
      <trkpt lat="42.80395" lon="0.45884">
        <ele>1686.77</ele>
        <time>2016-03-13T14:17:59Z</time>
      </trkpt>
      <trkpt lat="42.80393" lon="0.45909">
        <ele>1684.37</ele>
        <time>2016-03-13T14:18:16Z</time>
      </trkpt>
      <trkpt lat="42.80392" lon="0.45922">
        <ele>1683.41</ele>
        <time>2016-03-13T14:18:25Z</time>
      </trkpt>
      <trkpt lat="42.8039" lon="0.45938">
        <ele>1681.48</ele>
        <time>2016-03-13T14:18:36Z</time>
      </trkpt>
      <trkpt lat="42.80389" lon="0.45965">
        <ele>1678.6</ele>
        <time>2016-03-13T14:18:53Z</time>
      </trkpt>
      <trkpt lat="42.80388" lon="0.45993">
        <ele>1676.68</ele>
        <time>2016-03-13T14:19:11Z</time>
      </trkpt>
      <trkpt lat="42.80387" lon="0.46019">
        <ele>1674.75</ele>
        <time>2016-03-13T14:19:28Z</time>
      </trkpt>
      <trkpt lat="42.80386" lon="0.4604">
        <ele>1672.83</ele>
        <time>2016-03-13T14:19:42Z</time>
      </trkpt>
      <trkpt lat="42.80383" lon="0.46052">
        <ele>1671.87</ele>
        <time>2016-03-13T14:19:59Z</time>
      </trkpt>
      <trkpt lat="42.80383" lon="0.46074">
        <ele>1669.47</ele>
        <time>2016-03-13T14:20:14Z</time>
      </trkpt>
      <trkpt lat="42.80382" lon="0.46089">
        <ele>1668.02</ele>
        <time>2016-03-13T14:20:24Z</time>
      </trkpt>
      <trkpt lat="42.80381" lon="0.46097">
        <ele>1667.06</ele>
        <time>2016-03-13T14:20:29Z</time>
      </trkpt>
      <trkpt lat="42.80381" lon="0.46108">
        <ele>1666.1</ele>
        <time>2016-03-13T14:20:36Z</time>
      </trkpt>
      <trkpt lat="42.80379" lon="0.46121">
        <ele>1664.66</ele>
        <time>2016-03-13T14:20:44Z</time>
      </trkpt>
      <trkpt lat="42.80377" lon="0.46148">
        <ele>1661.3</ele>
        <time>2016-03-13T14:21:01Z</time>
      </trkpt>
      <trkpt lat="42.80375" lon="0.46155">
        <ele>1660.33</ele>
        <time>2016-03-13T14:21:06Z</time>
      </trkpt>
      <trkpt lat="42.80374" lon="0.4618">
        <ele>1657.93</ele>
        <time>2016-03-13T14:21:23Z</time>
      </trkpt>
      <trkpt lat="42.80372" lon="0.46207">
        <ele>1655.05</ele>
        <time>2016-03-13T14:21:41Z</time>
      </trkpt>
      <trkpt lat="42.80372" lon="0.46237">
        <ele>1653.12</ele>
        <time>2016-03-13T14:22:00Z</time>
      </trkpt>
      <trkpt lat="42.80366" lon="0.46235">
        <ele>1651.2</ele>
        <time>2016-03-13T14:22:13Z</time>
      </trkpt>
      <trkpt lat="42.80365" lon="0.46231">
        <ele>1650.24</ele>
        <time>2016-03-13T14:22:16Z</time>
      </trkpt>
      <trkpt lat="42.80358" lon="0.46208">
        <ele>1647.36</ele>
        <time>2016-03-13T14:22:32Z</time>
      </trkpt>
      <trkpt lat="42.80354" lon="0.46183">
        <ele>1644.95</ele>
        <time>2016-03-13T14:22:49Z</time>
      </trkpt>
      <trkpt lat="42.8035" lon="0.46163">
        <ele>1642.55</ele>
        <time>2016-03-13T14:23:05Z</time>
      </trkpt>
      <trkpt lat="42.80345" lon="0.46138">
        <ele>1640.63</ele>
        <time>2016-03-13T14:23:22Z</time>
      </trkpt>
      <trkpt lat="42.80344" lon="0.46116">
        <ele>1637.26</ele>
        <time>2016-03-13T14:23:36Z</time>
      </trkpt>
      <trkpt lat="42.80339" lon="0.46093">
        <ele>1635.34</ele>
        <time>2016-03-13T14:23:50Z</time>
      </trkpt>
      <trkpt lat="42.80333" lon="0.4606">
        <ele>1632.46</ele>
        <time>2016-03-13T14:24:09Z</time>
      </trkpt>
      <trkpt lat="42.80327" lon="0.46033">
        <ele>1629.57</ele>
        <time>2016-03-13T14:24:27Z</time>
      </trkpt>
      <trkpt lat="42.80323" lon="0.4601">
        <ele>1627.65</ele>
        <time>2016-03-13T14:24:42Z</time>
      </trkpt>
      <trkpt lat="42.80316" lon="0.45987">
        <ele>1624.28</ele>
        <time>2016-03-13T14:24:57Z</time>
      </trkpt>
      <trkpt lat="42.80315" lon="0.4597">
        <ele>1622.84</ele>
        <time>2016-03-13T14:25:10Z</time>
      </trkpt>
      <trkpt lat="42.80316" lon="0.45966">
        <ele>1622.84</ele>
        <time>2016-03-13T14:25:26Z</time>
      </trkpt>
      <trkpt lat="42.80315" lon="0.45954">
        <ele>1621.4</ele>
        <time>2016-03-13T14:25:45Z</time>
      </trkpt>
      <trkpt lat="42.80313" lon="0.45954">
        <ele>1620.92</ele>
        <time>2016-03-13T14:26:00Z</time>
      </trkpt>
      <trkpt lat="42.80304" lon="0.45939">
        <ele>1618.52</ele>
        <time>2016-03-13T14:26:14Z</time>
      </trkpt>
      <trkpt lat="42.80303" lon="0.45929">
        <ele>1617.56</ele>
        <time>2016-03-13T14:26:20Z</time>
      </trkpt>
      <trkpt lat="42.80306" lon="0.45915">
        <ele>1616.59</ele>
        <time>2016-03-13T14:26:30Z</time>
      </trkpt>
      <trkpt lat="42.80307" lon="0.45911">
        <ele>1616.11</ele>
        <time>2016-03-13T14:26:33Z</time>
      </trkpt>
      <trkpt lat="42.80306" lon="0.459">
        <ele>1615.15</ele>
        <time>2016-03-13T14:26:41Z</time>
      </trkpt>
      <trkpt lat="42.80299" lon="0.45884">
        <ele>1613.23</ele>
        <time>2016-03-13T14:26:57Z</time>
      </trkpt>
      <trkpt lat="42.80298" lon="0.45883">
        <ele>1613.71</ele>
        <time>2016-03-13T14:27:00Z</time>
      </trkpt>
      <trkpt lat="42.80294" lon="0.45867">
        <ele>1611.31</ele>
        <time>2016-03-13T14:27:13Z</time>
      </trkpt>
      <trkpt lat="42.80291" lon="0.45857">
        <ele>1609.86</ele>
        <time>2016-03-13T14:27:21Z</time>
      </trkpt>
      <trkpt lat="42.80287" lon="0.45832">
        <ele>1606.98</ele>
        <time>2016-03-13T14:27:38Z</time>
      </trkpt>
      <trkpt lat="42.80285" lon="0.45827">
        <ele>1606.5</ele>
        <time>2016-03-13T14:27:42Z</time>
      </trkpt>
      <trkpt lat="42.80285" lon="0.45819">
        <ele>1605.54</ele>
        <time>2016-03-13T14:27:48Z</time>
      </trkpt>
      <trkpt lat="42.80286" lon="0.45802">
        <ele>1603.62</ele>
        <time>2016-03-13T14:28:01Z</time>
      </trkpt>
      <trkpt lat="42.80283" lon="0.45816">
        <ele>1603.14</ele>
        <time>2016-03-13T14:28:19Z</time>
      </trkpt>
      <trkpt lat="42.80283" lon="0.45821">
        <ele>1603.14</ele>
        <time>2016-03-13T14:28:23Z</time>
      </trkpt>
      <trkpt lat="42.80279" lon="0.45839">
        <ele>1600.73</ele>
        <time>2016-03-13T14:28:37Z</time>
      </trkpt>
      <trkpt lat="42.80277" lon="0.45851">
        <ele>1599.77</ele>
        <time>2016-03-13T14:28:47Z</time>
      </trkpt>
      <trkpt lat="42.80275" lon="0.45874">
        <ele>1597.85</ele>
        <time>2016-03-13T14:29:04Z</time>
      </trkpt>
      <trkpt lat="42.80276" lon="0.45896">
        <ele>1595.45</ele>
        <time>2016-03-13T14:29:20Z</time>
      </trkpt>
      <trkpt lat="42.80278" lon="0.45911">
        <ele>1593.52</ele>
        <time>2016-03-13T14:29:32Z</time>
      </trkpt>
      <trkpt lat="42.80271" lon="0.45927">
        <ele>1591.6</ele>
        <time>2016-03-13T14:29:47Z</time>
      </trkpt>
      <trkpt lat="42.8027" lon="0.45938">
        <ele>1590.16</ele>
        <time>2016-03-13T14:29:55Z</time>
      </trkpt>
      <trkpt lat="42.80272" lon="0.45954">
        <ele>1588.72</ele>
        <time>2016-03-13T14:30:06Z</time>
      </trkpt>
      <trkpt lat="42.80269" lon="0.45973">
        <ele>1586.31</ele>
        <time>2016-03-13T14:30:21Z</time>
      </trkpt>
      <trkpt lat="42.80267" lon="0.4599">
        <ele>1584.87</ele>
        <time>2016-03-13T14:30:35Z</time>
      </trkpt>
      <trkpt lat="42.80267" lon="0.45991">
        <ele>1584.87</ele>
        <time>2016-03-13T14:30:36Z</time>
      </trkpt>
      <trkpt lat="42.80267" lon="0.46017">
        <ele>1581.99</ele>
        <time>2016-03-13T14:30:55Z</time>
      </trkpt>
      <trkpt lat="42.80265" lon="0.46036">
        <ele>1580.54</ele>
        <time>2016-03-13T14:31:08Z</time>
      </trkpt>
      <trkpt lat="42.80265" lon="0.46053">
        <ele>1579.58</ele>
        <time>2016-03-13T14:31:21Z</time>
      </trkpt>
      <trkpt lat="42.80262" lon="0.46073">
        <ele>1577.18</ele>
        <time>2016-03-13T14:31:37Z</time>
      </trkpt>
      <trkpt lat="42.80263" lon="0.46091">
        <ele>1576.22</ele>
        <time>2016-03-13T14:31:49Z</time>
      </trkpt>
      <trkpt lat="42.80261" lon="0.46103">
        <ele>1575.26</ele>
        <time>2016-03-13T14:31:57Z</time>
      </trkpt>
      <trkpt lat="42.8026" lon="0.46111">
        <ele>1574.3</ele>
        <time>2016-03-13T14:32:03Z</time>
      </trkpt>
      <trkpt lat="42.8026" lon="0.46116">
        <ele>1573.82</ele>
        <time>2016-03-13T14:32:06Z</time>
      </trkpt>
      <trkpt lat="42.80259" lon="0.46139">
        <ele>1571.41</ele>
        <time>2016-03-13T14:32:22Z</time>
      </trkpt>
      <trkpt lat="42.80254" lon="0.46166">
        <ele>1569.01</ele>
        <time>2016-03-13T14:32:40Z</time>
      </trkpt>
      <trkpt lat="42.8025" lon="0.46183">
        <ele>1567.09</ele>
        <time>2016-03-13T14:32:54Z</time>
      </trkpt>
      <trkpt lat="42.80247" lon="0.4619">
        <ele>1566.12</ele>
        <time>2016-03-13T14:33:05Z</time>
      </trkpt>
      <trkpt lat="42.8024" lon="0.46212">
        <ele>1563.24</ele>
        <time>2016-03-13T14:33:20Z</time>
      </trkpt>
      <trkpt lat="42.80239" lon="0.46215">
        <ele>1562.76</ele>
        <time>2016-03-13T14:33:22Z</time>
      </trkpt>
      <trkpt lat="42.80236" lon="0.46226">
        <ele>1562.28</ele>
        <time>2016-03-13T14:33:31Z</time>
      </trkpt>
      <trkpt lat="42.80232" lon="0.46243">
        <ele>1561.8</ele>
        <time>2016-03-13T14:33:47Z</time>
      </trkpt>
      <trkpt lat="42.80233" lon="0.46259">
        <ele>1561.8</ele>
        <time>2016-03-13T14:34:02Z</time>
      </trkpt>
      <trkpt lat="42.80234" lon="0.46274">
        <ele>1561.32</ele>
        <time>2016-03-13T14:34:13Z</time>
      </trkpt>
      <trkpt lat="42.80234" lon="0.46304">
        <ele>1561.32</ele>
        <time>2016-03-13T14:34:31Z</time>
      </trkpt>
      <trkpt lat="42.80232" lon="0.4631">
        <ele>1561.32</ele>
        <time>2016-03-13T14:34:56Z</time>
      </trkpt>
      <trkpt lat="42.8023" lon="0.46343">
        <ele>1560.36</ele>
        <time>2016-03-13T14:35:14Z</time>
      </trkpt>
      <trkpt lat="42.80234" lon="0.46377">
        <ele>1558.92</ele>
        <time>2016-03-13T14:35:33Z</time>
      </trkpt>
      <trkpt lat="42.80241" lon="0.46412">
        <ele>1555.07</ele>
        <time>2016-03-13T14:37:03Z</time>
      </trkpt>
      <trkpt lat="42.8024" lon="0.46413">
        <ele>1555.07</ele>
        <time>2016-03-13T14:37:15Z</time>
      </trkpt>
    </trkseg>
  </trk>
</gpx>